Provisional Data: Hunts Run near Cameron, PA


Please select a monitoring station.
Please select start date.
Please select start date.

Toggle Unit: C/F Toggle Unit: C/F
Sample Time Temperature (C) Temperature (F) Specific Conductivity (mS/cm) pH   Turbidity (NTU+) DO (mg/L)
10/20/2020 12:00:00 AM 10.25 50.45 0.051 6.7 1.82 10.1
10/20/2020 12:15:00 AM 10.25 50.45 0.051 6.71 1.89 10.09
10/20/2020 12:30:00 AM 10.26 50.468 0.051 6.69 1.98 10.09
10/20/2020 12:45:00 AM 10.26 50.468 0.051 6.7 1.93 10.1
10/20/2020 1:00:00 AM 10.27 50.486 0.051 6.7 2.04 10.1
10/20/2020 1:15:00 AM 10.27 50.486 0.051 6.65 2.03 10.12
10/20/2020 1:30:00 AM 10.28 50.504 0.051 6.71 2.03 10.13
10/20/2020 1:45:00 AM 10.28 50.504 0.051 6.7 2.04 10.12
10/20/2020 2:00:00 AM 10.29 50.522 0.051 6.7 2.38 10.12
10/20/2020 2:15:00 AM 10.3 50.54 0.051 6.7 2.11 10.13
10/20/2020 2:30:00 AM 10.3 50.54 0.051 6.71 2.08 10.11
10/20/2020 2:45:00 AM 10.31 50.558 0.051 6.7 2.04 10.11
10/20/2020 3:00:00 AM 10.32 50.576 0.051 6.66 2.09 10.12
10/20/2020 3:15:00 AM 10.33 50.594 0.051 6.72 2.06 10.13
10/20/2020 3:30:00 AM 10.33 50.594 0.051 6.72 2.13 10.12
10/20/2020 3:45:00 AM 10.34 50.612 0.051 6.7 2.16 10.13
10/20/2020 4:00:00 AM 10.35 50.63 0.051 6.68 2.51 10.16
10/20/2020 4:15:00 AM 10.36 50.648 0.051 6.72 2.32 10.16
10/20/2020 4:30:00 AM 10.37 50.666 0.051 6.64 2.2 10.17
10/20/2020 4:45:00 AM 10.38 50.684 0.052 6.74 2.11 10.17
10/20/2020 5:00:00 AM 10.39 50.702 0.051 6.73 2.14 10.18
10/20/2020 5:15:00 AM 10.39 50.702 0.051 6.72 2.07 10.22
10/20/2020 5:30:00 AM 10.4 50.72 0.051 6.72 2.17 10.21
10/20/2020 5:45:00 AM 10.41 50.738 0.05 6.72 2.09 10.23
10/20/2020 6:00:00 AM 10.42 50.756 0.05 6.71 2.17 10.24
10/20/2020 6:15:00 AM 10.43 50.774 0.05 6.71 2.25 10.23
10/20/2020 6:30:00 AM 10.43 50.774 0.049 6.71 2.41 10.23
10/20/2020 6:45:00 AM 10.44 50.792 0.049 6.71 2.13 10.22
10/20/2020 7:00:00 AM 10.45 50.81 0.049 6.68 2.57 10.21
10/20/2020 7:15:00 AM 10.45 50.81 0.049 6.7 2.34 10.21
10/20/2020 7:30:00 AM 10.45 50.81 0.049 6.7 3.49 10.22
10/20/2020 7:45:00 AM 10.46 50.828 0.049 6.7 2.83 10.22
10/20/2020 8:00:00 AM 10.47 50.846 0.049 6.69 2.33 10.23
10/20/2020 8:15:00 AM 10.47 50.846 0.049 6.66 2.32 10.22
10/20/2020 8:30:00 AM 10.48 50.864 0.049 6.7 2.57 10.23
10/20/2020 8:45:00 AM 10.49 50.882 0.049 6.69 2.61 10.26
10/20/2020 9:00:00 AM 10.5 50.9 0.049 6.7 2.55 10.26
10/20/2020 9:15:00 AM 10.51 50.918 0.049 6.69 2.45 10.24
10/20/2020 9:30:00 AM 10.54 50.972 0.049 6.67 2.76 10.29
10/20/2020 9:45:00 AM 10.58 51.044 0.05 6.72 2.36 10.32
10/20/2020 10:00:00 AM 10.62 51.116 0.05 6.73 2.33 10.34
10/20/2020 10:15:00 AM 10.67 51.206 0.05 6.64 2.51 10.36
10/20/2020 10:30:00 AM 10.71 51.278 0.05 6.74 2.29 10.37
10/20/2020 10:45:00 AM 10.75 51.35 0.049 6.7 2.39 10.38
10/20/2020 11:00:00 AM 10.77 51.386 0.049 6.76 2.52 10.37
10/20/2020 11:15:00 AM 10.78 51.404 0.049 6.69 2.49 10.36
10/20/2020 11:30:00 AM 10.8 51.44 0.05 6.76 2.59 10.36
10/20/2020 11:45:00 AM 10.83 51.494 0.05 6.74 2.43 10.36
10/20/2020 12:00:00 PM 10.85 51.53 0.05 6.72 2.67 10.37
10/20/2020 12:15:00 PM 10.87 51.566 0.05 6.77 2.9 10.36
10/20/2020 12:30:00 PM 10.89 51.602 0.05 6.76 3.16 10.37
10/20/2020 12:45:00 PM 10.91 51.638 0.05 6.7 3.48 10.38
10/20/2020 1:00:00 PM 10.94 51.692 0.05 6.79 3.9 10.38
10/20/2020 1:15:00 PM 10.97 51.746 0.05 6.73 3.7 10.39
10/20/2020 1:30:00 PM 10.98 51.764 0.05 6.77 3.84 10.39
10/20/2020 1:45:00 PM 11 51.8 0.049 6.71 3.8 10.38
10/20/2020 2:00:00 PM 11.02 51.836 0.05 6.77 3.78 10.35
10/20/2020 2:15:00 PM 11.04 51.872 0.05 6.78 4.2 10.35
10/20/2020 2:30:00 PM 11.06 51.908 0.05 6.79 5.18 10.37
10/20/2020 2:45:00 PM 11.07 51.926 0.05 6.78 3.19 10.37
10/20/2020 3:00:00 PM 11.08 51.944 0.05 6.73 3.13 10.35
10/20/2020 3:15:00 PM 11.09 51.962 0.05 6.77 2.99 10.36
10/20/2020 3:30:00 PM 11.1 51.98 0.049 6.78 2.99 10.36
10/20/2020 3:45:00 PM 11.11 51.998 0.05 6.69 3.68 10.36
10/20/2020 4:00:00 PM 11.12 52.016 0.05 6.75 5.01 10.33
10/20/2020 4:15:00 PM 11.13 52.034 0.049 6.78 3.79 10.33
10/20/2020 4:30:00 PM 11.14 52.052 0.049 6.77 3.38 10.33
10/20/2020 4:45:00 PM 11.14 52.052 0.049 6.75 3.48 10.33
10/20/2020 5:00:00 PM 11.14 52.052 0.049 6.76 3.37 10.32
10/20/2020 5:15:00 PM 11.14 52.052 0.049 6.67 3.31 10.31
10/20/2020 5:30:00 PM 11.14 52.052 0.049 6.77 3.42 10.31
10/20/2020 5:45:00 PM 11.14 52.052 0.05 6.77 3.82 10.3
10/20/2020 6:00:00 PM 11.14 52.052 0.049 6.75 3.44 10.3
10/20/2020 6:15:00 PM 11.14 52.052 0.049 6.75 3.39 10.27
10/20/2020 6:30:00 PM 11.14 52.052 0.049 6.74 3.09 10.29
10/20/2020 6:45:00 PM 11.15 52.07 0.049 6.76 2.89 10.28
10/20/2020 7:00:00 PM 11.15 52.07 0.049 6.7 3.18 10.28
10/20/2020 7:15:00 PM 11.14 52.052 0.049 6.76 3.1 10.29
10/20/2020 7:30:00 PM 11.14 52.052 0.049 6.7 3.17 10.28
10/20/2020 7:45:00 PM 11.14 52.052 0.048 6.71 3.26 10.29
10/20/2020 8:00:00 PM 11.14 52.052 0.048 6.73 3.08 10.28
10/20/2020 8:15:00 PM 11.14 52.052 0.048 6.78 3.2 10.29
10/20/2020 8:30:00 PM 11.14 52.052 0.048 6.75 3.05 10.28
10/20/2020 8:45:00 PM 11.14 52.052 0.048 6.76 3.11 10.29
10/20/2020 9:00:00 PM 11.14 52.052 0.048 6.78 2.85 10.29
10/20/2020 9:15:00 PM 11.14 52.052 0.048 6.71 2.71 10.3
10/20/2020 9:30:00 PM 11.14 52.052 0.048 6.78 2.74 10.3
10/20/2020 9:45:00 PM 11.14 52.052 0.048 6.69 2.6 10.3
10/20/2020 10:00:00 PM 11.13 52.034 0.048 6.74 2.96 10.3
10/20/2020 10:15:00 PM 11.13 52.034 0.048 6.78 2.77 10.3
10/20/2020 10:30:00 PM 11.13 52.034 0.048 6.77 2.71 10.3
10/20/2020 10:45:00 PM 11.12 52.016 0.048 6.78 2.52 10.3
10/20/2020 11:00:00 PM 11.12 52.016 0.048 6.77 2.67 10.29
10/20/2020 11:15:00 PM 11.12 52.016 0.048 6.7 2.75 10.3
10/20/2020 11:30:00 PM 11.12 52.016 0.047 6.78 2.53 10.29
10/20/2020 11:45:00 PM 11.12 52.016 0.047 6.77 2.84 10.3
10/21/2020 12:00:00 AM 11.11 51.998 0.047 6.75 2.44 10.29
10/21/2020 12:15:00 AM 11.11 51.998 0.047 6.76 3.2 10.29
10/21/2020 12:30:00 AM 11.11 51.998 0.047 6.76 2.53 10.3
10/21/2020 12:45:00 AM 11.11 51.998 0.047 6.69 2.51 10.29
10/21/2020 1:00:00 AM 11.11 51.998 0.047 6.75 2.51 10.29
10/21/2020 1:15:00 AM 11.1 51.98 0.047 6.75 2.52 10.29
10/21/2020 1:30:00 AM 11.1 51.98 0.047 6.73 2.43 10.29
10/21/2020 1:45:00 AM 11.1 51.98 0.047 6.74 2.47 10.3
10/21/2020 2:00:00 AM 11.1 51.98 0.047 6.74 2.28 10.29
10/21/2020 2:15:00 AM 11.1 51.98 0.047 6.75 2.4 10.28
10/21/2020 2:30:00 AM 11.09 51.962 0.047 6.73 2.43 10.29
10/21/2020 2:45:00 AM 11.08 51.944 0.047 6.73 2.41 10.28
10/21/2020 3:00:00 AM 11.08 51.944 0.047 6.73 2.35 10.28
10/21/2020 3:15:00 AM 11.07 51.926 0.047 6.73 2.42 10.29
10/21/2020 3:30:00 AM 11.07 51.926 0.047 6.73 2.72 10.29
10/21/2020 3:45:00 AM 11.07 51.926 0.047 6.72 2.21 10.28
10/21/2020 4:00:00 AM 11.06 51.908 0.047 6.73 2.27 10.29
10/21/2020 4:15:00 AM 11.05 51.89 0.047 6.73 2.16 10.28
10/21/2020 4:30:00 AM 11.05 51.89 0.047 6.73 2.66 10.29
10/21/2020 4:45:00 AM 11.05 51.89 0.047 6.73 2.35 10.28
10/21/2020 5:00:00 AM 11.05 51.89 0.047 6.74 2.21 10.29
10/21/2020 5:15:00 AM 11.04 51.872 0.047 6.62 2.38 10.28
10/21/2020 5:30:00 AM 11.02 51.836 0.047 6.74 2.31 10.29
10/21/2020 5:45:00 AM 11.01 51.818 0.047 6.63 2.41 10.29
10/21/2020 6:00:00 AM 11 51.8 0.047 6.74 2.22 10.3
10/21/2020 6:15:00 AM 11 51.8 0.047 6.72 2.22 10.3
10/21/2020 6:30:00 AM 10.99 51.782 0.047 6.67 2.16 10.3
10/21/2020 6:45:00 AM 10.98 51.764 0.047 6.73 2.07 10.3
10/21/2020 7:00:00 AM 10.98 51.764 0.047 6.6 2.12 10.29
10/21/2020 7:15:00 AM 10.98 51.764 0.047 6.73 2.13 10.3
10/21/2020 7:30:00 AM 10.98 51.764 0.047 6.74 2.24 10.29
10/21/2020 7:45:00 AM 10.98 51.764 0.047 6.7 2.38 10.27
10/21/2020 8:00:00 AM 10.98 51.764 0.047 6.74 2.18 10.3
10/21/2020 8:15:00 AM 10.99 51.782 0.047 6.74 2.04 10.35
10/21/2020 8:30:00 AM 11 51.8 0.046 6.74 2.06 10.36
10/21/2020 8:45:00 AM 11.01 51.818 0.046 6.76 1.98 10.37
10/21/2020 9:00:00 AM 11.02 51.836 0.046 6.65 2 10.38
10/21/2020 9:15:00 AM 11.05 51.89 0.046 6.77 2 10.39
10/21/2020 9:30:00 AM 11.09 51.962 0.046 6.78 2.23 10.41
10/21/2020 9:45:00 AM 11.15 52.07 0.046 6.72 2.19 10.43
10/21/2020 10:00:00 AM 11.19 52.142 0.046 6.77 1.98 10.39
10/21/2020 10:15:00 AM 11.24 52.232 0.046 6.79 2.16 10.4
10/21/2020 10:30:00 AM 11.27 52.286 0.046 6.72 1.94 10.39
10/21/2020 10:45:00 AM 11.32 52.376 0.046 6.82 2.03 10.4
10/21/2020 11:00:00 AM 11.42 52.556 0.046 6.81 2.09 10.4
10/21/2020 11:15:00 AM 11.54 52.772 0.046 6.81 2.02 10.38
10/21/2020 11:30:00 AM 11.66 52.988 0.046 6.83 1.93 10.34
10/21/2020 11:45:00 AM 11.8 53.24 0.046 6.79 2.03 10.33
10/21/2020 12:00:00 PM 11.98 53.564 0.046 6.83 1.99 10.32
10/21/2020 12:15:00 PM 12.17 53.906 0.046 6.78 1.99 10.29
10/21/2020 12:30:00 PM 12.35 54.23 0.046 6.85 1.88 10.24
10/21/2020 12:45:00 PM 12.53 54.554 0.046 6.84 2.64 10.22
10/21/2020 1:00:00 PM 12.66 54.788 0.046 6.87 2.01 10.16
10/21/2020 1:15:00 PM 12.78 55.004 0.046 6.86 2.09 10.12
10/21/2020 1:30:00 PM 12.95 55.31 0.046 6.86 1.93 10.1
10/21/2020 1:45:00 PM 13.1 55.58 0.046 6.86 1.8 10.05
10/21/2020 2:00:00 PM 13.2 55.76 0.046 6.86 2.75 10.02
10/21/2020 2:15:00 PM 13.29 55.922 0.046 6.87 3.09 10.01
10/21/2020 2:30:00 PM 13.32 55.976 0.046 6.85 1.93 9.97
10/21/2020 2:45:00 PM 13.4 56.12 0.046 6.84 1.92 9.94
10/21/2020 3:00:00 PM 13.41 56.138 0.046 6.81 2.02 9.89
10/21/2020 3:15:00 PM 13.42 56.156 0.046 6.85 1.83 9.86
10/21/2020 3:30:00 PM 13.46 56.228 0.046 6.84 2.09 9.85
10/21/2020 3:45:00 PM 13.49 56.282 0.046 6.83 1.79 9.84
10/21/2020 4:00:00 PM 13.52 56.336 0.046 6.75 1.79 9.79
10/21/2020 4:15:00 PM 13.51 56.318 0.046 6.83 1.81 9.81
10/21/2020 4:30:00 PM 13.5 56.3 0.047 6.82 1.88 9.78
10/21/2020 4:45:00 PM 13.48 56.264 0.047 6.75 1.82 9.76
10/21/2020 5:00:00 PM 13.43 56.174 0.047 6.71 1.94 9.73
10/21/2020 5:15:00 PM 13.41 56.138 0.047 6.79 1.78 9.72
10/21/2020 5:30:00 PM 13.4 56.12 0.047 6.76 1.88 9.67
10/21/2020 5:45:00 PM 13.36 56.048 0.047 6.73 1.88 9.67
10/21/2020 6:00:00 PM 13.32 55.976 0.047 6.76 1.89 9.67
10/21/2020 6:15:00 PM 13.28 55.904 0.047 6.74 1.96 9.67
10/21/2020 6:30:00 PM 13.24 55.832 0.047 6.72 1.95 9.65
10/21/2020 6:45:00 PM 13.2 55.76 0.047 6.66 1.89 9.64
10/21/2020 7:00:00 PM 13.16 55.688 0.047 6.72 1.9 9.64
10/21/2020 7:15:00 PM 13.12 55.616 0.047 6.71 1.9 9.64
10/21/2020 7:30:00 PM 13.09 55.562 0.047 6.68 1.84 9.63
10/21/2020 7:45:00 PM 13.05 55.49 0.047 6.68 1.92 9.63
10/21/2020 8:00:00 PM 13.03 55.454 0.047 6.69 1.87 9.64
10/21/2020 8:15:00 PM 13.01 55.418 0.047 6.68 1.83 9.63
10/21/2020 8:30:00 PM 12.99 55.382 0.047 6.59 1.82 9.64
10/21/2020 8:45:00 PM 12.97 55.346 0.047 6.68 1.77 9.62
10/21/2020 9:00:00 PM 12.96 55.328 0.047 6.6 2.06 9.63
10/21/2020 9:15:00 PM 12.95 55.31 0.047 6.63 1.82 9.64
10/21/2020 9:30:00 PM 12.92 55.256 0.047 6.59 1.86 9.64
10/21/2020 9:45:00 PM 12.9 55.22 0.047 6.66 1.92 9.67
10/21/2020 10:00:00 PM 12.88 55.184 0.047 6.63 1.84 9.65
10/21/2020 10:15:00 PM 12.87 55.166 0.047 6.59 1.85 9.64
10/21/2020 10:30:00 PM 12.85 55.13 0.047 6.64 1.79 9.67
10/21/2020 10:45:00 PM 12.84 55.112 0.048 6.63 1.81 9.66
10/21/2020 11:00:00 PM 12.82 55.076 0.048 6.58 1.82 9.67
10/21/2020 11:15:00 PM 12.79 55.022 0.048 6.64 1.84 9.68
10/21/2020 11:30:00 PM 12.76 54.968 0.048 6.64 1.88 9.68
10/21/2020 11:45:00 PM 12.74 54.932 0.048 6.64 2.16 9.69
10/22/2020 12:00:00 AM 12.72 54.896 0.048 6.54 1.79 9.68
10/22/2020 12:15:00 AM 12.71 54.878 0.048 6.61 1.81 9.68
10/22/2020 12:30:00 AM 12.7 54.86 0.048 6.62 1.83 9.69
10/22/2020 12:45:00 AM 12.69 54.842 0.048 6.63 1.74 9.7
10/22/2020 1:00:00 AM 12.68 54.824 0.048 6.6 1.83 9.71
10/22/2020 1:15:00 AM 12.68 54.824 0.048 6.65 1.79 9.7
10/22/2020 1:30:00 AM 12.68 54.824 0.048 6.63 1.82 9.69
10/22/2020 1:45:00 AM 12.68 54.824 0.048 6.65 1.87 9.73
10/22/2020 2:00:00 AM 12.68 54.824 0.048 6.67 1.85 9.71
10/22/2020 2:15:00 AM 12.68 54.824 0.048 6.66 1.85 9.72
10/22/2020 2:30:00 AM 12.68 54.824 0.048 6.67 1.74 9.72
10/22/2020 2:45:00 AM 12.67 54.806 0.048 6.6 1.8 9.71
10/22/2020 3:00:00 AM 12.67 54.806 0.048 6.68 1.77 9.72
10/22/2020 3:15:00 AM 12.67 54.806 0.048 6.63 1.77 9.67
10/22/2020 3:30:00 AM 12.66 54.788 0.048 6.66 1.87 9.71
10/22/2020 3:45:00 AM 12.65 54.77 0.048 6.61 1.74 9.71
10/22/2020 4:00:00 AM 12.65 54.77 0.048 6.65 1.72 9.71
10/22/2020 4:15:00 AM 12.64 54.752 0.048 6.65 1.73 9.71
10/22/2020 4:30:00 AM 12.62 54.716 0.048 6.62 1.79 9.7
10/22/2020 4:45:00 AM 12.61 54.698 0.048 6.66 1.76 9.7
10/22/2020 5:00:00 AM 12.59 54.662 0.048 6.64 1.7 9.72
10/22/2020 5:15:00 AM 12.58 54.644 0.048 6.65 1.82 9.71
10/22/2020 5:30:00 AM 12.57 54.626 0.048 6.63 1.85 9.71
10/22/2020 5:45:00 AM 12.56 54.608 0.048 6.59 1.75 9.71
10/22/2020 6:00:00 AM 12.55 54.59 0.048 6.65 1.72 9.74
10/22/2020 6:15:00 AM 12.55 54.59 0.048 6.64 1.8 9.74
10/22/2020 6:30:00 AM 12.54 54.572 0.048 6.63 1.87 9.7
10/22/2020 6:45:00 AM 12.54 54.572 0.048 6.63 1.75 9.72
10/22/2020 7:00:00 AM 12.52 54.536 0.048 6.64 1.72 9.75
10/22/2020 7:15:00 AM 12.51 54.518 0.048 6.63 1.8 9.75
10/22/2020 7:30:00 AM 12.5 54.5 0.048 6.63 2.98 9.7
10/22/2020 7:45:00 AM 12.5 54.5 0.048 6.58 1.69 9.72
10/22/2020 8:00:00 AM 12.49 54.482 0.048 6.63 1.68 9.72
10/22/2020 8:15:00 AM 12.49 54.482 0.048 6.55 1.86 9.75
10/22/2020 8:30:00 AM 12.5 54.5 0.048 6.64 1.72 9.77
10/22/2020 8:45:00 AM 12.52 54.536 0.048 6.64 1.9 9.78
10/22/2020 9:00:00 AM 12.53 54.554 0.048 6.65 1.77 9.82
10/22/2020 9:15:00 AM 12.55 54.59 0.048 6.65 1.78 9.85
10/22/2020 9:30:00 AM 12.59 54.662 0.048 6.66 1.77 9.88
10/22/2020 9:45:00 AM 12.66 54.788 0.048 6.69 1.65 9.92
10/22/2020 10:00:00 AM 12.73 54.914 0.048 6.7 1.67 9.94
10/22/2020 10:15:00 AM 12.77 54.986 0.048 6.71 1.76 9.92
10/22/2020 10:30:00 AM 12.82 55.076 0.048 6.73 1.81 9.9
10/22/2020 10:45:00 AM 12.91 55.238 0.048 6.75 1.77 9.88
10/22/2020 11:00:00 AM 13.06 55.508 0.048 6.76 1.78 9.88
10/22/2020 11:15:00 AM 13.17 55.706 0.048 6.76 1.7 9.86
10/22/2020 11:30:00 AM 13.33 55.994 0.048 6.78 1.65 9.85
10/22/2020 11:45:00 AM 13.49 56.282 0.048 6.8 1.73 9.83
10/22/2020 12:00:00 PM 13.67 56.606 0.048 6.79 1.76 9.82
10/22/2020 12:15:00 PM 13.85 56.93 0.048 6.75 1.69 9.77
10/22/2020 12:30:00 PM 14.07 57.326 0.048 6.81 1.75 9.75
10/22/2020 12:45:00 PM 14.2 57.56 0.048 6.8 1.67 9.71
10/22/2020 1:00:00 PM 14.3 57.74 0.048 6.82 1.7 9.66
10/22/2020 1:15:00 PM 14.51 58.118 0.048 6.82 1.71 9.62
10/22/2020 1:30:00 PM 14.73 58.514 0.048 6.84 1.57 9.58
10/22/2020 1:45:00 PM 15.03 59.054 0.048 6.75 1.65 9.57
10/22/2020 2:00:00 PM 15.27 59.486 0.048 6.86 1.65 9.53
10/22/2020 2:15:00 PM 15.25 59.45 0.048 6.84 1.71 9.49
10/22/2020 2:30:00 PM 15.3 59.54 0.048 6.83 1.7 9.44
10/22/2020 2:45:00 PM 15.49 59.882 0.048 6.77 1.52 9.41
10/22/2020 3:00:00 PM 15.63 60.134 0.048 6.79 1.56 9.41
10/22/2020 3:15:00 PM 15.75 60.35 0.048 6.84 1.57 9.38
10/22/2020 3:30:00 PM 15.83 60.494 0.048 6.76 1.72 9.35
10/22/2020 3:45:00 PM 15.89 60.602 0.048 6.79 1.6 9.3
10/22/2020 4:00:00 PM 15.97 60.746 0.048 6.84 1.65 9.26
10/22/2020 4:15:00 PM 16.01 60.818 0.048 6.81 1.71 9.17
10/22/2020 4:30:00 PM 16.01 60.818 0.048 6.72 1.61 9.19
10/22/2020 4:45:00 PM 15.96 60.728 0.048 6.82 1.54 9.21
10/22/2020 5:00:00 PM 15.83 60.494 0.048 6.8 1.66 9.18
10/22/2020 5:15:00 PM 15.74 60.332 0.048 6.79 1.6 9.17
10/22/2020 5:30:00 PM 15.62 60.116 0.048 6.78 1.63 9.17
10/22/2020 5:45:00 PM 15.47 59.846 0.048 6.76 1.63 9.13
10/22/2020 6:00:00 PM 15.31 59.558 0.048 6.73 1.53 9.15
10/22/2020 6:15:00 PM 15.19 59.342 0.048 6.71 1.66 9.12
10/22/2020 6:30:00 PM 15.03 59.054 0.048 6.68 1.75 9.11
10/22/2020 6:45:00 PM 14.9 58.82 0.048 6.68 1.64 9.12
10/22/2020 7:00:00 PM 14.76 58.568 0.048 6.68 1.83 9.14
10/22/2020 7:15:00 PM 14.62 58.316 0.048 6.66 1.67 9.14
10/22/2020 7:30:00 PM 14.5 58.1 0.048 6.63 1.74 9.16
10/22/2020 7:45:00 PM 14.37 57.866 0.048 6.63 1.71 9.18
10/22/2020 8:00:00 PM 14.29 57.722 0.048 6.64 1.77 9.14
10/22/2020 8:15:00 PM 14.19 57.542 0.049 6.62 1.73 9.19
10/22/2020 8:30:00 PM 14.09 57.362 0.049 6.63 1.62 9.21
10/22/2020 8:45:00 PM 14.01 57.218 0.049 6.62 1.69 9.21
10/22/2020 9:00:00 PM 13.91 57.038 0.049 6.64 1.68 9.28
10/22/2020 9:15:00 PM 13.84 56.912 0.049 6.62 1.65 9.27
10/22/2020 9:30:00 PM 13.77 56.786 0.049 6.6 1.74 9.29
10/22/2020 9:45:00 PM 13.7 56.66 0.049 6.63 1.93 9.32
10/22/2020 10:00:00 PM 13.64 56.552 0.049 6.63 1.68 9.3
10/22/2020 10:15:00 PM 13.58 56.444 0.049 6.63 1.7 9.3
10/22/2020 10:30:00 PM 13.51 56.318 0.049 6.63 1.66 9.33
10/22/2020 10:45:00 PM 13.45 56.21 0.049 6.62 1.68 9.35
10/22/2020 11:00:00 PM 13.39 56.102 0.049 6.63 1.72 9.37
10/22/2020 11:15:00 PM 13.33 55.994 0.049 6.62 1.78 9.36
10/22/2020 11:30:00 PM 13.27 55.886 0.049 6.63 1.86 9.37
10/22/2020 11:45:00 PM 13.21 55.778 0.049 6.63 1.75 9.39
10/23/2020 12:00:00 AM 13.15 55.67 0.049 6.64 1.77 9.42
10/23/2020 12:15:00 AM 13.09 55.562 0.049 6.64 1.76 9.45
10/23/2020 12:30:00 AM 13.05 55.49 0.049 6.65 1.73 9.46
10/23/2020 12:45:00 AM 13 55.4 0.049 6.62 1.77 9.44
10/23/2020 1:00:00 AM 12.95 55.31 0.049 6.64 1.9 9.47
10/23/2020 1:15:00 AM 12.9 55.22 0.049 6.65 1.78 9.47
10/23/2020 1:30:00 AM 12.84 55.112 0.049 6.64 1.77 9.49
10/23/2020 1:45:00 AM 12.79 55.022 0.049 6.65 1.77 9.49
10/23/2020 2:00:00 AM 12.75 54.95 0.049 6.65 1.73 9.52
10/23/2020 2:15:00 AM 12.7 54.86 0.049 6.65 1.83 9.52
10/23/2020 2:30:00 AM 12.65 54.77 0.049 6.65 1.71 9.55
10/23/2020 2:45:00 AM 12.6 54.68 0.049 6.63 1.78 9.58
10/23/2020 3:00:00 AM 12.56 54.608 0.049 6.63 1.85 9.56
10/23/2020 3:15:00 AM 12.51 54.518 0.049 6.66 1.79 9.55
10/23/2020 3:30:00 AM 12.46 54.428 0.049 6.65 1.69 9.55
10/23/2020 3:45:00 AM 12.41 54.338 0.049 6.66 1.76 9.61
10/23/2020 4:00:00 AM 12.37 54.266 0.049 6.65 1.78 9.61
10/23/2020 4:15:00 AM 12.35 54.23 0.049 6.68 1.7 9.62
10/23/2020 4:30:00 AM 12.32 54.176 0.049 6.66 1.76 9.64
10/23/2020 4:45:00 AM 12.31 54.158 0.049 6.66 2.14 9.63
10/23/2020 5:00:00 AM 12.3 54.14 0.049 6.67 1.72 9.63
10/23/2020 5:15:00 AM 12.29 54.122 0.049 6.67 1.73 9.63
10/23/2020 5:30:00 AM 12.29 54.122 0.049 6.69 1.68 9.67
10/23/2020 5:45:00 AM 12.28 54.104 0.049 6.7 1.76 9.68
10/23/2020 6:00:00 AM 12.28 54.104 0.049 6.69 1.72 9.66
10/23/2020 6:15:00 AM 12.26 54.068 0.049 6.69 1.83 9.66
10/23/2020 6:30:00 AM 12.23 54.014 0.049 6.7 1.72 9.69
10/23/2020 6:45:00 AM 12.19 53.942 0.049 6.66 1.67 9.67
10/23/2020 7:00:00 AM 12.16 53.888 0.049 6.7 1.69 9.69
10/23/2020 7:15:00 AM 12.12 53.816 0.049 6.68 1.83 9.67
10/23/2020 7:30:00 AM 12.08 53.744 0.049 6.62 2.19 9.68
10/23/2020 7:45:00 AM 12.03 53.654 0.049 6.69 2.69 9.66
10/23/2020 8:00:00 AM 11.99 53.582 0.049 6.69 1.83 9.74
10/23/2020 8:15:00 AM 11.96 53.528 0.049 6.6 1.91 9.74
10/23/2020 8:30:00 AM 11.94 53.492 0.049 6.69 1.76 9.75
10/23/2020 8:45:00 AM 11.93 53.474 0.049 6.68 1.86 9.82
10/23/2020 9:00:00 AM 11.93 53.474 0.049 6.69 1.73 9.84
10/23/2020 9:15:00 AM 11.94 53.492 0.049 6.71 1.76 9.9
10/23/2020 9:30:00 AM 11.96 53.528 0.049 6.7 2.11 9.87
10/23/2020 9:45:00 AM 11.99 53.582 0.049 6.73 1.78 9.89
10/23/2020 10:00:00 AM 12.04 53.672 0.049 6.73 1.72 9.82
10/23/2020 10:15:00 AM 12.11 53.798 0.049 6.75 1.71 9.97
10/23/2020 10:30:00 AM 12.14 53.852 0.049 6.75 1.79 9.95
10/23/2020 10:45:00 AM 12.21 53.978 0.049 6.69 1.69 9.94
10/23/2020 11:00:00 AM 12.32 54.176 0.049 6.75 1.89 9.9
10/23/2020 11:15:00 AM 12.5 54.5 0.048 6.77 1.64 9.91
10/23/2020 11:30:00 AM 12.68 54.824 0.048 6.78 1.65 9.87
10/23/2020 11:45:00 AM 12.92 55.256 0.048 6.81 1.61 9.9
10/23/2020 12:00:00 PM 13.06 55.508 0.048 6.8 3.19 9.78
10/23/2020 12:15:00 PM 13.26 55.868 0.048 6.78 1.89 9.74
10/23/2020 12:30:00 PM 13.47 56.246 0.048 6.81 2.15 9.67
10/23/2020 12:45:00 PM 13.76 56.768 0.048 6.82 1.98 9.73
10/23/2020 1:00:00 PM 14 57.2 0.048 6.78 1.59 9.69
10/23/2020 1:15:00 PM 14.19 57.542 0.048 6.8 1.59 9.63
10/23/2020 1:30:00 PM 14.39 57.902 0.048 6.85 1.66 9.6
10/23/2020 1:45:00 PM 14.6 58.28 0.048 6.83 1.67 9.54
10/23/2020 2:00:00 PM 14.71 58.478 0.049 6.82 1.68 9.49
10/23/2020 2:15:00 PM 14.84 58.712 0.049 6.78 1.59 9.43
10/23/2020 2:30:00 PM 14.97 58.946 0.049 6.79 1.59 9.41
10/23/2020 2:45:00 PM 15.19 59.342 0.049 6.84 1.62 9.38
10/23/2020 3:00:00 PM 15.3 59.54 0.049 6.77 1.58 9.35
10/23/2020 3:15:00 PM 15.31 59.558 0.049 6.83 1.66 9.31
10/23/2020 3:30:00 PM 15.36 59.648 0.049 6.79 1.63 9.27
10/23/2020 3:45:00 PM 15.46 59.828 0.049 6.82 2.18 9.25
10/23/2020 4:00:00 PM 15.49 59.882 0.049 6.78 1.68 9.22
10/23/2020 4:15:00 PM 15.54 59.972 0.049 6.76 1.62 9.2
10/23/2020 4:30:00 PM 15.55 59.99 0.049 6.77 1.54 9.15
10/23/2020 4:45:00 PM 15.57 60.026 0.049 6.8 1.59 9.16
10/23/2020 5:00:00 PM 15.56 60.008 0.049 6.79 1.57 9.13
10/23/2020 5:15:00 PM 15.5 59.9 0.049 6.77 1.53 9.11
10/23/2020 5:30:00 PM 15.42 59.756 0.049 6.75 1.55 9.08
10/23/2020 5:45:00 PM 15.33 59.594 0.049 6.77 1.55 9.04
10/23/2020 6:00:00 PM 15.22 59.396 0.049 6.69 1.61 9.04
10/23/2020 6:15:00 PM 15.13 59.234 0.049 6.73 1.64 8.97
10/23/2020 6:30:00 PM 15.04 59.072 0.049 6.71 1.59 8.96
10/23/2020 6:45:00 PM 14.94 58.892 0.049 6.72 1.62 8.97
10/23/2020 7:00:00 PM 14.85 58.73 0.049 6.68 1.71 8.95
10/23/2020 7:15:00 PM 14.75 58.55 0.049 6.7 1.72 8.94
10/23/2020 7:30:00 PM 14.66 58.388 0.049 6.61 1.73 8.94
10/23/2020 7:45:00 PM 14.56 58.208 0.049 6.65 1.69 8.96
10/23/2020 8:00:00 PM 14.46 58.028 0.049 6.64 1.73 8.99
10/23/2020 8:15:00 PM 14.39 57.902 0.049 6.68 1.63 9
10/23/2020 8:30:00 PM 14.32 57.776 0.049 6.67 1.69 8.99
10/23/2020 8:45:00 PM 14.26 57.668 0.049 6.67 1.67 8.97
10/23/2020 9:00:00 PM 14.2 57.56 0.049 6.68 1.64 9
10/23/2020 9:15:00 PM 14.15 57.47 0.049 6.66 1.86 9.03
10/23/2020 9:30:00 PM 14.1 57.38 0.05 6.67 1.71 9.03
10/23/2020 9:45:00 PM 14.06 57.308 0.049 6.67 1.78 9.02
10/23/2020 10:00:00 PM 14.02 57.236 0.049 6.66 1.83 9.05
10/23/2020 10:15:00 PM 13.97 57.146 0.049 6.68 1.66 9.08
10/23/2020 10:30:00 PM 13.93 57.074 0.049 6.66 1.71 9.06
10/23/2020 10:45:00 PM 13.89 57.002 0.049 6.68 1.9 9.07
10/23/2020 11:00:00 PM 13.85 56.93 0.049 6.67 1.71 9.09
10/23/2020 11:15:00 PM 13.82 56.876 0.049 6.64 1.69 9.1
10/23/2020 11:30:00 PM 13.79 56.822 0.049 6.68 1.67 9.13
10/23/2020 11:45:00 PM 13.76 56.768 0.049 6.68 1.69 9.1
10/24/2020 12:00:00 AM 13.73 56.714 0.049 6.64 1.77 9.1
10/24/2020 12:15:00 AM 13.7 56.66 0.049 6.67 1.68 9.09
10/24/2020 12:30:00 AM 13.68 56.624 0.049 6.67 1.82 9.1
10/24/2020 12:45:00 AM 13.67 56.606 0.049 6.67 1.63 9.14
10/24/2020 1:00:00 AM 13.67 56.606 0.049 6.65 1.67 9.16
10/24/2020 1:15:00 AM 13.67 56.606 0.049 6.68 2.17 9.13
10/24/2020 1:30:00 AM 13.67 56.606 0.049 6.68 1.76 9.12
10/24/2020 1:45:00 AM 13.67 56.606 0.049 6.66 1.69 9.03
10/24/2020 2:00:00 AM 13.66 56.588 0.049 6.67 1.94 9.09
10/24/2020 2:15:00 AM 13.66 56.588 0.049 6.68 1.77 9.13
10/24/2020 2:30:00 AM 13.65 56.57 0.05 6.67 1.69 9.1
10/24/2020 2:45:00 AM 13.65 56.57 0.05 6.66 1.76 9.07
10/24/2020 3:00:00 AM 13.65 56.57 0.05 6.62 2.16 9.06
10/24/2020 3:15:00 AM 13.65 56.57 0.05 6.67 1.71 9.07
10/24/2020 3:30:00 AM 13.65 56.57 0.05 6.66 1.72 9.1
10/24/2020 3:45:00 AM 13.64 56.552 0.05 6.65 1.79 9.09
10/24/2020 4:00:00 AM 13.64 56.552 0.05 6.66 1.67 9.09
10/24/2020 4:15:00 AM 13.64 56.552 0.05 6.65 1.69 9.09
10/24/2020 4:30:00 AM 13.64 56.552 0.05 6.67 1.67 9.06
10/24/2020 4:45:00 AM 13.64 56.552 0.05 6.65 1.66 9.09
10/24/2020 5:00:00 AM 13.64 56.552 0.05 6.61 1.67 9.09
10/24/2020 5:15:00 AM 13.65 56.57 0.05 6.67 1.75 9.05
10/24/2020 5:30:00 AM 13.64 56.552 0.05 6.65 1.71 9.05
10/24/2020 5:45:00 AM 13.63 56.534 0.05 6.66 1.71 9.09
10/24/2020 6:00:00 AM 13.61 56.498 0.05 6.66 1.7 9.08
10/24/2020 6:15:00 AM 13.57 56.426 0.05 6.64 1.77 9.07
10/24/2020 6:30:00 AM 13.53 56.354 0.05 6.68 1.62 9.09
10/24/2020 6:45:00 AM 13.49 56.282 0.05 6.67 1.76 9.07
10/24/2020 7:00:00 AM 13.44 56.192 0.05 6.68 1.71 9.11
10/24/2020 7:15:00 AM 13.39 56.102 0.05 6.68 1.68 9.14
10/24/2020 7:30:00 AM 13.34 56.012 0.05 6.68 1.65 9.16
10/24/2020 7:45:00 AM 13.29 55.922 0.05 6.66 1.73 9.13
10/24/2020 8:00:00 AM 13.24 55.832 0.05 6.69 1.69 9.17
10/24/2020 8:15:00 AM 13.2 55.76 0.05 6.61 1.85 9.18
10/24/2020 8:30:00 AM 13.15 55.67 0.05 6.7 1.96 9.19
10/24/2020 8:45:00 AM 13.13 55.634 0.05 6.67 1.96 9.2
10/24/2020 9:00:00 AM 13.08 55.544 0.05 6.69 1.68 9.29
10/24/2020 9:15:00 AM 13.05 55.49 0.05 6.71 1.66 9.37
10/24/2020 9:30:00 AM 13.02 55.436 0.05 6.7 1.65 9.39
10/24/2020 9:45:00 AM 13 55.4 0.05 6.73 1.69 9.48
10/24/2020 10:00:00 AM 12.99 55.382 0.05 6.65 7.15 9.5
10/24/2020 10:15:00 AM 12.95 55.31 0.05 6.75 1.72 9.56
10/24/2020 10:30:00 AM 12.9 55.22 0.05 6.74 1.64 9.57
10/24/2020 10:45:00 AM 12.86 55.148 0.05 6.74 1.63 9.58
10/24/2020 11:00:00 AM 12.83 55.094 0.05 6.69 1.87 9.59
10/24/2020 11:15:00 AM 12.82 55.076 0.049 6.77 1.75 9.68
10/24/2020 11:30:00 AM 12.81 55.058 0.049 6.76 1.66 9.69
10/24/2020 11:45:00 AM 12.81 55.058 0.049 6.76 1.69 9.69
10/24/2020 12:00:00 PM 12.8 55.04 0.049 6.76 1.79 9.74
10/24/2020 12:15:00 PM 12.84 55.112 0.049 6.68 1.66 9.65
10/24/2020 12:30:00 PM 12.85 55.13 0.049 6.75 1.7 9.77
10/24/2020 12:45:00 PM 12.89 55.202 0.049 6.76 1.64 9.77
10/24/2020 1:00:00 PM 12.94 55.292 0.049 6.76 1.69 9.75
10/24/2020 1:15:00 PM 12.99 55.382 0.049 6.8 1.88 9.77
10/24/2020 1:30:00 PM 13.03 55.454 0.049 6.8 1.86 9.77
10/24/2020 1:45:00 PM 13.07 55.526 0.049 6.78 1.64 9.78
10/24/2020 2:00:00 PM 13.11 55.598 0.049 6.81 1.7 9.79
10/24/2020 2:15:00 PM 13.14 55.652 0.049 6.8 8.13 9.73
10/24/2020 2:30:00 PM 13.16 55.688 0.049 6.8 2.53 9.75
10/24/2020 2:45:00 PM 13.15 55.67 0.049 6.8 1.79 9.75
10/24/2020 3:00:00 PM 13.11 55.598 0.049 6.77 1.64 9.66
10/24/2020 3:15:00 PM 13.08 55.544 0.049 6.8 2.43 9.71
10/24/2020 3:30:00 PM 13.08 55.544 0.049 6.78 1.74 9.73
10/24/2020 3:45:00 PM 13.07 55.526 0.049 6.75 1.74 9.73
10/24/2020 4:00:00 PM 13.07 55.526 0.049 6.78 1.76 9.71
10/24/2020 4:15:00 PM 13.09 55.562 0.049 6.79 1.91 9.71
10/24/2020 4:30:00 PM 13.1 55.58 0.049 6.81 1.94 9.72
10/24/2020 4:45:00 PM 13.07 55.526 0.049 6.76 1.97 9.66
10/24/2020 5:00:00 PM 12.97 55.346 0.049 6.74 1.7 9.66
10/24/2020 5:15:00 PM 12.82 55.076 0.049 6.78 1.66 9.71
10/24/2020 5:30:00 PM 12.65 54.77 0.049 6.75 1.64 9.72
10/24/2020 5:45:00 PM 12.47 54.446 0.049 6.68 2.18 9.62
10/24/2020 6:00:00 PM 12.34 54.212 0.049 6.73 1.69 9.68
10/24/2020 6:15:00 PM 12.22 53.996 0.049 6.71 1.74 9.69
10/24/2020 6:30:00 PM 12.11 53.798 0.049 6.71 1.63 9.7
10/24/2020 6:45:00 PM 11.95 53.51 0.049 6.67 1.76 9.73
10/24/2020 7:00:00 PM 11.83 53.294 0.049 6.71 1.72 9.73
10/24/2020 7:15:00 PM 11.69 53.042 0.049 6.69 1.69 9.75
10/24/2020 7:30:00 PM 11.57 52.826 0.049 6.69 1.71 9.77
10/24/2020 7:45:00 PM 11.46 52.628 0.049 6.63 1.77 9.79
10/24/2020 8:00:00 PM 11.36 52.448 0.049 6.68 1.74 9.85
10/24/2020 8:15:00 PM 11.3 52.34 0.049 6.68 1.76 9.82
10/24/2020 8:30:00 PM 11.22 52.196 0.049 6.68 1.72 9.87
10/24/2020 8:45:00 PM 11.17 52.106 0.049 6.68 1.75 9.88
10/24/2020 9:00:00 PM 11.12 52.016 0.049 6.69 1.74 9.88
10/24/2020 9:15:00 PM 11.06 51.908 0.049 6.7 1.72 9.93
10/24/2020 9:30:00 PM 11.02 51.836 0.049 6.7 1.7 9.94
10/24/2020 9:45:00 PM 10.98 51.764 0.049 6.63 1.79 9.96
10/24/2020 10:00:00 PM 10.96 51.728 0.049 6.67 1.69 9.92
10/24/2020 10:15:00 PM 10.91 51.638 0.049 6.72 1.75 9.97
10/24/2020 10:30:00 PM 10.89 51.602 0.049 6.7 1.75 9.95
10/24/2020 10:45:00 PM 10.84 51.512 0.049 6.72 1.79 10
10/24/2020 11:00:00 PM 10.82 51.476 0.049 6.74 1.74 10.01
10/24/2020 11:15:00 PM 10.79 51.422 0.049 6.72 1.71 9.99
10/24/2020 11:30:00 PM 10.76 51.368 0.049 6.71 1.74 10.02
10/24/2020 11:45:00 PM 10.72 51.296 0.049 6.72 1.71 10.02
10/25/2020 12:00:00 AM 10.69 51.242 0.049 6.71 1.98 10.03
10/25/2020 12:15:00 AM 10.66 51.188 0.049 6.73 1.79 10.04
10/25/2020 12:30:00 AM 10.63 51.134 0.049 6.68 1.73 10.03
10/25/2020 12:45:00 AM 10.6 51.08 0.049 6.67 1.74 10.05
10/25/2020 1:00:00 AM 10.58 51.044 0.049 6.72 1.99 10.04
10/25/2020 1:15:00 AM 10.51 50.918 0.049 6.73 1.71 10.06
10/25/2020 1:30:00 AM 10.48 50.864 0.049 6.71 1.8 10.05
10/25/2020 1:45:00 AM 10.42 50.756 0.049 6.66 1.68 10.08
10/25/2020 2:00:00 AM 10.34 50.612 0.049 6.73 1.7 10.12
10/25/2020 2:15:00 AM 10.29 50.522 0.049 6.7 1.83 10.15
10/25/2020 2:30:00 AM 10.22 50.396 0.049 6.7 1.71 10.17
10/25/2020 2:45:00 AM 10.16 50.288 0.049 6.72 1.72 10.15
10/25/2020 3:00:00 AM 10.07 50.126 0.049 6.67 1.74 10.2
10/25/2020 3:15:00 AM 10 50 0.049 6.72 1.71 10.21
10/25/2020 3:30:00 AM 9.92 49.856 0.049 6.63 1.7 10.21
10/25/2020 3:45:00 AM 9.84 49.712 0.049 6.72 1.86 10.24
10/25/2020 4:00:00 AM 9.74 49.532 0.049 6.72 1.8 10.31
10/25/2020 4:15:00 AM 9.69 49.442 0.049 6.7 1.76 10.31
10/25/2020 4:30:00 AM 9.61 49.298 0.049 6.71 1.73 10.32
10/25/2020 4:45:00 AM 9.53 49.154 0.049 6.7 1.68 10.32
10/25/2020 5:00:00 AM 9.44 48.992 0.049 6.65 1.79 10.37
10/25/2020 5:15:00 AM 9.36 48.848 0.049 6.66 1.75 10.38
10/25/2020 5:30:00 AM 9.28 48.704 0.049 6.68 1.72 10.41
10/25/2020 5:45:00 AM 9.2 48.56 0.049 6.67 1.77 10.42
10/25/2020 6:00:00 AM 9.1 48.38 0.049 6.67 1.8 10.47
10/25/2020 6:15:00 AM 9.04 48.272 0.049 6.67 1.77 10.49
10/25/2020 6:30:00 AM 8.95 48.11 0.049 6.68 1.73 10.52
10/25/2020 6:45:00 AM 8.88 47.984 0.049 6.72 1.75 10.52
10/25/2020 7:00:00 AM 8.82 47.876 0.049 6.63 1.7 10.54
10/25/2020 7:15:00 AM 8.74 47.732 0.049 6.68 1.82 10.57
10/25/2020 7:30:00 AM 8.7 47.66 0.049 6.67 1.73 10.55
10/25/2020 7:45:00 AM 8.63 47.534 0.049 6.68 1.71 10.59
10/25/2020 8:00:00 AM 8.57 47.426 0.049 6.68 1.74 10.63
10/25/2020 8:15:00 AM 8.53 47.354 0.049 6.67 2.48 10.63
10/25/2020 8:30:00 AM 8.48 47.264 0.049 6.67 1.83 10.67
10/25/2020 8:45:00 AM 8.47 47.246 0.049 6.71 1.68 10.72
10/25/2020 9:00:00 AM 8.46 47.228 0.049 6.72 1.79 10.76
10/25/2020 9:15:00 AM 8.44 47.192 0.049 6.69 1.7 10.8
10/25/2020 9:30:00 AM 8.42 47.156 0.049 6.75 1.71 10.85
10/25/2020 9:45:00 AM 8.41 47.138 0.049 6.69 1.7 10.87
10/25/2020 10:00:00 AM 8.41 47.138 0.049 6.72 1.69 10.9
10/25/2020 10:15:00 AM 8.43 47.174 0.049 6.73 1.72 10.92
10/25/2020 10:30:00 AM 8.45 47.21 0.049 6.73 1.75 10.92
10/25/2020 10:45:00 AM 8.49 47.282 0.049 6.73 1.67 10.92
10/25/2020 11:00:00 AM 8.59 47.462 0.049 6.77 1.78 10.93
10/25/2020 11:15:00 AM 8.71 47.678 0.049 6.8 1.71 10.93
10/25/2020 11:30:00 AM 8.84 47.912 0.049 6.77 1.71 10.91
10/25/2020 11:45:00 AM 8.99 48.182 0.049 6.78 1.64 10.9
10/25/2020 12:00:00 PM 9.09 48.362 0.049 6.79 1.66 10.88
10/25/2020 12:15:00 PM 9.25 48.65 0.049 6.8 1.64 10.86
10/25/2020 12:30:00 PM 9.43 48.974 0.049 6.81 1.68 10.84
10/25/2020 12:45:00 PM 9.63 49.334 0.049 6.82 1.67 10.82
10/25/2020 1:00:00 PM 9.79 49.622 0.049 6.82 1.7 10.78
10/25/2020 1:15:00 PM 9.98 49.964 0.049 6.86 1.61 10.75
10/25/2020 1:30:00 PM 10.2 50.36 0.049 6.82 1.58 10.69
10/25/2020 1:45:00 PM 10.48 50.864 0.049 6.82 1.6 10.66
10/25/2020 2:00:00 PM 10.69 51.242 0.049 6.85 1.66 10.61
10/25/2020 2:15:00 PM 10.84 51.512 0.049 6.84 1.81 10.56
10/25/2020 2:30:00 PM 10.96 51.728 0.049 6.84 1.63 10.52
10/25/2020 2:45:00 PM 11.12 52.016 0.049 6.83 1.67 10.51
10/25/2020 3:00:00 PM 11.2 52.16 0.049 6.86 1.6 10.43
10/25/2020 3:15:00 PM 11.21 52.178 0.049 6.86 1.61 10.43
10/25/2020 3:30:00 PM 11.23 52.214 0.049 6.78 1.68 10.33
10/25/2020 3:45:00 PM 11.24 52.232 0.049 6.86 1.73 10.36
10/25/2020 4:00:00 PM 11.24 52.232 0.049 6.84 1.61 10.35
10/25/2020 4:15:00 PM 11.23 52.214 0.049 6.8 1.66 10.33
10/25/2020 4:30:00 PM 11.21 52.178 0.049 6.8 1.61 10.32
10/25/2020 4:45:00 PM 11.19 52.142 0.049 6.82 1.68 10.3
10/25/2020 5:00:00 PM 11.12 52.016 0.049 6.75 1.62 10.31
10/25/2020 5:15:00 PM 11.06 51.908 0.049 6.81 2.09 10.24
10/25/2020 5:30:00 PM 10.98 51.764 0.049 6.8 1.7 10.27
10/25/2020 5:45:00 PM 10.89 51.602 0.049 6.74 1.63 10.28
10/25/2020 6:00:00 PM 10.82 51.476 0.049 6.76 1.82 10.19
10/25/2020 6:15:00 PM 10.74 51.332 0.049 6.76 1.63 10.24
10/25/2020 6:30:00 PM 10.67 51.206 0.049 6.69 1.73 10.24
10/25/2020 6:45:00 PM 10.59 51.062 0.049 6.75 1.64 10.24
10/25/2020 7:00:00 PM 10.52 50.936 0.049 6.67 1.73 10.22
10/25/2020 7:15:00 PM 10.44 50.792 0.049 6.74 1.8 10.24
10/25/2020 7:30:00 PM 10.38 50.684 0.049 6.68 1.73 10.22
10/25/2020 7:45:00 PM 10.31 50.558 0.049 6.74 1.69 10.22
10/25/2020 8:00:00 PM 10.26 50.468 0.049 6.66 1.73 10.22
10/25/2020 8:15:00 PM 10.21 50.378 0.049 6.71 1.75 10.24
10/25/2020 8:30:00 PM 10.17 50.306 0.049 6.73 1.67 10.24
10/25/2020 8:45:00 PM 10.11 50.198 0.049 6.69 1.69 10.26
10/25/2020 9:00:00 PM 10.08 50.144 0.049 6.72 1.67 10.25
10/25/2020 9:15:00 PM 10.04 50.072 0.049 6.69 1.67 10.26
10/25/2020 9:30:00 PM 10.01 50.018 0.049 6.73 1.72 10.28
10/25/2020 9:45:00 PM 9.97 49.946 0.049 6.65 1.67 10.28
10/25/2020 10:00:00 PM 9.93 49.874 0.049 6.69 1.73 10.31
10/25/2020 10:15:00 PM 9.91 49.838 0.049 6.68 1.72 10.3
10/25/2020 10:30:00 PM 9.88 49.784 0.049 6.72 1.72 10.31
10/25/2020 10:45:00 PM 9.86 49.748 0.049 6.68 1.73 10.3
10/25/2020 11:00:00 PM 9.83 49.694 0.049 6.7 1.7 10.3
10/25/2020 11:15:00 PM 9.8 49.64 0.049 6.73 1.7 10.3
10/25/2020 11:30:00 PM 9.78 49.604 0.049 6.65 1.66 10.33
10/25/2020 11:45:00 PM 9.76 49.568 0.049 6.73 1.99 10.32
10/26/2020 12:00:00 AM 9.75 49.55 0.049 6.72 1.7 10.3
10/26/2020 12:15:00 AM 9.72 49.496 0.049 6.65 1.78 10.32
10/26/2020 12:30:00 AM 9.7 49.46 0.049 6.7 1.69 10.34
10/26/2020 12:45:00 AM 9.68 49.424 0.049 6.68 1.66 10.35
10/26/2020 1:00:00 AM 9.67 49.406 0.049 6.7 1.71 10.35
10/26/2020 1:15:00 AM 9.66 49.388 0.049 6.68 1.68 10.34
10/26/2020 1:30:00 AM 9.64 49.352 0.049 6.74 1.69 10.37
10/26/2020 1:45:00 AM 9.62 49.316 0.049 6.68 1.72 10.37
10/26/2020 2:00:00 AM 9.62 49.316 0.049 6.72 1.66 10.33
10/26/2020 2:15:00 AM 9.6 49.28 0.049 6.67 1.66 10.36
10/26/2020 2:30:00 AM 9.59 49.262 0.049 6.74 1.71 10.38
10/26/2020 2:45:00 AM 9.58 49.244 0.049 6.73 1.71 10.35
10/26/2020 3:00:00 AM 9.57 49.226 0.049 6.73 1.74 10.37
10/26/2020 3:15:00 AM 9.56 49.208 0.049 6.72 1.64 10.36
10/26/2020 3:30:00 AM 9.55 49.19 0.049 6.73 1.69 10.36
10/26/2020 3:45:00 AM 9.54 49.172 0.049 6.74 1.67 10.38
10/26/2020 4:00:00 AM 9.53 49.154 0.049 6.74 1.7 10.39
10/26/2020 4:15:00 AM 9.53 49.154 0.049 6.69 1.78 10.38
10/26/2020 4:30:00 AM 9.52 49.136 0.049 6.71 1.69 10.38
10/26/2020 4:45:00 AM 9.51 49.118 0.049 6.67 1.78 10.39
10/26/2020 5:00:00 AM 9.5 49.1 0.049 6.75 1.72 10.4
10/26/2020 5:15:00 AM 9.49 49.082 0.049 6.7 1.78 10.4
10/26/2020 5:30:00 AM 9.47 49.046 0.049 6.69 1.69 10.4
10/26/2020 5:45:00 AM 9.48 49.064 0.049 6.73 1.75 10.38
10/26/2020 6:00:00 AM 9.46 49.028 0.049 6.67 1.76 10.42
10/26/2020 6:15:00 AM 9.46 49.028 0.049 6.74 1.74 10.41
10/26/2020 6:30:00 AM 9.46 49.028 0.049 6.73 1.71 10.39
10/26/2020 6:45:00 AM 9.46 49.028 0.049 6.66 1.78 10.4
10/26/2020 7:00:00 AM 9.46 49.028 0.049 6.7 1.63 10.39
10/26/2020 7:15:00 AM 9.46 49.028 0.049 6.69 1.71 10.39
10/26/2020 7:30:00 AM 9.46 49.028 0.049 6.68 1.73 10.36
10/26/2020 7:45:00 AM 9.46 49.028 0.049 6.69 1.75 10.39
10/26/2020 8:00:00 AM 9.47 49.046 0.049 6.69 1.87 10.4
10/26/2020 8:15:00 AM 9.47 49.046 0.049 6.74 1.68 10.4
10/26/2020 8:30:00 AM 9.49 49.082 0.049 6.69 1.85 10.41
10/26/2020 8:45:00 AM 9.49 49.082 0.049 6.71 1.68 10.41
10/26/2020 9:00:00 AM 9.51 49.118 0.049 6.72 1.77 10.42
10/26/2020 9:15:00 AM 9.53 49.154 0.049 6.73 5.17 10.42
10/26/2020 9:30:00 AM 9.54 49.172 0.049 6.76 1.66 10.43
10/26/2020 9:45:00 AM 9.57 49.226 0.049 6.75 1.76 10.44
10/26/2020 10:00:00 AM 9.61 49.298 0.049 6.71 1.66 10.46
10/26/2020 10:15:00 AM 9.65 49.37 0.049 6.77 1.71 10.45
10/26/2020 10:30:00 AM 9.69 49.442 0.049 6.76 1.69 10.46
10/26/2020 10:45:00 AM 9.74 49.532 0.049 6.71 2.52 10.47
10/26/2020 11:00:00 AM 9.79 49.622 0.049 6.74 1.7 10.2
10/26/2020 11:15:00 AM 9.87 49.766 0.049 6.76 1.8 10.51
10/26/2020 11:30:00 AM 9.95 49.91 0.049 6.79 2.01 10.54
10/26/2020 11:45:00 AM 10.02 50.036 0.049 6.79 1.64 10.55
10/26/2020 12:00:00 PM 10.1 50.18 0.049 6.8 1.65 10.55
10/26/2020 12:15:00 PM 10.17 50.306 0.049 6.81 1.63 10.53
10/26/2020 12:30:00 PM 10.24 50.432 0.049 6.81 1.96 10.54
10/26/2020 12:45:00 PM 10.29 50.522 0.049 6.81 1.81 10.52
10/26/2020 1:00:00 PM 10.34 50.612 0.049 6.75 1.67 10.48
10/26/2020 1:15:00 PM 10.39 50.702 0.049 6.78 1.72 10.44
10/26/2020 1:30:00 PM 10.45 50.81 0.049 6.8 1.66 10.42
10/26/2020 1:45:00 PM 10.51 50.918 0.049 6.82 1.69 10.45
10/26/2020 2:00:00 PM 10.57 51.026 0.049 6.78 1.81 10.39
10/26/2020 2:15:00 PM 10.62 51.116 0.049 6.81 1.68 10.37
10/26/2020 2:30:00 PM 10.67 51.206 0.049 6.76 1.6 10.38
10/26/2020 2:45:00 PM 10.72 51.296 0.049 6.77 1.63 10.39
10/26/2020 3:00:00 PM 10.77 51.386 0.049 6.82 1.62 10.36
10/26/2020 3:15:00 PM 10.8 51.44 0.049 6.76 1.63 10.36
10/26/2020 3:30:00 PM 10.83 51.494 0.049 6.81 1.62 10.32
10/26/2020 3:45:00 PM 10.86 51.548 0.049 6.79 1.63 10.22
10/26/2020 4:00:00 PM 10.88 51.584 0.049 6.78 1.7 10.26
10/26/2020 4:15:00 PM 10.9 51.62 0.049 6.75 1.67 10.16
10/26/2020 4:30:00 PM 10.9 51.62 0.049 6.77 1.74 10.09
10/26/2020 4:45:00 PM 10.91 51.638 0.049 6.74 2.64 10.09
10/26/2020 5:00:00 PM 10.91 51.638 0.049 6.68 1.74 10.11
10/26/2020 5:15:00 PM 10.91 51.638 0.049 6.75 1.86 10.13
10/26/2020 5:30:00 PM 10.91 51.638 0.049 6.7 1.88 10.12
10/26/2020 5:45:00 PM 10.91 51.638 0.049 6.73 9.07 10.07
10/26/2020 6:00:00 PM 10.91 51.638 0.049 6.76 1.64 10.11
10/26/2020 6:15:00 PM 10.9 51.62 0.049 6.73 1.71 10.1
10/26/2020 6:30:00 PM 10.9 51.62 0.049 6.67 1.69 10.07
10/26/2020 6:45:00 PM 10.89 51.602 0.049 6.74 1.9 10.05
10/26/2020 7:00:00 PM 10.89 51.602 0.049 6.74 1.7 10.06
10/26/2020 7:15:00 PM 10.89 51.602 0.05 6.72 1.64 10.02
10/26/2020 7:30:00 PM 10.88 51.584 0.05 6.72 1.68 9.99
10/26/2020 7:45:00 PM 10.88 51.584 0.05 6.67 1.71 10.03
10/26/2020 8:00:00 PM 10.87 51.566 0.05 6.73 1.96 10.01
10/26/2020 8:15:00 PM 10.87 51.566 0.05 6.67 1.95 10.02
10/26/2020 8:30:00 PM 10.86 51.548 0.05 6.72 1.67 9.99
10/26/2020 8:45:00 PM 10.86 51.548 0.05 6.72 1.73 10.03
10/26/2020 9:00:00 PM 10.85 51.53 0.05 6.73 1.75 10.06
10/26/2020 9:15:00 PM 10.85 51.53 0.05 6.63 1.62 9.98
10/26/2020 9:30:00 PM 10.84 51.512 0.05 6.7 1.66 10.01
10/26/2020 9:45:00 PM 10.84 51.512 0.05 6.73 1.59 10.05
10/26/2020 10:00:00 PM 10.83 51.494 0.05 6.73 1.74 10.05
10/26/2020 10:15:00 PM 10.83 51.494 0.05 6.71 1.63 10.01
10/26/2020 10:30:00 PM 10.82 51.476 0.05 6.68 1.68 10.07
10/26/2020 10:45:00 PM 10.81 51.458 0.05 6.73 1.65 10.05
10/26/2020 11:00:00 PM 10.81 51.458 0.05 6.68 1.64 10.02
10/26/2020 11:15:00 PM 10.79 51.422 0.05 6.7 1.66 10.07
10/26/2020 11:30:00 PM 10.78 51.404 0.05 6.74 1.66 10.06
10/26/2020 11:45:00 PM 10.77 51.386 0.05 6.73 1.67 10.05
10/27/2020 12:00:00 AM 10.72 51.296 0.05 6.73 1.67 10.1
10/27/2020 12:15:00 AM 10.7 51.26 0.05 6.75 1.77 10.07
10/27/2020 12:30:00 AM 10.66 51.188 0.05 6.74 1.67 10.08
10/27/2020 12:45:00 AM 10.63 51.134 0.05 6.66 1.73 10.09
10/27/2020 1:00:00 AM 10.59 51.062 0.05 6.73 1.68 10.11
10/27/2020 1:15:00 AM 10.56 51.008 0.05 6.73 1.72 10.11
10/27/2020 1:30:00 AM 10.53 50.954 0.05 6.73 1.84 10.13
10/27/2020 1:45:00 AM 10.5 50.9 0.05 6.74 1.76 10.15
10/27/2020 2:00:00 AM 10.47 50.846 0.05 6.74 1.73 10.18
10/27/2020 2:15:00 AM 10.45 50.81 0.05 6.74 1.69 10.17
10/27/2020 2:30:00 AM 10.41 50.738 0.05 6.74 1.66 10.18
10/27/2020 2:45:00 AM 10.39 50.702 0.05 6.65 1.72 10.2
10/27/2020 3:00:00 AM 10.36 50.648 0.05 6.75 1.77 10.23
10/27/2020 3:15:00 AM 10.34 50.612 0.05 6.73 1.75 10.21
10/27/2020 3:30:00 AM 10.31 50.558 0.05 6.73 1.66 10.21
10/27/2020 3:45:00 AM 10.29 50.522 0.05 6.75 1.67 10.23
10/27/2020 4:00:00 AM 10.27 50.486 0.05 6.65 1.79 10.22
10/27/2020 4:15:00 AM 10.24 50.432 0.05 6.69 1.66 10.25
10/27/2020 4:30:00 AM 10.22 50.396 0.05 6.71 1.61 10.25
10/27/2020 4:45:00 AM 10.2 50.36 0.05 6.75 1.72 10.27
10/27/2020 5:00:00 AM 10.19 50.342 0.05 6.75 1.72 10.25
10/27/2020 5:15:00 AM 10.16 50.288 0.05 6.74 1.75 10.29
10/27/2020 5:30:00 AM 10.15 50.27 0.05 6.74 1.71 10.26
10/27/2020 5:45:00 AM 10.14 50.252 0.05 6.74 1.69 10.26
10/27/2020 6:00:00 AM 10.12 50.216 0.05 6.73 1.64 10.24
10/27/2020 6:15:00 AM 10.1 50.18 0.05 6.74 1.85 10.28
10/27/2020 6:30:00 AM 10.08 50.144 0.05 6.66 1.64 10.3
10/27/2020 6:45:00 AM 10.06 50.108 0.05 6.75 1.64 10.31
10/27/2020 7:00:00 AM 10.05 50.09 0.05 6.73 1.71 10.32
10/27/2020 7:15:00 AM 10.03 50.054 0.05 6.73 1.72 10.31
10/27/2020 7:30:00 AM 10.01 50.018 0.05 6.74 3.95 10.3
10/27/2020 7:45:00 AM 10 50 0.05 6.74 1.88 10.3
10/27/2020 8:00:00 AM 9.99 49.982 0.049 6.69 1.71 10.33
10/27/2020 8:15:00 AM 9.98 49.964 0.049 6.74 1.75 10.3
10/27/2020 8:30:00 AM 9.98 49.964 0.049 6.69 1.74 10.24
10/27/2020 8:45:00 AM 9.99 49.982 0.049 6.76 1.7 10.38
10/27/2020 9:00:00 AM 10 50 0.05 6.76 1.66 10.44
10/27/2020 9:15:00 AM 10.02 50.036 0.049 6.76 1.66 10.48
10/27/2020 9:30:00 AM 10.05 50.09 0.049 6.77 1.86 10.46
10/27/2020 9:45:00 AM 10.07 50.126 0.049 6.78 1.67 10.51
10/27/2020 10:00:00 AM 10.09 50.162 0.049 6.76 1.83 10.53
10/27/2020 10:15:00 AM 10.13 50.234 0.049 6.8 2.41 10.54
10/27/2020 10:30:00 AM 10.17 50.306 0.049 6.79 1.86 10.5
10/27/2020 10:45:00 AM 10.25 50.45 0.049 6.79 1.89 10.5
10/27/2020 11:00:00 AM 10.32 50.576 0.049 6.81 1.76 10.53
10/27/2020 11:15:00 AM 10.4 50.72 0.049 6.81 1.75 10.56
10/27/2020 11:30:00 AM 10.5 50.9 0.049 6.8 2.09 10.52
10/27/2020 11:45:00 AM 10.57 51.026 0.049 6.76 1.79 10.53
10/27/2020 12:00:00 PM 10.62 51.116 0.049 6.84 1.72 10.49
10/27/2020 12:15:00 PM 10.67 51.206 0.049 6.81 1.68 10.47
10/27/2020 12:30:00 PM 10.71 51.278 0.049 6.75 1.61 10.54
10/27/2020 12:45:00 PM 10.74 51.332 0.049 6.82 1.57 10.52
10/27/2020 1:00:00 PM 10.78 51.404 0.049 6.84 1.64 10.55
10/27/2020 1:15:00 PM 10.82 51.476 0.049 6.82 1.61 10.48
10/27/2020 1:30:00 PM 10.84 51.512 0.049 6.82 1.66 10.5
10/27/2020 1:45:00 PM 10.86 51.548 0.049 6.83 1.73 10.45
10/27/2020 2:00:00 PM 10.88 51.584 0.049 6.83 1.64 10.48
10/27/2020 2:15:00 PM 10.88 51.584 0.049 6.81 1.68 10.46
10/27/2020 2:30:00 PM 10.88 51.584 0.049 6.76 1.69 10.47
10/27/2020 2:45:00 PM 10.89 51.602 0.049 6.8 1.73 10.45
10/27/2020 3:00:00 PM 10.89 51.602 0.049 6.84 1.61 10.45
10/27/2020 3:15:00 PM 10.9 51.62 0.049 6.81 1.68 10.41
10/27/2020 3:30:00 PM 10.89 51.602 0.049 6.83 1.67 10.44
10/27/2020 3:45:00 PM 10.88 51.584 0.049 6.83 1.58 10.41
10/27/2020 4:00:00 PM 10.87 51.566 0.049 6.82 1.61 10.4
10/27/2020 4:15:00 PM 10.86 51.548 0.049 6.8 1.64 10.39
10/27/2020 4:30:00 PM 10.84 51.512 0.049 6.75 1.61 10.36
10/27/2020 4:45:00 PM 10.8 51.44 0.049 6.74 1.64 10.37
10/27/2020 5:00:00 PM 10.78 51.404 0.049 6.79 1.65 10.32
10/27/2020 5:15:00 PM 10.75 51.35 0.049 6.78 1.64 10.29
10/27/2020 5:30:00 PM 10.71 51.278 0.049 6.72 1.7 10.3
10/27/2020 5:45:00 PM 10.67 51.206 0.049 6.77 1.71 10.28
10/27/2020 6:00:00 PM 10.63 51.134 0.049 6.72 1.63 10.29
10/27/2020 6:15:00 PM 10.6 51.08 0.049 6.78 1.66 10.26
10/27/2020 6:30:00 PM 10.56 51.008 0.049 6.76 1.64 10.25
10/27/2020 6:45:00 PM 10.53 50.954 0.049 6.76 1.64 10.24
10/27/2020 7:00:00 PM 10.5 50.9 0.049 6.66 1.65 10.25
10/27/2020 7:15:00 PM 10.47 50.846 0.049 6.72 1.68 10.23
10/27/2020 7:30:00 PM 10.43 50.774 0.049 6.75 1.67 10.23
10/27/2020 7:45:00 PM 10.39 50.702 0.049 6.75 1.72 10.24
10/27/2020 8:00:00 PM 10.34 50.612 0.049 6.75 1.8 10.26
10/27/2020 8:15:00 PM 10.31 50.558 0.049 6.75 1.68 10.27
10/27/2020 8:30:00 PM 10.27 50.486 0.049 6.75 1.7 10.29
10/27/2020 8:45:00 PM 10.25 50.45 0.049 6.76 1.7 10.28
10/27/2020 9:00:00 PM 10.21 50.378 0.049 6.75 1.85 10.31
10/27/2020 9:15:00 PM 10.17 50.306 0.049 6.76 1.71 10.32
10/27/2020 9:30:00 PM 10.12 50.216 0.048 6.75 1.71 10.36
10/27/2020 9:45:00 PM 10.09 50.162 0.048 6.64 1.7 10.36
10/27/2020 10:00:00 PM 10.06 50.108 0.047 6.74 1.7 10.36
10/27/2020 10:15:00 PM 10.02 50.036 0.047 6.74 1.73 10.38
10/27/2020 10:30:00 PM 10 50 0.047 6.64 1.67 10.39
10/27/2020 10:45:00 PM 9.98 49.964 0.047 6.75 1.67 10.37
10/27/2020 11:00:00 PM 9.94 49.892 0.047 6.75 1.7 10.39
10/27/2020 11:15:00 PM 9.91 49.838 0.047 6.74 2.17 10.39
10/27/2020 11:30:00 PM 9.89 49.802 0.047 6.72 1.66 10.39
10/27/2020 11:45:00 PM 9.86 49.748 0.047 6.74 1.69 10.39
10/28/2020 12:00:00 AM 9.84 49.712 0.047 6.71 1.69 10.42
10/28/2020 12:15:00 AM 9.83 49.694 0.048 6.68 1.68 10.42
10/28/2020 12:30:00 AM 9.81 49.658 0.048 6.68 1.89 10.42
10/28/2020 12:45:00 AM 9.79 49.622 0.048 6.76 1.79 10.44
10/28/2020 1:00:00 AM 9.78 49.604 0.048 6.74 1.67 10.41
10/28/2020 1:15:00 AM 9.77 49.586 0.048 6.75 1.7 10.43
10/28/2020 1:30:00 AM 9.76 49.568 0.048 6.75 1.72 10.42
10/28/2020 1:45:00 AM 9.74 49.532 0.048 6.75 1.67 10.45
10/28/2020 2:00:00 AM 9.74 49.532 0.048 6.75 1.64 10.43
10/28/2020 2:15:00 AM 9.72 49.496 0.048 6.74 1.68 10.43
10/28/2020 2:30:00 AM 9.71 49.478 0.048 6.74 1.63 10.42
10/28/2020 2:45:00 AM 9.7 49.46 0.048 6.75 1.69 10.46
10/28/2020 3:00:00 AM 9.7 49.46 0.048 6.64 1.68 10.42
10/28/2020 3:15:00 AM 9.69 49.442 0.048 6.76 1.75 10.42
10/28/2020 3:30:00 AM 9.68 49.424 0.048 6.74 1.67 10.45
10/28/2020 3:45:00 AM 9.67 49.406 0.048 6.74 1.67 10.43
10/28/2020 4:00:00 AM 9.67 49.406 0.048 6.67 1.72 10.41
10/28/2020 4:15:00 AM 9.65 49.37 0.048 6.73 1.65 10.4
10/28/2020 4:30:00 AM 9.64 49.352 0.048 6.68 1.79 10.42
10/28/2020 4:45:00 AM 9.64 49.352 0.048 6.74 1.69 10.4
10/28/2020 5:00:00 AM 9.62 49.316 0.048 6.63 1.71 10.4
10/28/2020 5:15:00 AM 9.62 49.316 0.048 6.72 1.96 10.41
10/28/2020 5:30:00 AM 9.61 49.298 0.048 6.74 1.7 10.41
10/28/2020 5:45:00 AM 9.6 49.28 0.048 6.72 1.8 10.4
10/28/2020 6:00:00 AM 9.59 49.262 0.048 6.65 1.78 10.4
10/28/2020 6:15:00 AM 9.59 49.262 0.048 6.69 1.8 10.39
10/28/2020 6:30:00 AM 9.58 49.244 0.048 6.74 1.83 10.39
10/28/2020 6:45:00 AM 9.57 49.226 0.048 6.7 1.74 10.42
10/28/2020 7:00:00 AM 9.57 49.226 0.048 6.66 1.68 10.41
10/28/2020 7:15:00 AM 9.56 49.208 0.048 6.75 1.64 10.44
10/28/2020 7:30:00 AM 9.56 49.208 0.048 6.73 1.72 10.42
10/28/2020 7:45:00 AM 9.56 49.208 0.048 6.74 1.67 10.43
10/28/2020 8:00:00 AM 9.55 49.19 0.048 6.73 1.95 10.41
10/28/2020 8:15:00 AM 9.55 49.19 0.048 6.74 1.73 10.43
10/28/2020 8:30:00 AM 9.55 49.19 0.048 6.73 1.77 10.43
10/28/2020 8:45:00 AM 9.56 49.208 0.048 6.74 1.68 10.46
10/28/2020 9:00:00 AM 9.56 49.208 0.048 6.76 1.92 10.47
10/28/2020 9:15:00 AM 9.57 49.226 0.048 6.76 1.71 10.48
10/28/2020 9:30:00 AM 9.6 49.28 0.048 6.75 2.47 10.47
10/28/2020 9:45:00 AM 9.63 49.334 0.048 6.76 3.19 10.51
10/28/2020 10:00:00 AM 9.69 49.442 0.048 6.77 1.8 10.53
10/28/2020 10:15:00 AM 9.75 49.55 0.048 6.74 1.78 10.46
10/28/2020 10:30:00 AM 9.81 49.658 0.048 6.8 1.74 10.6
10/28/2020 10:45:00 AM 9.86 49.748 0.048 6.8 1.7 10.6
10/28/2020 11:00:00 AM 9.93 49.874 0.048 6.74 1.74 10.58
10/28/2020 11:15:00 AM 9.98 49.964 0.048 6.79 1.69 10.59
10/28/2020 11:30:00 AM 10.03 50.054 0.048 6.78 1.75 10.55
10/28/2020 11:45:00 AM 10.11 50.198 0.048 6.76 2.85 10.55
10/28/2020 12:00:00 PM 10.18 50.324 0.048 6.8 1.64 10.47
10/28/2020 12:15:00 PM 10.25 50.45 0.048 6.83 1.94 10.31
10/28/2020 12:30:00 PM 10.31 50.558 0.048 6.74 9.19 10.55
10/28/2020 12:45:00 PM 10.36 50.648 0.048 6.82 2.52 10.54
10/28/2020 1:00:00 PM 10.42 50.756 0.048 6.78 1.82 10.5
10/28/2020 1:15:00 PM 10.47 50.846 0.048 6.82 1.88 10.46
10/28/2020 1:30:00 PM 10.52 50.936 0.048 6.82 12.18 10.47
10/28/2020 1:45:00 PM 10.59 51.062 0.048 6.83 1.82 10.43
10/28/2020 2:00:00 PM 10.68 51.224 0.048 6.82 1.67 10.5
10/28/2020 2:15:00 PM 10.71 51.278 0.048 6.86 1.61 10.51
10/28/2020 2:30:00 PM 10.74 51.332 0.048 6.84 1.74 10.46
10/28/2020 2:45:00 PM 10.75 51.35 0.048 6.8 1.74 10.48
10/28/2020 3:00:00 PM 10.76 51.368 0.049 6.86 1.63 10.44
10/28/2020 3:15:00 PM 10.76 51.368 0.049 6.8 1.64 10.42
10/28/2020 3:30:00 PM 10.76 51.368 0.049 6.83 1.67 10.41
10/28/2020 3:45:00 PM 10.76 51.368 0.049 6.73 1.62 10.39
10/28/2020 4:00:00 PM 10.76 51.368 0.049 6.79 1.66 10.38
10/28/2020 4:15:00 PM 10.75 51.35 0.049 6.81 1.72 10.39
10/28/2020 4:30:00 PM 10.74 51.332 0.049 6.81 1.66 10.29
10/28/2020 4:45:00 PM 10.74 51.332 0.049 6.74 1.66 10.36
10/28/2020 5:00:00 PM 10.73 51.314 0.049 6.76 1.66 10.37
10/28/2020 5:15:00 PM 10.71 51.278 0.049 6.82 1.62 10.37
10/28/2020 5:30:00 PM 10.67 51.206 0.049 6.82 1.6 10.38
10/28/2020 5:45:00 PM 10.63 51.134 0.049 6.8 1.71 10.34
10/28/2020 6:00:00 PM 10.58 51.044 0.049 6.7 1.63 10.35
10/28/2020 6:15:00 PM 10.53 50.954 0.049 6.79 1.86 10.32
10/28/2020 6:30:00 PM 10.48 50.864 0.049 6.78 1.75 10.3
10/28/2020 6:45:00 PM 10.44 50.792 0.049 6.68 2.05 10.26
10/28/2020 7:00:00 PM 10.34 50.612 0.049 6.77 2.17 10.29
10/28/2020 7:15:00 PM 10.29 50.522 0.049 6.76 1.71 10.29
10/28/2020 7:30:00 PM 10.24 50.432 0.049 6.69 1.82 10.25
10/28/2020 7:45:00 PM 10.2 50.36 0.049 6.76 1.67 10.27
10/28/2020 8:00:00 PM 10.14 50.252 0.049 6.69 1.65 10.3
10/28/2020 8:15:00 PM 10.08 50.144 0.049 6.69 1.72 10.28
10/28/2020 8:30:00 PM 10.02 50.036 0.049 6.69 1.77 10.31
10/28/2020 8:45:00 PM 9.95 49.91 0.049 6.75 1.78 10.33
10/28/2020 9:00:00 PM 9.89 49.802 0.049 6.65 1.67 10.35
10/28/2020 9:15:00 PM 9.85 49.73 0.049 6.73 1.67 10.33
10/28/2020 9:30:00 PM 9.8 49.64 0.049 6.74 1.69 10.36
10/28/2020 9:45:00 PM 9.74 49.532 0.049 6.64 1.72 10.36
10/28/2020 10:00:00 PM 9.69 49.442 0.049 6.73 1.65 10.37
10/28/2020 10:15:00 PM 9.63 49.334 0.049 6.66 1.72 10.41
10/28/2020 10:30:00 PM 9.61 49.298 0.049 6.67 1.8 10.41
10/28/2020 10:45:00 PM 9.57 49.226 0.049 6.73 1.75 10.42
10/28/2020 11:00:00 PM 9.53 49.154 0.049 6.74 1.76 10.45
10/28/2020 11:15:00 PM 9.5 49.1 0.049 6.73 1.72 10.45
10/28/2020 11:30:00 PM 9.46 49.028 0.049 6.72 1.77 10.49
10/28/2020 11:45:00 PM 9.42 48.956 0.049 6.75 1.99 10.5
10/29/2020 12:00:00 AM 9.4 48.92 0.049 6.74 1.69 10.47
10/29/2020 12:15:00 AM 9.36 48.848 0.049 6.74 1.75 10.49
10/29/2020 12:30:00 AM 9.32 48.776 0.049 6.67 1.73 10.5
10/29/2020 12:45:00 AM 9.29 48.722 0.049 6.69 1.87 10.5
10/29/2020 1:00:00 AM 9.27 48.686 0.049 6.75 1.71 10.51
10/29/2020 1:15:00 AM 9.24 48.632 0.049 6.67 1.78 10.53
10/29/2020 1:30:00 AM 9.21 48.578 0.049 6.7 1.71 10.53
10/29/2020 1:45:00 AM 9.19 48.542 0.049 6.72 1.69 10.53
10/29/2020 2:00:00 AM 9.17 48.506 0.049 6.69 1.71 10.53
10/29/2020 2:15:00 AM 9.16 48.488 0.049 6.76 1.73 10.54
10/29/2020 2:30:00 AM 9.14 48.452 0.049 6.68 1.73 10.56
10/29/2020 2:45:00 AM 9.14 48.452 0.049 6.75 1.65 10.56
10/29/2020 3:00:00 AM 9.12 48.416 0.049 6.7 1.72 10.57
10/29/2020 3:15:00 AM 9.12 48.416 0.049 6.77 1.7 10.58
10/29/2020 3:30:00 AM 9.11 48.398 0.049 6.73 1.69 10.58
10/29/2020 3:45:00 AM 9.1 48.38 0.049 6.73 1.72 10.58
10/29/2020 4:00:00 AM 9.1 48.38 0.049 6.76 1.81 10.57
10/29/2020 4:15:00 AM 9.09 48.362 0.049 6.67 1.74 10.56
10/29/2020 4:30:00 AM 9.09 48.362 0.049 6.77 1.88 10.57
10/29/2020 4:45:00 AM 9.08 48.344 0.049 6.69 1.74 10.57
10/29/2020 5:00:00 AM 9.07 48.326 0.049 6.77 1.73 10.58
10/29/2020 5:15:00 AM 9.06 48.308 0.049 6.76 1.74 10.59
10/29/2020 5:30:00 AM 9.06 48.308 0.049 6.76 1.76 10.6
10/29/2020 5:45:00 AM 9.05 48.29 0.049 6.77 1.72 10.59
10/29/2020 6:00:00 AM 9.03 48.254 0.049 6.65 1.74 10.6
10/29/2020 6:15:00 AM 9.02 48.236 0.049 6.77 1.79 10.6
10/29/2020 6:30:00 AM 9.01 48.218 0.048 6.76 1.79 10.58
10/29/2020 6:45:00 AM 9 48.2 0.048 6.76 1.83 10.61
10/29/2020 7:00:00 AM 9 48.2 0.048 6.76 1.81 10.6
10/29/2020 7:15:00 AM 8.98 48.164 0.048 6.73 1.83 10.59
10/29/2020 7:30:00 AM 8.97 48.146 0.048 6.77 1.77 10.63
10/29/2020 7:45:00 AM 8.96 48.128 0.048 6.76 1.8 10.62
10/29/2020 8:00:00 AM 8.95 48.11 0.048 6.67 1.9 10.62
10/29/2020 8:15:00 AM 8.94 48.092 0.047 6.7 1.95 10.63
10/29/2020 8:30:00 AM 8.92 48.056 0.047 6.75 1.87 10.65
10/29/2020 8:45:00 AM 8.91 48.038 0.047 6.76 1.84 10.67
10/29/2020 9:00:00 AM 8.9 48.02 0.047 6.7 1.86 10.69
10/29/2020 9:15:00 AM 8.89 48.002 0.046 6.78 1.98 10.69
10/29/2020 9:30:00 AM 8.89 48.002 0.046 6.69 2.12 10.71
10/29/2020 9:45:00 AM 8.89 48.002 0.046 6.77 2.02 10.71
10/29/2020 10:00:00 AM 8.88 47.984 0.046 6.7 2.02 10.72
10/29/2020 10:15:00 AM 8.89 48.002 0.046 6.78 2.16 10.73
10/29/2020 10:30:00 AM 8.9 48.02 0.046 6.77 2.31 10.74
10/29/2020 10:45:00 AM 8.9 48.02 0.046 6.69 2.2 10.77
10/29/2020 11:00:00 AM 8.91 48.038 0.046 6.78 2.47 10.73
10/29/2020 11:15:00 AM 8.92 48.056 0.046 6.78 2.29 10.78
10/29/2020 11:30:00 AM 8.94 48.092 0.046 6.78 2.4 10.78
10/29/2020 11:45:00 AM 8.95 48.11 0.046 6.74 2.48 10.79
10/29/2020 12:00:00 PM 8.96 48.128 0.046 6.81 2.45 10.8
10/29/2020 12:15:00 PM 8.99 48.182 0.046 6.81 2.51 10.81
10/29/2020 12:30:00 PM 9.01 48.218 0.047 6.72 2.58 10.81
10/29/2020 12:45:00 PM 9.02 48.236 0.047 6.83 2.96 10.83
10/29/2020 1:00:00 PM 9.05 48.29 0.047 6.82 3.15 10.82
10/29/2020 1:15:00 PM 9.06 48.308 0.048 6.82 3.76 10.82
10/29/2020 1:30:00 PM 9.1 48.38 0.048 6.78 4.4 10.85
10/29/2020 1:45:00 PM 9.15 48.47 0.048 6.84 12.96 10.84
10/29/2020 2:00:00 PM 9.17 48.506 0.047 6.85 6.75 10.84
10/29/2020 2:15:00 PM 9.16 48.488 0.047 6.73 8.57 10.84
10/29/2020 2:30:00 PM 9.14 48.452 0.045 6.82 9.77 10.85
10/29/2020 2:45:00 PM 9.12 48.416 0.045 6.81 9.87 10.86
10/29/2020 3:00:00 PM 9.1 48.38 0.044 6.75 11.05 10.87
10/29/2020 3:15:00 PM 9.09 48.362 0.044 6.8 12.33 10.87
10/29/2020 3:30:00 PM 9.08 48.344 0.044 6.8 13.08 10.87
10/29/2020 3:45:00 PM 9.07 48.326 0.043 6.74 17.47 10.89
10/29/2020 4:00:00 PM 9.07 48.326 0.043 6.77 17.47 10.91
10/29/2020 4:15:00 PM 9.07 48.326 0.044 6.75 33.06 10.91
10/29/2020 4:30:00 PM 9.1 48.38 0.044 6.77 58.69 10.88
10/29/2020 4:45:00 PM 9.13 48.434 0.044 6.8 31.23 10.9
10/29/2020 5:00:00 PM 9.14 48.452 0.045 6.81 26.42 10.9
10/29/2020 5:15:00 PM 9.15 48.47 0.044 6.7 27.32 10.92
10/29/2020 5:30:00 PM 9.15 48.47 0.043 6.78 29.67 10.93
10/29/2020 5:45:00 PM 9.17 48.506 0.042 6.76 27.68 10.93
10/29/2020 6:00:00 PM 9.17 48.506 0.042 6.64 24.94 10.93
10/29/2020 6:15:00 PM 9.18 48.524 0.041 6.7 32.2 10.93
10/29/2020 6:30:00 PM 9.18 48.524 0.04 6.67 31.36 10.94
10/29/2020 6:45:00 PM 9.18 48.524 0.04 6.64 30.67 10.94
10/29/2020 7:00:00 PM 9.17 48.506 0.04 6.64 28.44 10.95
10/29/2020 7:15:00 PM 9.17 48.506 0.04 6.63 29.59 10.95
10/29/2020 7:30:00 PM 9.16 48.488 0.04 6.66 35.94 10.97
10/29/2020 7:45:00 PM 9.15 48.47 0.039 6.6 25.25 10.97
10/29/2020 8:00:00 PM 9.14 48.452 0.039 6.65 29.38 10.98
10/29/2020 8:15:00 PM 9.13 48.434 0.039 6.63 26.77 11
10/29/2020 8:30:00 PM 9.12 48.416 0.038 6.65 26.48 11
10/29/2020 8:45:00 PM 9.12 48.416 0.038 6.6 22.39 11.01
10/29/2020 9:00:00 PM 9.12 48.416 0.038 6.58 29.03 11.01
10/29/2020 9:15:00 PM 9.12 48.416 0.038 6.59 22.6 11.02
10/29/2020 9:30:00 PM 9.12 48.416 0.038 6.65 20.54 11.01
10/29/2020 9:45:00 PM 9.12 48.416 0.038 6.62 21.5 11.01
10/29/2020 10:00:00 PM 9.12 48.416 0.038 6.54 17.04 11.02
10/29/2020 10:15:00 PM 9.12 48.416 0.037 6.57 17.32 11.02
10/29/2020 10:30:00 PM 9.12 48.416 0.037 6.53 15.6 11.01
10/29/2020 10:45:00 PM 9.13 48.434 0.038 6.52 14.79 11.01
10/29/2020 11:00:00 PM 9.13 48.434 0.038 6.55 13.81 11.01
10/29/2020 11:15:00 PM 9.13 48.434 0.038 6.55 13.42 11.01
10/29/2020 11:30:00 PM 9.13 48.434 0.038 6.47 13.04 11.01
10/29/2020 11:45:00 PM 9.13 48.434 0.038 6.57 12.9 11.01
10/30/2020 12:00:00 AM 9.13 48.434 0.038 6.54 12.12 11
10/30/2020 12:15:00 AM 9.12 48.416 0.038 6.58 11.64 11.01
10/30/2020 12:30:00 AM 9.11 48.398 0.038 6.58 10.97 11
10/30/2020 12:45:00 AM 9.1 48.38 0.038 6.61 10.61 11.01
10/30/2020 1:00:00 AM 9.09 48.362 0.038 6.59 11.03 11
10/30/2020 1:15:00 AM 9.08 48.344 0.038 6.62 9.17 11.01
10/30/2020 1:30:00 AM 9.06 48.308 0.038 6.56 9.61 11.02
10/30/2020 1:45:00 AM 9.04 48.272 0.038 6.62 8.72 11.02
10/30/2020 2:00:00 AM 9.02 48.236 0.037 6.62 8.67 11.03
10/30/2020 2:15:00 AM 9 48.2 0.037 6.62 8.8 11.03
10/30/2020 2:30:00 AM 8.98 48.164 0.037 6.61 9.17 11.04
10/30/2020 2:45:00 AM 8.96 48.128 0.037 6.54 7.3 11.05
10/30/2020 3:00:00 AM 8.94 48.092 0.038 6.53 7.94 11.05
10/30/2020 3:15:00 AM 8.92 48.056 0.038 6.55 7.19 11.05
10/30/2020 3:30:00 AM 8.89 48.002 0.038 6.54 6.93 11.07
10/30/2020 3:45:00 AM 8.87 47.966 0.038 6.62 7.19 11.07
10/30/2020 4:00:00 AM 8.84 47.912 0.037 6.52 7.22 11.09
10/30/2020 4:15:00 AM 8.79 47.822 0.037 6.6 7.01 11.11
10/30/2020 4:30:00 AM 8.74 47.732 0.037 6.52 6.68 11.11
10/30/2020 4:45:00 AM 8.71 47.678 0.037 6.62 7.16 11.12
10/30/2020 5:00:00 AM 8.69 47.642 0.037 6.61 6.71 11.14
10/30/2020 5:15:00 AM 8.67 47.606 0.038 6.62 6.82 11.13
10/30/2020 5:30:00 AM 8.64 47.552 0.038 6.59 6.28 11.15
10/30/2020 5:45:00 AM 8.61 47.498 0.038 6.62 6.24 11.17
10/30/2020 6:00:00 AM 8.59 47.462 0.038 6.62 6.87 11.18
10/30/2020 6:15:00 AM 8.56 47.408 0.038 6.62 6.62 11.19
10/30/2020 6:30:00 AM 8.54 47.372 0.038 6.61 7.05 11.2
10/30/2020 6:45:00 AM 8.52 47.336 0.038 6.63 6.74 11.21
10/30/2020 7:00:00 AM 8.5 47.3 0.038 6.58 6.38 11.22
10/30/2020 7:15:00 AM 8.48 47.264 0.038 6.63 6.36 11.23
10/30/2020 7:30:00 AM 8.46 47.228 0.038 6.63 6.3 11.25
10/30/2020 7:45:00 AM 8.44 47.192 0.038 6.61 5.74 11.25
10/30/2020 8:00:00 AM 8.43 47.174 0.038 6.64 6.03 11.26
10/30/2020 8:15:00 AM 8.42 47.156 0.038 6.49 5.66 11.27
10/30/2020 8:30:00 AM 8.4 47.12 0.038 6.63 6.21 11.29
10/30/2020 8:45:00 AM 8.4 47.12 0.038 6.64 7.3 11.3
10/30/2020 9:00:00 AM 8.39 47.102 0.038 6.62 5.62 11.31
10/30/2020 9:15:00 AM 8.38 47.084 0.038 6.58 5.66 11.31
10/30/2020 9:30:00 AM 8.38 47.084 0.038 6.65 5.5 11.32
10/30/2020 9:45:00 AM 8.38 47.084 0.038 6.6 5.36 11.33
10/30/2020 10:00:00 AM 8.38 47.084 0.038 6.64 5.2 11.34
10/30/2020 10:15:00 AM 8.38 47.084 0.037 6.6 5.55 11.34
10/30/2020 10:30:00 AM 8.38 47.084 0.037 6.65 5.37 11.35
10/30/2020 10:45:00 AM 8.4 47.12 0.037 6.53 5.39 11.36
10/30/2020 11:00:00 AM 8.42 47.156 0.037 6.66 5.17 11.37
10/30/2020 11:15:00 AM 8.47 47.246 0.037 6.64 5.45 11.38
10/30/2020 11:30:00 AM 8.48 47.264 0.037 6.68 5.36 11.37
10/30/2020 11:45:00 AM 8.46 47.228 0.037 6.67 5.39 11.37
10/30/2020 12:00:00 PM 8.45 47.21 0.037 6.63 5.39 11.37
10/30/2020 12:15:00 PM 8.47 47.246 0.037 6.65 4.92 11.37
10/30/2020 12:30:00 PM 8.51 47.318 0.037 6.65 4.8 11.36
10/30/2020 12:45:00 PM 8.57 47.426 0.037 6.55 4.77 11.36
10/30/2020 1:00:00 PM 8.6 47.48 0.037 6.68 5.48 11.36
10/30/2020 1:15:00 PM 8.58 47.444 0.037 6.67 5.09 11.35
10/30/2020 1:30:00 PM 8.56 47.408 0.037 6.68 4.67 11.34
10/30/2020 1:45:00 PM 8.58 47.444 0.037 6.67 5.11 11.35
10/30/2020 2:00:00 PM 8.61 47.498 0.037 6.65 5.82 11.33
10/30/2020 2:15:00 PM 8.64 47.552 0.037 6.66 4.77 11.34
10/30/2020 2:30:00 PM 8.66 47.588 0.037 6.67 4.43 11.33
10/30/2020 2:45:00 PM 8.67 47.606 0.037 6.66 4.49 11.33
10/30/2020 3:00:00 PM 8.7 47.66 0.037 6.64 4.47 11.34
10/30/2020 3:15:00 PM 8.71 47.678 0.037 6.68 4.47 11.33
10/30/2020 3:30:00 PM 8.7 47.66 0.037 6.55 4.8 11.31
10/30/2020 3:45:00 PM 8.68 47.624 0.037 6.67 4.48 11.33
10/30/2020 4:00:00 PM 8.69 47.642 0.037 6.67 4.28 11.32
10/30/2020 4:15:00 PM 8.72 47.696 0.037 6.62 5.07 11.31
10/30/2020 4:30:00 PM 8.71 47.678 0.037 6.67 4.38 11.33
10/30/2020 4:45:00 PM 8.69 47.642 0.037 6.67 4.31 11.33
10/30/2020 5:00:00 PM 8.68 47.624 0.037 6.64 4.2 11.31
10/30/2020 5:15:00 PM 8.66 47.588 0.037 6.65 4.03 11.32
10/30/2020 5:30:00 PM 8.66 47.588 0.037 6.54 4.33 11.31
10/30/2020 5:45:00 PM 8.64 47.552 0.037 6.66 4 11.32
10/30/2020 6:00:00 PM 8.62 47.516 0.037 6.64 4.16 11.31
10/30/2020 6:15:00 PM 8.6 47.48 0.037 6.62 4.32 11.3
10/30/2020 6:30:00 PM 8.57 47.426 0.037 6.64 3.97 11.31
10/30/2020 6:45:00 PM 8.54 47.372 0.037 6.63 4.15 11.31
10/30/2020 7:00:00 PM 8.52 47.336 0.037 6.61 4.23 11.31
10/30/2020 7:15:00 PM 8.49 47.282 0.037 6.63 4.48 11.33
10/30/2020 7:30:00 PM 8.46 47.228 0.037 6.52 4.23 11.34
10/30/2020 7:45:00 PM 8.43 47.174 0.037 6.6 3.93 11.36
10/30/2020 8:00:00 PM 8.38 47.084 0.037 6.56 4.01 11.36
10/30/2020 8:15:00 PM 8.32 46.976 0.037 6.63 3.95 11.38
10/30/2020 8:30:00 PM 8.27 46.886 0.037 6.62 3.87 11.4
10/30/2020 8:45:00 PM 8.23 46.814 0.037 6.58 4.07 11.4
10/30/2020 9:00:00 PM 8.19 46.742 0.037 6.57 3.99 11.42
10/30/2020 9:15:00 PM 8.17 46.706 0.037 6.58 4.1 11.43
10/30/2020 9:30:00 PM 8.15 46.67 0.037 6.55 3.92 11.44
10/30/2020 9:45:00 PM 8.13 46.634 0.038 6.61 3.83 11.44
10/30/2020 10:00:00 PM 8.11 46.598 0.038 6.61 3.8 11.46
10/30/2020 10:15:00 PM 8.09 46.562 0.038 6.61 4.48 11.47
10/30/2020 10:30:00 PM 8.06 46.508 0.038 6.6 3.95 11.48
10/30/2020 10:45:00 PM 8.04 46.472 0.038 6.6 3.5 11.48
10/30/2020 11:00:00 PM 8.02 46.436 0.038 6.6 3.83 11.49
10/30/2020 11:15:00 PM 8 46.4 0.038 6.59 3.47 11.5
10/30/2020 11:30:00 PM 7.97 46.346 0.038 6.61 3.88 11.51
10/30/2020 11:45:00 PM 7.95 46.31 0.038 6.51 3.53 11.52
10/31/2020 12:00:00 AM 7.92 46.256 0.038 6.6 3.64 11.53
10/31/2020 12:15:00 AM 7.9 46.22 0.038 6.56 3.39 11.54
10/31/2020 12:30:00 AM 7.88 46.184 0.038 6.61 3.38 11.54
10/31/2020 12:45:00 AM 7.86 46.148 0.038 6.63 3.37 11.55
10/31/2020 1:00:00 AM 7.84 46.112 0.038 6.57 3.53 11.55
10/31/2020 1:15:00 AM 7.82 46.076 0.038 6.59 3.4 11.57
10/31/2020 1:30:00 AM 7.8 46.04 0.038 6.63 3.22 11.58
10/31/2020 1:45:00 AM 7.78 46.004 0.038 6.49 3.22 11.58
10/31/2020 2:00:00 AM 7.75 45.95 0.038 6.57 3.39 11.59
10/31/2020 2:15:00 AM 7.73 45.914 0.038 6.62 3.29 11.6
10/31/2020 2:30:00 AM 7.71 45.878 0.038 6.61 3.15 11.6
10/31/2020 2:45:00 AM 7.7 45.86 0.038 6.61 3.14 11.61
10/31/2020 3:00:00 AM 7.67 45.806 0.038 6.62 3.2 11.62
10/31/2020 3:15:00 AM 7.65 45.77 0.038 6.61 3.03 11.63
10/31/2020 3:30:00 AM 7.63 45.734 0.038 6.62 3.05 11.64
10/31/2020 3:45:00 AM 7.6 45.68 0.038 6.61 3.19 11.64
10/31/2020 4:00:00 AM 7.57 45.626 0.038 6.63 3.16 11.65
10/31/2020 4:15:00 AM 7.54 45.572 0.038 6.55 3.16 11.66
10/31/2020 4:30:00 AM 7.52 45.536 0.038 6.55 2.99 11.66
10/31/2020 4:45:00 AM 7.49 45.482 0.038 6.64 3.24 11.68
10/31/2020 5:00:00 AM 7.46 45.428 0.038 6.63 3.12 11.68
10/31/2020 5:15:00 AM 7.41 45.338 0.038 6.62 3.21 11.7
10/31/2020 5:30:00 AM 7.35 45.23 0.038 6.62 2.89 11.71
10/31/2020 5:45:00 AM 7.3 45.14 0.038 6.61 2.96 11.73
10/31/2020 6:00:00 AM 7.25 45.05 0.038 6.62 2.97 11.75
10/31/2020 6:15:00 AM 7.2 44.96 0.038 6.63 2.97 11.76
10/31/2020 6:30:00 AM 7.14 44.852 0.038 6.61 2.82 11.78
10/31/2020 6:45:00 AM 7.09 44.762 0.038 6.62 2.86 11.8
10/31/2020 7:00:00 AM 7.04 44.672 0.038 6.62 3.1 11.82
10/31/2020 7:15:00 AM 7 44.6 0.038 6.63 3.2 11.83
10/31/2020 7:30:00 AM 6.97 44.546 0.038 6.5 2.94 11.84
10/31/2020 7:45:00 AM 6.95 44.51 0.038 6.58 2.9 11.86
10/31/2020 8:00:00 AM 6.92 44.456 0.038 6.56 2.81 11.88
10/31/2020 8:15:00 AM 6.9 44.42 0.038 6.61 2.71 11.89
10/31/2020 8:30:00 AM 6.89 44.402 0.038 6.57 2.71 11.93
10/31/2020 8:45:00 AM 6.88 44.384 0.039 6.58 2.74 11.95
10/31/2020 9:00:00 AM 6.88 44.384 0.038 6.66 2.76 11.97
10/31/2020 9:15:00 AM 6.89 44.402 0.038 6.67 2.68 11.99
10/31/2020 9:30:00 AM 6.89 44.402 0.038 6.63 2.9 12.01
10/31/2020 9:45:00 AM 6.87 44.366 0.039 6.64 2.68 12
10/31/2020 10:00:00 AM 6.86 44.348 0.039 6.62 2.79 12.01
10/31/2020 10:15:00 AM 6.88 44.384 0.039 6.61 2.55 12.02
10/31/2020 10:30:00 AM 6.93 44.474 0.039 6.64 2.64 12.01
10/31/2020 10:45:00 AM 6.98 44.564 0.039 6.64 2.59 12.01
10/31/2020 11:00:00 AM 7.05 44.69 0.039 6.73 2.58 12.01
10/31/2020 11:15:00 AM 7.13 44.834 0.039 6.61 2.62 12
10/31/2020 11:30:00 AM 7.19 44.942 0.039 6.67 2.63 11.99
10/31/2020 11:45:00 AM 7.26 45.068 0.039 6.74 2.48 11.97
10/31/2020 12:00:00 PM 7.29 45.122 0.039 6.71 2.52 11.96
10/31/2020 12:15:00 PM 7.32 45.176 0.039 6.62 2.85 11.93
10/31/2020 12:30:00 PM 7.35 45.23 0.039 6.69 2.79 11.92
10/31/2020 12:45:00 PM 7.39 45.302 0.039 6.77 3.06 11.92
10/31/2020 1:00:00 PM 7.44 45.392 0.039 6.63 2.52 11.9
10/31/2020 1:15:00 PM 7.49 45.482 0.039 6.75 2.6 11.88
10/31/2020 1:30:00 PM 7.53 45.554 0.039 6.75 2.48 11.87
10/31/2020 1:45:00 PM 7.57 45.626 0.039 6.62 2.66 11.84
10/31/2020 2:00:00 PM 7.63 45.734 0.039 6.75 2.53 11.83
10/31/2020 2:15:00 PM 7.69 45.842 0.039 6.76 2.53 11.81
10/31/2020 2:30:00 PM 7.75 45.95 0.039 6.66 2.55 11.8
10/31/2020 2:45:00 PM 7.83 46.094 0.038 6.71 3.98 11.79
10/31/2020 3:00:00 PM 7.9 46.22 0.039 6.77 2.49 11.75
10/31/2020 3:15:00 PM 7.93 46.274 0.039 6.77 2.57 11.74
10/31/2020 3:30:00 PM 7.96 46.328 0.039 6.75 2.86 11.72
10/31/2020 3:45:00 PM 7.99 46.382 0.039 6.76 2.66 11.7
10/31/2020 4:00:00 PM 8.01 46.418 0.039 6.76 2.41 11.69
10/31/2020 4:15:00 PM 8 46.4 0.039 6.77 2.45 11.67
10/31/2020 4:30:00 PM 7.97 46.346 0.039 6.75 2.41 11.67
10/31/2020 4:45:00 PM 7.91 46.238 0.039 6.76 2.37 11.66
10/31/2020 5:00:00 PM 7.85 46.13 0.039 6.74 2.34 11.65
10/31/2020 5:15:00 PM 7.78 46.004 0.039 6.71 2.47 11.66
10/31/2020 5:30:00 PM 7.73 45.914 0.039 6.73 2.52 11.65
10/31/2020 5:45:00 PM 7.68 45.824 0.039 6.68 2.44 11.64
10/31/2020 6:00:00 PM 7.63 45.734 0.039 6.7 2.46 11.64
10/31/2020 6:15:00 PM 7.57 45.626 0.039 6.71 2.4 11.64
10/31/2020 6:30:00 PM 7.52 45.536 0.039 6.68 2.35 11.63
10/31/2020 6:45:00 PM 7.46 45.428 0.039 6.69 2.43 11.63
10/31/2020 7:00:00 PM 7.41 45.338 0.039 6.68 2.48 11.65
10/31/2020 7:15:00 PM 7.36 45.248 0.039 6.67 2.34 11.65
10/31/2020 7:30:00 PM 7.3 45.14 0.039 6.66 2.28 11.66
10/31/2020 7:45:00 PM 7.25 45.05 0.039 6.67 2.36 11.68
10/31/2020 8:00:00 PM 7.18 44.924 0.039 6.67 2.34 11.7
10/31/2020 8:15:00 PM 7.12 44.816 0.039 6.66 2.3 11.71
10/31/2020 8:30:00 PM 7.06 44.708 0.039 6.56 2.34 11.73
10/31/2020 8:45:00 PM 7 44.6 0.039 6.68 2.28 11.74
10/31/2020 9:00:00 PM 6.95 44.51 0.039 6.67 2.25 11.76
10/31/2020 9:15:00 PM 6.89 44.402 0.039 6.66 2.44 11.78
10/31/2020 9:30:00 PM 6.84 44.312 0.039 6.67 2.35 11.79
10/31/2020 9:45:00 PM 6.79 44.222 0.039 6.54 2.33 11.81
10/31/2020 10:00:00 PM 6.73 44.114 0.039 6.68 2.35 11.82
10/31/2020 10:15:00 PM 6.69 44.042 0.039 6.67 2.35 11.84
10/31/2020 10:30:00 PM 6.64 43.952 0.039 6.61 2.25 11.85
10/31/2020 10:45:00 PM 6.59 43.862 0.039 6.69 2.31 11.86
10/31/2020 11:00:00 PM 6.54 43.772 0.039 6.64 2.28 11.87
10/31/2020 11:15:00 PM 6.49 43.682 0.039 6.67 2.34 11.89
10/31/2020 11:30:00 PM 6.45 43.61 0.039 6.65 2.32 11.9
10/31/2020 11:45:00 PM 6.41 43.538 0.039 6.55 2.25 11.92
11/1/2020 12:00:00 AM 6.36 43.448 0.039 6.67 2.21 11.92
11/1/2020 12:15:00 AM 6.32 43.376 0.039 6.57 2.29 11.93
11/1/2020 12:30:00 AM 6.28 43.304 0.04 6.62 2.26 11.94
11/1/2020 12:45:00 AM 6.24 43.232 0.04 6.66 2.25 11.96
11/1/2020 1:00:00 AM 6.2 43.16 0.04 6.63 2.25 11.96
11/1/2020 1:15:00 AM 6.16 43.088 0.04 6.67 2.23 11.97
11/1/2020 1:30:00 AM 6.13 43.034 0.04 6.56 2.26 11.98
11/1/2020 1:45:00 AM 6.09 42.962 0.04 6.67 2.36 12
11/1/2020 2:00:00 AM 6.06 42.908 0.04 6.66 2.3 12
11/1/2020 2:15:00 AM 6.03 42.854 0.04 6.59 2.28 12
11/1/2020 2:30:00 AM 5.99 42.782 0.04 6.62 2.26 12.02
11/1/2020 2:45:00 AM 5.96 42.728 0.04 6.68 2.16 12.03
11/1/2020 3:00:00 AM 5.94 42.692 0.04 6.68 2.16 12.04
11/1/2020 3:15:00 AM 5.91 42.638 0.04 6.57 2.19 12.05
11/1/2020 3:30:00 AM 5.88 42.584 0.04 6.68 2.3 12.05
11/1/2020 3:45:00 AM 5.86 42.548 0.04 6.68 2.48 12.05
11/1/2020 4:00:00 AM 5.83 42.494 0.04 6.68 2.23 12.06
11/1/2020 4:15:00 AM 5.81 42.458 0.04 6.67 2.11 12.06
11/1/2020 4:30:00 AM 5.78 42.404 0.04 6.68 2.3 12.06
11/1/2020 4:45:00 AM 5.76 42.368 0.04 6.68 2.29 12.07
11/1/2020 5:00:00 AM 5.75 42.35 0.04 6.66 2.21 12.07
11/1/2020 5:15:00 AM 5.73 42.314 0.04 6.69 2.22 12.07
11/1/2020 5:30:00 AM 5.72 42.296 0.04 6.67 2.32 12.08
11/1/2020 5:45:00 AM 5.7 42.26 0.04 6.58 2.33 12.08
11/1/2020 6:00:00 AM 5.68 42.224 0.04 6.7 2.25 12.08
11/1/2020 6:15:00 AM 5.67 42.206 0.04 6.68 2.21 12.08
11/1/2020 6:30:00 AM 5.65 42.17 0.04 6.7 2.22 12.09
11/1/2020 6:45:00 AM 5.63 42.134 0.04 6.65 2.2 12.09
11/1/2020 7:00:00 AM 5.62 42.116 0.04 6.69 2.25 12.09
11/1/2020 7:15:00 AM 5.6 42.08 0.04 6.6 2.42 12.09
11/1/2020 7:30:00 AM 5.59 42.062 0.04 6.7 2.19 12.09
11/1/2020 7:45:00 AM 5.57 42.026 0.04 6.62 2.21 12.09
11/1/2020 8:00:00 AM 5.58 42.044 0.04 6.69 2.25 12.09
11/1/2020 8:15:00 AM 5.6 42.08 0.04 6.63 2.11 12.1
11/1/2020 8:30:00 AM 5.63 42.134 0.04 6.64 2.11 12.1
11/1/2020 8:45:00 AM 5.66 42.188 0.04 6.71 2.12 12.1
11/1/2020 9:00:00 AM 5.69 42.242 0.04 6.72 2.23 12.09
11/1/2020 9:15:00 AM 5.72 42.296 0.04 6.6 2.43 12.08
11/1/2020 9:30:00 AM 5.75 42.35 0.04 6.75 2.13 12.08
11/1/2020 9:45:00 AM 5.78 42.404 0.04 6.72 2.08 12.07
11/1/2020 10:00:00 AM 5.82 42.476 0.04 6.73 2.34 12.07
11/1/2020 10:15:00 AM 5.87 42.566 0.04 6.62 2.23 12.07
11/1/2020 10:30:00 AM 5.91 42.638 0.04 6.75 2.07 12.06
11/1/2020 10:45:00 AM 5.96 42.728 0.04 6.74 2.11 12.04
11/1/2020 11:00:00 AM 6.02 42.836 0.04 6.75 2.18 12.03
11/1/2020 11:15:00 AM 6.08 42.944 0.04 6.77 2.23 12.02
11/1/2020 11:30:00 AM 6.13 43.034 0.04 6.75 2.78 12
11/1/2020 11:45:00 AM 6.18 43.124 0.04 6.73 2.21 11.97
11/1/2020 12:00:00 PM 6.24 43.232 0.04 6.67 2.09 11.96
11/1/2020 12:15:00 PM 6.32 43.376 0.04 6.76 2 11.94
11/1/2020 12:30:00 PM 6.41 43.538 0.04 6.79 2.08 11.93
11/1/2020 12:45:00 PM 6.48 43.664 0.04 6.75 2.03 11.9
11/1/2020 1:00:00 PM 6.54 43.772 0.04 6.77 2.16 11.87
11/1/2020 1:15:00 PM 6.62 43.916 0.04 6.77 2.32 11.85
11/1/2020 1:30:00 PM 6.73 44.114 0.04 6.67 2.18 11.83
11/1/2020 1:45:00 PM 6.79 44.222 0.04 6.79 2.1 11.79
11/1/2020 2:00:00 PM 6.83 44.294 0.039 6.78 2.12 11.74
11/1/2020 2:15:00 PM 6.88 44.384 0.039 6.79 2.16 11.73
11/1/2020 2:30:00 PM 6.96 44.528 0.039 6.77 2.08 11.72
11/1/2020 2:45:00 PM 7.14 44.852 0.039 6.78 2.21 11.7
11/1/2020 3:00:00 PM 7.2 44.96 0.039 6.72 2.36 11.66
11/1/2020 3:15:00 PM 7.19 44.942 0.04 6.75 2.26 11.64
11/1/2020 3:30:00 PM 7.15 44.87 0.04 6.72 2.17 11.64
11/1/2020 3:45:00 PM 7.12 44.816 0.04 6.77 2.35 11.64
11/1/2020 4:00:00 PM 7.15 44.87 0.04 6.77 2.66 11.66
11/1/2020 4:15:00 PM 7.2 44.96 0.038 6.63 3.5 11.67
11/1/2020 4:30:00 PM 7.26 45.068 0.039 6.78 2.19 11.67
11/1/2020 4:45:00 PM 7.27 45.086 0.039 6.66 2.22 11.65
11/1/2020 5:00:00 PM 7.26 45.068 0.039 6.72 2.52 11.63
11/1/2020 5:15:00 PM 7.24 45.032 0.04 6.79 3.24 11.62
11/1/2020 5:30:00 PM 7.21 44.978 0.04 6.77 6.37 11.62
11/1/2020 5:45:00 PM 7.15 44.87 0.04 6.76 4.46 11.61
11/1/2020 6:00:00 PM 7.08 44.744 0.04 6.71 3.49 11.62
11/1/2020 6:15:00 PM 7.01 44.618 0.04 6.74 4.79 11.62
11/1/2020 6:30:00 PM 6.95 44.51 0.04 6.73 2.93 11.61
11/1/2020 6:45:00 PM 6.91 44.438 0.04 6.73 2.89 11.61
11/1/2020 7:00:00 PM 6.86 44.348 0.04 6.74 2.81 11.62
11/1/2020 7:15:00 PM 6.81 44.258 0.04 6.71 2.78 11.64
11/1/2020 7:30:00 PM 6.75 44.15 0.04 6.72 3.16 11.65
11/1/2020 7:45:00 PM 6.7 44.06 0.04 6.71 3.12 11.66
11/1/2020 8:00:00 PM 6.64 43.952 0.04 6.71 3.1 11.68
11/1/2020 8:15:00 PM 6.59 43.862 0.04 6.7 3.21 11.7
11/1/2020 8:30:00 PM 6.55 43.79 0.04 6.6 3.09 11.71
11/1/2020 8:45:00 PM 6.49 43.682 0.04 6.72 3.18 11.73
11/1/2020 9:00:00 PM 6.45 43.61 0.04 6.7 3.08 11.75
11/1/2020 9:15:00 PM 6.4 43.52 0.04 6.71 3.13 11.76
11/1/2020 9:30:00 PM 6.36 43.448 0.04 6.7 3.22 11.78
11/1/2020 9:45:00 PM 6.31 43.358 0.04 6.7 2.72 11.8
11/1/2020 10:00:00 PM 6.27 43.286 0.04 6.7 2.56 11.81
11/1/2020 10:15:00 PM 6.25 43.25 0.04 6.71 2.7 11.83
11/1/2020 10:30:00 PM 6.23 43.214 0.04 6.71 2.6 11.84
11/1/2020 10:45:00 PM 6.22 43.196 0.04 6.69 2.47 11.84
11/1/2020 11:00:00 PM 6.18 43.124 0.04 6.72 2.5 11.85
11/1/2020 11:15:00 PM 6.15 43.07 0.04 6.59 2.37 11.87
11/1/2020 11:30:00 PM 6.12 43.016 0.04 6.72 2.32 11.88
11/1/2020 11:45:00 PM 6.09 42.962 0.04 6.7 2.41 11.87
11/2/2020 12:00:00 AM 6.06 42.908 0.04 6.71 2.33 11.89
11/2/2020 12:15:00 AM 6.03 42.854 0.04 6.71 2.41 11.9
11/2/2020 12:30:00 AM 6 42.8 0.04 6.7 2.35 11.9
11/2/2020 12:45:00 AM 5.96 42.728 0.04 6.7 2.29 11.92
11/2/2020 1:00:00 AM 5.91 42.638 0.04 6.7 2.5 11.93
11/2/2020 1:15:00 AM 5.87 42.566 0.04 6.59 2.28 11.94
11/2/2020 1:30:00 AM 5.84 42.512 0.04 6.72 2.3 11.95
11/2/2020 1:45:00 AM 5.82 42.476 0.04 6.71 2.34 11.96
11/2/2020 2:00:00 AM 5.8 42.44 0.04 6.68 2.46 11.96
11/2/2020 2:15:00 AM 5.79 42.422 0.04 6.72 2.28 11.97
11/2/2020 2:30:00 AM 5.77 42.386 0.04 6.7 2.33 11.98
11/2/2020 2:45:00 AM 5.75 42.35 0.04 6.71 2.33 11.99
11/2/2020 3:00:00 AM 5.71 42.278 0.04 6.65 2.32 12
11/2/2020 3:15:00 AM 5.68 42.224 0.04 6.73 2.32 12.01
11/2/2020 3:30:00 AM 5.65 42.17 0.04 6.68 2.28 12.02
11/2/2020 3:45:00 AM 5.62 42.116 0.04 6.71 2.35 12.03
11/2/2020 4:00:00 AM 5.61 42.098 0.04 6.71 2.53 12.04
11/2/2020 4:15:00 AM 5.59 42.062 0.04 6.59 2.55 12.04
11/2/2020 4:30:00 AM 5.56 42.008 0.04 6.65 2.43 12.05
11/2/2020 4:45:00 AM 5.53 41.954 0.04 6.7 2.54 12.06
11/2/2020 5:00:00 AM 5.5 41.9 0.04 6.72 2.41 12.07
11/2/2020 5:15:00 AM 5.47 41.846 0.04 6.71 2.47 12.09
11/2/2020 5:30:00 AM 5.44 41.792 0.04 6.71 2.49 12.09
11/2/2020 5:45:00 AM 5.4 41.72 0.04 6.72 2.32 12.11
11/2/2020 6:00:00 AM 5.4 41.72 0.04 6.72 2.3 12.12
11/2/2020 6:15:00 AM 5.38 41.684 0.04 6.61 2.32 12.14
11/2/2020 6:30:00 AM 5.36 41.648 0.04 6.72 2.26 12.15
11/2/2020 6:45:00 AM 5.33 41.594 0.04 6.72 2.43 12.16
11/2/2020 7:00:00 AM 5.3 41.54 0.04 6.71 2.26 12.18
11/2/2020 7:15:00 AM 5.28 41.504 0.04 6.71 2.3 12.18
11/2/2020 7:30:00 AM 5.25 41.45 0.04 6.71 2.16 12.19
11/2/2020 7:45:00 AM 5.23 41.414 0.04 6.66 2.34 12.21
11/2/2020 8:00:00 AM 5.21 41.378 0.04 6.72 2.22 12.23
11/2/2020 8:15:00 AM 5.19 41.342 0.04 6.69 2.08 12.25
11/2/2020 8:30:00 AM 5.17 41.306 0.04 6.62 2.14 12.26
11/2/2020 8:45:00 AM 5.17 41.306 0.04 6.74 2.1 12.28
11/2/2020 9:00:00 AM 5.16 41.288 0.04 6.73 2.08 12.3
11/2/2020 9:15:00 AM 5.3 41.54 0.039 6.76 2.06 12.39
11/2/2020 9:30:00 AM 5.33 41.594 0.039 6.77 2.04 12.39
11/2/2020 9:45:00 AM 5.36 41.648 0.039 6.67 2.33 12.39
11/2/2020 10:00:00 AM 5.4 41.72 0.039 6.78 2.1 12.39
11/2/2020 10:15:00 AM 5.44 41.792 0.039 6.78 2.11 12.38
11/2/2020 10:30:00 AM 5.49 41.882 0.039 6.78 2.09 12.37
11/2/2020 10:45:00 AM 5.56 42.008 0.039 6.79 2.04 12.36
11/2/2020 11:00:00 AM 5.61 42.098 0.039 6.79 2.03 12.35
11/2/2020 11:15:00 AM 5.69 42.242 0.039 6.68 2.32 12.31
11/2/2020 11:30:00 AM 5.8 42.44 0.039 6.81 2.03 12.3
11/2/2020 11:45:00 AM 5.94 42.692 0.039 6.8 2.07 12.26
11/2/2020 12:00:00 PM 6.01 42.818 0.039 6.8 2.07 12.23
11/2/2020 12:15:00 PM 5.96 42.728 0.039 6.8 2.01 12.22
11/2/2020 12:30:00 PM 5.92 42.656 0.039 6.67 2.01 12.22
11/2/2020 12:45:00 PM 5.89 42.602 0.039 6.8 2.1 12.24
11/2/2020 1:00:00 PM 5.87 42.566 0.039 6.77 2 12.23
11/2/2020 1:15:00 PM 5.88 42.584 0.039 6.75 2.17 12.24
11/2/2020 1:30:00 PM 5.87 42.566 0.039 6.78 2.12 12.22
11/2/2020 1:45:00 PM 5.9 42.62 0.039 6.77 2.34 12.21
11/2/2020 2:00:00 PM 5.91 42.638 0.039 6.77 2.02 12.2
11/2/2020 2:15:00 PM 5.92 42.656 0.039 6.66 3.87 12.2
11/2/2020 2:30:00 PM 5.95 42.71 0.039 6.79 2 12.19
11/2/2020 2:45:00 PM 5.98 42.764 0.039 6.78 2.11 12.18
11/2/2020 3:00:00 PM 5.97 42.746 0.039 6.73 2.05 12.18
11/2/2020 3:15:00 PM 5.97 42.746 0.039 6.79 2.05 12.18
11/2/2020 3:30:00 PM 5.98 42.764 0.039 6.76 2.09 12.17
11/2/2020 3:45:00 PM 5.97 42.746 0.039 6.77 3.28 12.17
11/2/2020 4:00:00 PM 5.95 42.71 0.039 6.74 2.06 12.17
11/2/2020 4:15:00 PM 5.92 42.656 0.039 6.75 1.98 12.17
11/2/2020 4:30:00 PM 5.88 42.584 0.039 6.7 2.35 12.17
11/2/2020 4:45:00 PM 5.84 42.512 0.039 6.76 1.96 12.15
11/2/2020 5:00:00 PM 5.8 42.44 0.039 6.74 1.98 12.13
11/2/2020 5:15:00 PM 5.75 42.35 0.039 6.75 2.27 12.11
11/2/2020 5:30:00 PM 5.71 42.278 0.04 6.74 2.04 12.09
11/2/2020 5:45:00 PM 5.68 42.224 0.04 6.68 2.19 12.08
11/2/2020 6:00:00 PM 5.66 42.188 0.04 6.73 2.06 12.08
11/2/2020 6:15:00 PM 5.65 42.17 0.04 6.72 2.25 12.07
11/2/2020 6:30:00 PM 5.64 42.152 0.04 6.72 2.2 12.07
11/2/2020 6:45:00 PM 5.63 42.134 0.04 6.71 2.11 12.07
11/2/2020 7:00:00 PM 5.62 42.116 0.04 6.72 2.08 12.07
11/2/2020 7:15:00 PM 5.61 42.098 0.04 6.72 2.07 12.07
11/2/2020 7:30:00 PM 5.59 42.062 0.04 6.63 2.04 12.07
11/2/2020 7:45:00 PM 5.57 42.026 0.04 6.71 2.05 12.08
11/2/2020 8:00:00 PM 5.55 41.99 0.04 6.69 2.02 12.09
11/2/2020 8:15:00 PM 5.53 41.954 0.04 6.7 2.1 12.09
11/2/2020 8:30:00 PM 5.5 41.9 0.04 6.65 2.03 12.09
11/2/2020 8:45:00 PM 5.45 41.81 0.04 6.72 2.08 12.11
11/2/2020 9:00:00 PM 5.4 41.72 0.04 6.7 2.04 12.11
11/2/2020 9:15:00 PM 5.36 41.648 0.04 6.7 2.05 12.12
11/2/2020 9:30:00 PM 5.33 41.594 0.04 6.7 2.07 12.13
11/2/2020 9:45:00 PM 5.31 41.558 0.04 6.71 2.02 12.14
11/2/2020 10:00:00 PM 5.29 41.522 0.04 6.63 1.99 12.14
11/2/2020 10:15:00 PM 5.28 41.504 0.04 6.71 2.13 12.14
11/2/2020 10:30:00 PM 5.27 41.486 0.04 6.6 2.01 12.15
11/2/2020 10:45:00 PM 5.26 41.468 0.04 6.71 2.07 12.16
11/2/2020 11:00:00 PM 5.25 41.45 0.04 6.71 2.14 12.17
11/2/2020 11:15:00 PM 5.24 41.432 0.04 6.7 2 12.17
11/2/2020 11:30:00 PM 5.24 41.432 0.04 6.7 2.02 12.17
11/2/2020 11:45:00 PM 5.25 41.45 0.04 6.63 2.1 12.17
11/3/2020 12:00:00 AM 5.24 41.432 0.04 6.73 1.96 12.17
11/3/2020 12:15:00 AM 5.22 41.396 0.04 6.7 2.13 12.18
11/3/2020 12:30:00 AM 5.18 41.324 0.04 6.71 2 12.19
11/3/2020 12:45:00 AM 5.15 41.27 0.04 6.71 2.05 12.21
11/3/2020 1:00:00 AM 5.11 41.198 0.04 6.69 2.43 12.21
11/3/2020 1:15:00 AM 5.08 41.144 0.04 6.72 2.16 12.22
11/3/2020 1:30:00 AM 5.05 41.09 0.04 6.7 2.05 12.24
11/3/2020 1:45:00 AM 5.03 41.054 0.04 6.7 2.04 12.25
11/3/2020 2:00:00 AM 5 41 0.04 6.68 2.07 12.25
11/3/2020 2:15:00 AM 4.98 40.964 0.04 6.61 1.95 12.25
11/3/2020 2:30:00 AM 4.97 40.946 0.04 6.72 1.99 12.26
11/3/2020 2:45:00 AM 4.94 40.892 0.04 6.72 2.02 12.27
11/3/2020 3:00:00 AM 4.92 40.856 0.04 6.67 1.96 12.28
11/3/2020 3:15:00 AM 4.91 40.838 0.04 6.7 2.29 12.29
11/3/2020 3:30:00 AM 4.89 40.802 0.04 6.71 1.96 12.29
11/3/2020 3:45:00 AM 4.87 40.766 0.04 6.69 1.98 12.3
11/3/2020 4:00:00 AM 4.85 40.73 0.04 6.7 2.09 12.31
11/3/2020 4:15:00 AM 4.82 40.676 0.04 6.59 2.17 12.31
11/3/2020 4:30:00 AM 4.81 40.658 0.04 6.72 2.19 12.32
11/3/2020 4:45:00 AM 4.79 40.622 0.04 6.6 2.01 12.31
11/3/2020 5:00:00 AM 4.78 40.604 0.04 6.72 2.2 12.33
11/3/2020 5:15:00 AM 4.75 40.55 0.04 6.7 1.98 12.34
11/3/2020 5:30:00 AM 4.73 40.514 0.04 6.69 2.03 12.35
11/3/2020 5:45:00 AM 4.71 40.478 0.04 6.69 2.09 12.37
11/3/2020 6:00:00 AM 4.69 40.442 0.04 6.7 1.99 12.38
11/3/2020 6:15:00 AM 4.68 40.424 0.04 6.69 1.96 12.37
11/3/2020 6:30:00 AM 4.67 40.406 0.04 6.6 2.32 12.39
11/3/2020 6:45:00 AM 4.65 40.37 0.04 6.72 1.95 12.4
11/3/2020 7:00:00 AM 4.63 40.334 0.04 6.67 1.98 12.41
11/3/2020 7:15:00 AM 4.62 40.316 0.04 6.69 1.96 12.44
11/3/2020 7:30:00 AM 4.61 40.298 0.04 6.71 1.95 12.46
11/3/2020 7:45:00 AM 4.61 40.298 0.04 6.62 2.02 12.49
11/3/2020 8:00:00 AM 4.61 40.298 0.04 6.73 1.92 12.49
11/3/2020 8:15:00 AM 4.61 40.298 0.04 6.72 1.99 12.52
11/3/2020 8:30:00 AM 4.62 40.316 0.04 6.72 1.9 12.54
11/3/2020 8:45:00 AM 4.65 40.37 0.04 6.73 1.95 12.55
11/3/2020 9:00:00 AM 4.69 40.442 0.04 6.75 1.9 12.57
11/3/2020 9:15:00 AM 4.77 40.586 0.04 6.75 3.04 12.57
11/3/2020 9:30:00 AM 4.87 40.766 0.04 6.74 1.91 12.54
11/3/2020 9:45:00 AM 4.98 40.964 0.04 6.67 1.86 12.53
11/3/2020 10:00:00 AM 5.11 41.198 0.04 6.79 1.87 12.5
11/3/2020 10:15:00 AM 5.22 41.396 0.04 6.73 1.89 12.47
11/3/2020 10:30:00 AM 5.35 41.63 0.04 6.73 1.87 12.46
11/3/2020 10:45:00 AM 5.46 41.828 0.04 6.82 2.17 12.43
11/3/2020 11:00:00 AM 5.57 42.026 0.04 6.78 3.36 12.39
11/3/2020 11:15:00 AM 5.69 42.242 0.04 6.79 1.86 12.37
11/3/2020 11:30:00 AM 5.85 42.53 0.04 6.78 1.81 12.33
11/3/2020 11:45:00 AM 6.01 42.818 0.04 6.82 1.78 12.28
11/3/2020 12:00:00 PM 6.19 43.142 0.04 6.8 1.84 12.23
11/3/2020 12:15:00 PM 6.38 43.484 0.04 6.82 1.94 12.18
11/3/2020 12:30:00 PM 6.57 43.826 0.04 6.82 1.86 12.13
11/3/2020 12:45:00 PM 6.69 44.042 0.04 6.8 2.31 12.1
11/3/2020 1:00:00 PM 6.84 44.312 0.04 6.84 1.96 12.06
11/3/2020 1:15:00 PM 6.97 44.546 0.04 6.82 1.98 12.02
11/3/2020 1:30:00 PM 7.12 44.816 0.04 6.83 2.12 11.98
11/3/2020 1:45:00 PM 7.21 44.978 0.04 6.83 1.83 11.95
11/3/2020 2:00:00 PM 7.29 45.122 0.04 6.82 2.05 11.93
11/3/2020 2:15:00 PM 7.33 45.194 0.04 6.82 2.05 11.9
11/3/2020 2:30:00 PM 7.37 45.266 0.04 6.83 1.83 11.88
11/3/2020 2:45:00 PM 7.35 45.23 0.04 6.82 1.86 11.85
11/3/2020 3:00:00 PM 7.28 45.104 0.04 6.81 1.94 11.85
11/3/2020 3:15:00 PM 7.24 45.032 0.04 6.81 1.88 11.85
11/3/2020 3:30:00 PM 7.18 44.924 0.04 6.67 2.35 11.85
11/3/2020 3:45:00 PM 7.13 44.834 0.04 6.76 2.89 11.83
11/3/2020 4:00:00 PM 7.1 44.78 0.04 6.76 1.8 11.86
11/3/2020 4:15:00 PM 7.06 44.708 0.04 6.69 1.86 11.85
11/3/2020 4:30:00 PM 7.02 44.636 0.04 6.78 1.79 11.83
11/3/2020 4:45:00 PM 6.98 44.564 0.04 6.77 1.89 11.81
11/3/2020 5:00:00 PM 6.92 44.456 0.04 6.68 1.81 11.8
11/3/2020 5:15:00 PM 6.85 44.33 0.04 6.76 1.84 11.79
11/3/2020 5:30:00 PM 6.8 44.24 0.04 6.67 1.85 11.79
11/3/2020 5:45:00 PM 6.75 44.15 0.04 6.74 2.07 11.77
11/3/2020 6:00:00 PM 6.71 44.078 0.04 6.71 2.16 11.78
11/3/2020 6:15:00 PM 6.67 44.006 0.04 6.7 1.93 11.78
11/3/2020 6:30:00 PM 6.63 43.934 0.04 6.71 1.93 11.79
11/3/2020 6:45:00 PM 6.59 43.862 0.04 6.68 1.96 11.78
11/3/2020 7:00:00 PM 6.56 43.808 0.04 6.59 1.98 11.81
11/3/2020 7:15:00 PM 6.52 43.736 0.04 6.71 1.96 11.82
11/3/2020 7:30:00 PM 6.48 43.664 0.04 6.7 1.95 11.83
11/3/2020 7:45:00 PM 6.44 43.592 0.04 6.7 2 11.84
11/3/2020 8:00:00 PM 6.4 43.52 0.04 6.68 2.02 11.86
11/3/2020 8:15:00 PM 6.35 43.43 0.04 6.67 1.94 11.87
11/3/2020 8:30:00 PM 6.31 43.358 0.04 6.69 2.03 11.88
11/3/2020 8:45:00 PM 6.26 43.268 0.04 6.68 2 11.9
11/3/2020 9:00:00 PM 6.21 43.178 0.04 6.69 1.91 11.93
11/3/2020 9:15:00 PM 6.17 43.106 0.04 6.68 1.98 11.95
11/3/2020 9:30:00 PM 6.11 42.998 0.04 6.66 1.89 11.96
11/3/2020 9:45:00 PM 6.06 42.908 0.04 6.69 1.99 11.98
11/3/2020 10:00:00 PM 6.02 42.836 0.04 6.68 1.96 11.99
11/3/2020 10:15:00 PM 5.96 42.728 0.04 6.67 2.08 12.01
11/3/2020 10:30:00 PM 5.91 42.638 0.04 6.57 1.92 12.04
11/3/2020 10:45:00 PM 5.86 42.548 0.04 6.65 2 12.06
11/3/2020 11:00:00 PM 5.81 42.458 0.04 6.68 1.91 12.08
11/3/2020 11:15:00 PM 5.76 42.368 0.04 6.55 2.08 12.1
11/3/2020 11:30:00 PM 5.7 42.26 0.04 6.69 1.91 12.12
11/3/2020 11:45:00 PM 5.65 42.17 0.04 6.68 2.03 12.14
11/4/2020 12:00:00 AM 5.6 42.08 0.04 6.68 2.07 12.15
11/4/2020 12:15:00 AM 5.55 41.99 0.04 6.69 1.95 12.16
11/4/2020 12:30:00 AM 5.5 41.9 0.04 6.67 2.01 12.18
11/4/2020 12:45:00 AM 5.46 41.828 0.04 6.67 1.93 12.2
11/4/2020 1:00:00 AM 5.4 41.72 0.04 6.68 2.01 12.23
11/4/2020 1:15:00 AM 5.35 41.63 0.04 6.64 2.3 12.24
11/4/2020 1:30:00 AM 5.3 41.54 0.04 6.69 1.99 12.26
11/4/2020 1:45:00 AM 5.26 41.468 0.041 6.68 1.86 12.27
11/4/2020 2:00:00 AM 5.21 41.378 0.041 6.55 1.98 12.29
11/4/2020 2:15:00 AM 5.16 41.288 0.04 6.69 1.98 12.31
11/4/2020 2:30:00 AM 5.12 41.216 0.041 6.68 1.95 12.32
11/4/2020 2:45:00 AM 5.08 41.144 0.041 6.54 2.01 12.33
11/4/2020 3:00:00 AM 5.03 41.054 0.041 6.68 2 12.35
11/4/2020 3:15:00 AM 4.99 40.982 0.041 6.66 1.92 12.36
11/4/2020 3:30:00 AM 4.95 40.91 0.041 6.69 2 12.38
11/4/2020 3:45:00 AM 4.91 40.838 0.041 6.67 2.03 12.38
11/4/2020 4:00:00 AM 4.87 40.766 0.041 6.67 1.96 12.41
11/4/2020 4:15:00 AM 4.83 40.694 0.041 6.55 2 12.44
11/4/2020 4:30:00 AM 4.79 40.622 0.041 6.68 2.01 12.45
11/4/2020 4:45:00 AM 4.76 40.568 0.041 6.68 1.92 12.47
11/4/2020 5:00:00 AM 4.72 40.496 0.041 6.67 1.94 12.47
11/4/2020 5:15:00 AM 4.68 40.424 0.041 6.66 1.87 12.49
11/4/2020 5:30:00 AM 4.65 40.37 0.041 6.68 1.93 12.5
11/4/2020 5:45:00 AM 4.61 40.298 0.041 6.55 1.86 12.52
11/4/2020 6:00:00 AM 4.57 40.226 0.041 6.68 1.89 12.53
11/4/2020 6:15:00 AM 4.53 40.154 0.041 6.67 1.9 12.55
11/4/2020 6:30:00 AM 4.5 40.1 0.041 6.67 1.96 12.56
11/4/2020 6:45:00 AM 4.47 40.046 0.041 6.67 1.92 12.57
11/4/2020 7:00:00 AM 4.44 39.992 0.041 6.58 1.87 12.59
11/4/2020 7:15:00 AM 4.41 39.938 0.041 6.61 1.92 12.62
11/4/2020 7:30:00 AM 4.38 39.884 0.041 6.7 1.97 12.65
11/4/2020 7:45:00 AM 4.37 39.866 0.041 6.69 2.03 12.68
11/4/2020 8:00:00 AM 4.35 39.83 0.041 6.7 2 12.69
11/4/2020 8:15:00 AM 4.34 39.812 0.041 6.69 2.45 12.7
11/4/2020 8:30:00 AM 4.33 39.794 0.04 6.7 1.94 12.75
11/4/2020 8:45:00 AM 4.34 39.812 0.04 6.73 2.53 12.75
11/4/2020 9:00:00 AM 4.36 39.848 0.04 6.71 2.15 12.75
11/4/2020 9:15:00 AM 4.42 39.956 0.04 6.72 1.83 12.78
11/4/2020 9:30:00 AM 4.5 40.1 0.04 6.73 1.87 12.76
11/4/2020 9:45:00 AM 4.61 40.298 0.04 6.73 1.83 12.75
11/4/2020 10:00:00 AM 4.76 40.568 0.04 6.66 1.9 12.73
11/4/2020 10:15:00 AM 4.89 40.802 0.04 6.78 1.81 12.7
11/4/2020 10:30:00 AM 5.04 41.072 0.04 6.77 1.87 12.67
11/4/2020 10:45:00 AM 5.18 41.324 0.04 6.67 1.82 12.62
11/4/2020 11:00:00 AM 5.35 41.63 0.04 6.8 1.86 12.59
11/4/2020 11:15:00 AM 5.52 41.936 0.04 6.69 1.82 12.54
11/4/2020 11:30:00 AM 5.71 42.278 0.04 6.74 1.83 12.49
11/4/2020 11:45:00 AM 5.9 42.62 0.04 6.82 1.82 12.43
11/4/2020 12:00:00 PM 6.1 42.98 0.04 6.78 1.91 12.38
11/4/2020 12:15:00 PM 6.33 43.394 0.04 6.71 1.78 12.31
11/4/2020 12:30:00 PM 6.58 43.844 0.04 6.77 2.08 12.25
11/4/2020 12:45:00 PM 6.8 44.24 0.04 6.84 3.09 12.18
11/4/2020 1:00:00 PM 7 44.6 0.04 6.83 5.37 12.14
11/4/2020 1:15:00 PM 7.2 44.96 0.04 6.81 1.7 12.07
11/4/2020 1:30:00 PM 7.41 45.338 0.04 6.72 1.74 12.01
11/4/2020 1:45:00 PM 7.62 45.716 0.04 6.77 1.78 11.95
11/4/2020 2:00:00 PM 7.79 46.022 0.04 6.86 1.83 11.91
11/4/2020 2:15:00 PM 7.9 46.22 0.04 6.71 1.72 11.86
11/4/2020 2:30:00 PM 8 46.4 0.04 6.86 1.66 11.82
11/4/2020 2:45:00 PM 8.06 46.508 0.04 6.77 1.74 11.78
11/4/2020 3:00:00 PM 8.06 46.508 0.04 6.84 1.75 11.76
11/4/2020 3:15:00 PM 8.02 46.436 0.04 6.82 1.76 11.73
11/4/2020 3:30:00 PM 7.93 46.274 0.04 6.82 1.69 11.76
11/4/2020 3:45:00 PM 7.85 46.13 0.04 6.81 1.7 11.73
11/4/2020 4:00:00 PM 7.73 45.914 0.04 6.81 1.81 11.72
11/4/2020 4:15:00 PM 7.62 45.716 0.04 6.67 1.82 11.73
11/4/2020 4:30:00 PM 7.55 45.59 0.04 6.74 1.75 11.73
11/4/2020 4:45:00 PM 7.46 45.428 0.04 6.77 1.86 11.72
11/4/2020 5:00:00 PM 7.38 45.284 0.041 6.75 1.74 11.71
11/4/2020 5:15:00 PM 7.3 45.14 0.041 6.73 1.77 11.71
11/4/2020 5:30:00 PM 7.23 45.014 0.041 6.74 1.79 11.7
11/4/2020 5:45:00 PM 7.18 44.924 0.041 6.65 1.88 11.7
11/4/2020 6:00:00 PM 7.12 44.816 0.041 6.72 1.84 11.7
11/4/2020 6:15:00 PM 7.09 44.762 0.041 6.7 1.75 11.69
11/4/2020 6:30:00 PM 7.05 44.69 0.041 6.61 1.78 11.7
11/4/2020 6:45:00 PM 7.01 44.618 0.041 6.7 1.76 11.7
11/4/2020 7:00:00 PM 6.98 44.564 0.041 6.68 1.79 11.7
11/4/2020 7:15:00 PM 6.95 44.51 0.041 6.68 1.82 11.71
11/4/2020 7:30:00 PM 6.92 44.456 0.041 6.68 1.85 11.73
11/4/2020 7:45:00 PM 6.89 44.402 0.041 6.57 1.81 11.73
11/4/2020 8:00:00 PM 6.86 44.348 0.041 6.68 1.92 11.72
11/4/2020 8:15:00 PM 6.82 44.276 0.041 6.59 1.86 11.74
11/4/2020 8:30:00 PM 6.79 44.222 0.041 6.69 1.8 11.77
11/4/2020 8:45:00 PM 6.75 44.15 0.041 6.68 1.84 11.77
11/4/2020 9:00:00 PM 6.71 44.078 0.041 6.68 1.81 11.79
11/4/2020 9:15:00 PM 6.68 44.024 0.041 6.66 1.82 11.79
11/4/2020 9:30:00 PM 6.64 43.952 0.041 6.62 1.83 11.81
11/4/2020 9:45:00 PM 6.6 43.88 0.041 6.68 1.9 11.81
11/4/2020 10:00:00 PM 6.56 43.808 0.041 6.67 1.79 11.81
11/4/2020 10:15:00 PM 6.52 43.736 0.041 6.56 1.82 11.83
11/4/2020 10:30:00 PM 6.48 43.664 0.041 6.63 1.85 11.86
11/4/2020 10:45:00 PM 6.43 43.574 0.041 6.69 1.85 11.88
11/4/2020 11:00:00 PM 6.39 43.502 0.041 6.67 1.83 11.89
11/4/2020 11:15:00 PM 6.34 43.412 0.041 6.67 1.8 11.9
11/4/2020 11:30:00 PM 6.3 43.34 0.041 6.67 1.84 11.91
11/4/2020 11:45:00 PM 6.25 43.25 0.041 6.66 1.83 11.93
11/5/2020 12:00:00 AM 6.21 43.178 0.041 6.66 1.8 11.93
11/5/2020 12:15:00 AM 6.15 43.07 0.041 6.69 1.8 11.95
11/5/2020 12:30:00 AM 6.11 42.998 0.041 6.55 1.8 11.96
11/5/2020 12:45:00 AM 6.06 42.908 0.041 6.68 1.88 12
11/5/2020 1:00:00 AM 6.02 42.836 0.041 6.54 1.88 12
11/5/2020 1:15:00 AM 5.97 42.746 0.041 6.6 1.83 12.02
11/5/2020 1:30:00 AM 5.93 42.674 0.041 6.64 1.87 12.03
11/5/2020 1:45:00 AM 5.89 42.602 0.041 6.67 2.07 12.04
11/5/2020 2:00:00 AM 5.84 42.512 0.041 6.57 1.96 12.07
11/5/2020 2:15:00 AM 5.79 42.422 0.041 6.68 2.01 12.09
11/5/2020 2:30:00 AM 5.75 42.35 0.041 6.66 2.1 12.08
11/5/2020 2:45:00 AM 5.71 42.278 0.041 6.67 1.9 12.09
11/5/2020 3:00:00 AM 5.66 42.188 0.041 6.65 1.98 12.12
11/5/2020 3:15:00 AM 5.61 42.098 0.041 6.66 2.19 12.13
11/5/2020 3:30:00 AM 5.57 42.026 0.041 6.68 2.45 12.16
11/5/2020 3:45:00 AM 5.52 41.936 0.041 6.66 2.68 12.17
11/5/2020 4:00:00 AM 5.48 41.864 0.041 6.67 2.66 12.17
11/5/2020 4:15:00 AM 5.44 41.792 0.041 6.67 2.52 12.2
11/5/2020 4:30:00 AM 5.39 41.702 0.041 6.58 2 12.21
11/5/2020 4:45:00 AM 5.36 41.648 0.041 6.63 2.34 12.23
11/5/2020 5:00:00 AM 5.32 41.576 0.041 6.68 2.42 12.24
11/5/2020 5:15:00 AM 5.28 41.504 0.041 6.56 2.17 12.23
11/5/2020 5:30:00 AM 5.25 41.45 0.041 6.68 1.87 12.27
11/5/2020 5:45:00 AM 5.21 41.378 0.041 6.66 1.95 12.27
11/5/2020 6:00:00 AM 5.18 41.324 0.041 6.67 3.04 12.3
11/5/2020 6:15:00 AM 5.15 41.27 0.041 6.67 2.2 12.3
11/5/2020 6:30:00 AM 5.1 41.18 0.041 6.6 1.96 12.32
11/5/2020 6:45:00 AM 5.07 41.126 0.041 6.66 3.7 12.28
11/5/2020 7:00:00 AM 5.03 41.054 0.041 6.67 1.88 12.34
11/5/2020 7:15:00 AM 5 41 0.041 6.68 2.16 12.38
11/5/2020 7:30:00 AM 4.98 40.964 0.041 6.66 2.51 12.4
11/5/2020 7:45:00 AM 4.96 40.928 0.041 6.67 2.44 12.43
11/5/2020 8:00:00 AM 4.95 40.91 0.041 6.68 2.49 12.48
11/5/2020 8:15:00 AM 4.95 40.91 0.041 6.7 1.98 12.5
11/5/2020 8:30:00 AM 4.96 40.928 0.041 6.7 2 12.53
11/5/2020 8:45:00 AM 5 41 0.041 6.6 3.74 12.55
11/5/2020 9:00:00 AM 5.05 41.09 0.041 6.73 1.92 12.57
11/5/2020 9:15:00 AM 5.13 41.234 0.041 6.63 1.88 12.58
11/5/2020 9:30:00 AM 5.21 41.378 0.041 6.74 1.77 12.57
11/5/2020 9:45:00 AM 5.29 41.522 0.041 6.76 1.86 12.55
11/5/2020 10:00:00 AM 5.38 41.684 0.041 6.75 1.83 12.54
11/5/2020 10:15:00 AM 5.5 41.9 0.041 6.73 1.86 12.51
11/5/2020 10:30:00 AM 5.61 42.098 0.041 6.79 1.83 12.49
11/5/2020 10:45:00 AM 5.74 42.332 0.041 6.67 1.91 12.45
11/5/2020 11:00:00 AM 5.88 42.584 0.041 6.8 1.82 12.42
11/5/2020 11:15:00 AM 6.03 42.854 0.041 6.8 1.85 12.39
11/5/2020 11:30:00 AM 6.18 43.124 0.041 6.77 1.82 12.35
11/5/2020 11:45:00 AM 6.32 43.376 0.04 6.82 1.87 12.33
11/5/2020 12:00:00 PM 6.46 43.628 0.041 6.79 5.47 12.27
11/5/2020 12:15:00 PM 6.62 43.916 0.041 6.83 2.06 12.23
11/5/2020 12:30:00 PM 6.81 44.258 0.04 6.7 2.08 12.18
11/5/2020 12:45:00 PM 6.98 44.564 0.04 6.83 7.43 12.11
11/5/2020 1:00:00 PM 7.12 44.816 0.041 6.83 1.77 12.08
11/5/2020 1:15:00 PM 7.26 45.068 0.04 6.73 1.74 12.05
11/5/2020 1:30:00 PM 7.38 45.284 0.04 6.73 1.68 12.01
11/5/2020 1:45:00 PM 7.51 45.518 0.04 6.77 1.72 11.98
11/5/2020 2:00:00 PM 7.63 45.734 0.04 6.83 1.66 11.94
11/5/2020 2:15:00 PM 7.75 45.95 0.04 6.75 1.7 11.89
11/5/2020 2:30:00 PM 7.82 46.076 0.04 6.82 1.79 11.84
11/5/2020 2:45:00 PM 7.88 46.184 0.041 6.74 1.72 11.83
11/5/2020 3:00:00 PM 7.9 46.22 0.04 6.84 1.7 11.79
11/5/2020 3:15:00 PM 7.92 46.256 0.04 6.83 1.75 11.78
11/5/2020 3:30:00 PM 7.9 46.22 0.041 6.82 1.69 11.74
11/5/2020 3:45:00 PM 7.84 46.112 0.041 6.67 1.68 11.73
11/5/2020 4:00:00 PM 7.77 45.986 0.041 6.81 2.76 11.71
11/5/2020 4:15:00 PM 7.71 45.878 0.041 6.75 1.66 11.69
11/5/2020 4:30:00 PM 7.65 45.77 0.041 6.79 4.03 11.67
11/5/2020 4:45:00 PM 7.6 45.68 0.041 6.71 1.79 11.67
11/5/2020 5:00:00 PM 7.53 45.554 0.041 6.77 1.76 11.65
11/5/2020 5:15:00 PM 7.47 45.446 0.041 6.73 1.78 11.64
11/5/2020 5:30:00 PM 7.42 45.356 0.041 6.73 1.79 11.59
11/5/2020 5:45:00 PM 7.36 45.248 0.041 6.73 1.81 11.6
11/5/2020 6:00:00 PM 7.31 45.158 0.041 6.7 1.71 11.59
11/5/2020 6:15:00 PM 7.28 45.104 0.041 6.58 1.83 11.59
11/5/2020 6:30:00 PM 7.25 45.05 0.041 6.68 1.88 11.58
11/5/2020 6:45:00 PM 7.23 45.014 0.041 6.7 1.78 11.6
11/5/2020 7:00:00 PM 7.21 44.978 0.041 6.69 1.79 11.61
11/5/2020 7:15:00 PM 7.19 44.942 0.041 6.57 1.79 11.62
11/5/2020 7:30:00 PM 7.18 44.924 0.041 6.69 1.82 11.62
11/5/2020 7:45:00 PM 7.16 44.888 0.041 6.7 1.8 11.63
11/5/2020 8:00:00 PM 7.15 44.87 0.041 6.68 1.85 11.63
11/5/2020 8:15:00 PM 7.13 44.834 0.041 6.69 1.79 11.63
11/5/2020 8:30:00 PM 7.12 44.816 0.041 6.67 1.83 11.62
11/5/2020 8:45:00 PM 7.11 44.798 0.041 6.67 1.9 11.63
11/5/2020 9:00:00 PM 7.1 44.78 0.042 6.67 1.81 11.62
11/5/2020 9:15:00 PM 7.08 44.744 0.042 6.6 1.79 11.65
11/5/2020 9:30:00 PM 7.07 44.726 0.042 6.69 1.83 11.65
11/5/2020 9:45:00 PM 7.06 44.708 0.041 6.68 1.86 11.65
11/5/2020 10:00:00 PM 7.05 44.69 0.042 6.68 1.79 11.64
11/5/2020 10:15:00 PM 7.04 44.672 0.042 6.55 1.87 11.65
11/5/2020 10:30:00 PM 7.04 44.672 0.042 6.69 1.83 11.65
11/5/2020 10:45:00 PM 7.03 44.654 0.042 6.67 1.88 11.65
11/5/2020 11:00:00 PM 7.02 44.636 0.042 6.68 1.84 11.66
11/5/2020 11:15:00 PM 7 44.6 0.042 6.62 1.75 11.68
11/5/2020 11:30:00 PM 6.98 44.564 0.042 6.61 1.78 11.68
11/5/2020 11:45:00 PM 6.96 44.528 0.042 6.68 1.79 11.67
11/6/2020 12:00:00 AM 6.93 44.474 0.042 6.67 1.79 11.66
11/6/2020 12:15:00 AM 6.92 44.456 0.042 6.65 1.78 11.68
11/6/2020 12:30:00 AM 6.9 44.42 0.042 6.65 1.78 11.7
11/6/2020 12:45:00 AM 6.89 44.402 0.042 6.69 1.79 11.7
11/6/2020 1:00:00 AM 6.89 44.402 0.042 6.68 1.85 11.71
11/6/2020 1:15:00 AM 6.88 44.384 0.042 6.69 1.8 11.7
11/6/2020 1:30:00 AM 6.87 44.366 0.042 6.68 1.77 11.71
11/6/2020 1:45:00 AM 6.86 44.348 0.042 6.68 1.75 11.72
11/6/2020 2:00:00 AM 6.85 44.33 0.042 6.69 1.83 11.73
11/6/2020 2:15:00 AM 6.83 44.294 0.042 6.58 1.83 11.72
11/6/2020 2:30:00 AM 6.8 44.24 0.042 6.68 1.81 11.71
11/6/2020 2:45:00 AM 6.76 44.168 0.042 6.68 1.73 11.75
11/6/2020 3:00:00 AM 6.71 44.078 0.042 6.68 1.8 11.75
11/6/2020 3:15:00 AM 6.67 44.006 0.042 6.58 1.77 11.78
11/6/2020 3:30:00 AM 6.62 43.916 0.042 6.65 1.76 11.77
11/6/2020 3:45:00 AM 6.57 43.826 0.042 6.6 1.73 11.8
11/6/2020 4:00:00 AM 6.51 43.718 0.042 6.67 1.78 11.82
11/6/2020 4:15:00 AM 6.45 43.61 0.042 6.67 1.86 11.82
11/6/2020 4:30:00 AM 6.4 43.52 0.042 6.66 1.85 11.83
11/6/2020 4:45:00 AM 6.36 43.448 0.042 6.67 1.78 11.84
11/6/2020 5:00:00 AM 6.31 43.358 0.042 6.66 1.78 11.87
11/6/2020 5:15:00 AM 6.25 43.25 0.042 6.63 1.77 11.89
11/6/2020 5:30:00 AM 6.21 43.178 0.042 6.67 1.81 11.91
11/6/2020 5:45:00 AM 6.17 43.106 0.042 6.68 1.78 11.94
11/6/2020 6:00:00 AM 6.13 43.034 0.042 6.54 1.8 11.92
11/6/2020 6:15:00 AM 6.09 42.962 0.042 6.64 1.81 11.94
11/6/2020 6:30:00 AM 6.06 42.908 0.042 6.68 1.86 11.93
11/6/2020 6:45:00 AM 6.02 42.836 0.042 6.62 1.79 11.92
11/6/2020 7:00:00 AM 5.97 42.746 0.042 6.54 1.8 11.98
11/6/2020 7:15:00 AM 5.94 42.692 0.042 6.63 1.94 12
11/6/2020 7:30:00 AM 5.91 42.638 0.042 6.69 1.83 12.05
11/6/2020 7:45:00 AM 5.88 42.584 0.042 6.6 1.95 12.07
11/6/2020 8:00:00 AM 5.86 42.548 0.042 6.69 1.83 12.08
11/6/2020 8:15:00 AM 5.85 42.53 0.042 6.7 1.9 12.14
11/6/2020 8:30:00 AM 5.82 42.476 0.041 6.7 1.8 12.2
11/6/2020 8:45:00 AM 5.83 42.494 0.041 6.71 1.84 12.19
11/6/2020 9:00:00 AM 5.85 42.53 0.041 6.72 1.76 12.21
11/6/2020 9:15:00 AM 5.9 42.62 0.041 6.73 1.78 12.24
11/6/2020 9:30:00 AM 5.98 42.764 0.041 6.73 1.76 12.23
11/6/2020 9:45:00 AM 6.11 42.998 0.041 6.76 1.84 12.25
11/6/2020 10:00:00 AM 6.23 43.214 0.041 6.75 2.22 12.21
11/6/2020 10:15:00 AM 6.4 43.52 0.041 6.77 1.8 12.18
11/6/2020 10:30:00 AM 6.57 43.826 0.041 6.78 1.79 12.15
11/6/2020 10:45:00 AM 6.71 44.078 0.041 6.8 1.76 12.1
11/6/2020 11:00:00 AM 6.89 44.402 0.041 6.67 1.89 12.07
11/6/2020 11:15:00 AM 7.07 44.726 0.041 6.82 1.81 12.01
11/6/2020 11:30:00 AM 7.26 45.068 0.041 6.82 1.8 12
11/6/2020 11:45:00 AM 7.48 45.464 0.041 6.82 2.17 11.94
11/6/2020 12:00:00 PM 7.68 45.824 0.041 6.84 1.69 11.89
11/6/2020 12:15:00 PM 7.91 46.238 0.041 6.86 1.65 11.84
11/6/2020 12:30:00 PM 8.16 46.688 0.041 6.85 2.74 11.76
11/6/2020 12:45:00 PM 8.4 47.12 0.041 6.87 1.69 11.7
11/6/2020 1:00:00 PM 8.59 47.462 0.041 6.86 1.69 11.67
11/6/2020 1:15:00 PM 8.76 47.768 0.041 6.83 1.78 11.61
11/6/2020 1:30:00 PM 8.97 48.146 0.041 6.87 1.81 11.55
11/6/2020 1:45:00 PM 9.13 48.434 0.041 6.86 1.75 11.52
11/6/2020 2:00:00 PM 9.3 48.74 0.041 6.79 1.61 11.47
11/6/2020 2:15:00 PM 9.41 48.938 0.041 6.87 1.68 11.43
11/6/2020 2:30:00 PM 9.48 49.064 0.041 6.87 1.77 11.41
11/6/2020 2:45:00 PM 9.52 49.136 0.041 6.86 1.69 11.37
11/6/2020 3:00:00 PM 9.53 49.154 0.041 6.76 1.78 11.35
11/6/2020 3:15:00 PM 9.5 49.1 0.041 6.86 1.66 11.33
11/6/2020 3:30:00 PM 9.42 48.956 0.041 6.83 2.02 11.31
11/6/2020 3:45:00 PM 9.29 48.722 0.041 6.85 1.8 11.35
11/6/2020 4:00:00 PM 9.17 48.506 0.041 6.83 1.71 11.32
11/6/2020 4:15:00 PM 9.07 48.326 0.041 6.79 1.73 11.3
11/6/2020 4:30:00 PM 8.95 48.11 0.041 6.68 1.76 11.3
11/6/2020 4:45:00 PM 8.83 47.894 0.041 6.79 1.67 11.28
11/6/2020 5:00:00 PM 8.72 47.696 0.041 6.77 1.75 11.3
11/6/2020 5:15:00 PM 8.62 47.516 0.042 6.74 1.77 11.28
11/6/2020 5:30:00 PM 8.54 47.372 0.042 6.72 1.73 11.26
11/6/2020 5:45:00 PM 8.46 47.228 0.042 6.72 1.88 11.25
11/6/2020 6:00:00 PM 8.39 47.102 0.042 6.68 1.72 11.24
11/6/2020 6:15:00 PM 8.32 46.976 0.042 6.7 1.79 11.26
11/6/2020 6:30:00 PM 8.27 46.886 0.042 6.7 1.84 11.27
11/6/2020 6:45:00 PM 8.21 46.778 0.042 6.56 1.75 11.29
11/6/2020 7:00:00 PM 8.16 46.688 0.042 6.7 1.72 11.3
11/6/2020 7:15:00 PM 8.12 46.616 0.042 6.69 1.78 11.29
11/6/2020 7:30:00 PM 8.07 46.526 0.042 6.57 1.79 11.32
11/6/2020 7:45:00 PM 8.02 46.436 0.042 6.7 1.74 11.33
11/6/2020 8:00:00 PM 7.97 46.346 0.042 6.68 1.77 11.33
11/6/2020 8:15:00 PM 7.93 46.274 0.042 6.68 1.8 11.35
11/6/2020 8:30:00 PM 7.88 46.184 0.042 6.68 2.64 11.36
11/6/2020 8:45:00 PM 7.84 46.112 0.042 6.68 1.87 11.37
11/6/2020 9:00:00 PM 7.79 46.022 0.041 6.66 3.11 11.38
11/6/2020 9:15:00 PM 7.75 45.95 0.042 6.67 1.72 11.4
11/6/2020 9:30:00 PM 7.7 45.86 0.042 6.67 1.76 11.42
11/6/2020 9:45:00 PM 7.66 45.788 0.042 6.66 1.79 11.41
11/6/2020 10:00:00 PM 7.61 45.698 0.042 6.66 1.77 11.43
11/6/2020 10:15:00 PM 7.56 45.608 0.042 6.67 1.78 11.46
11/6/2020 10:30:00 PM 7.52 45.536 0.042 6.67 1.78 11.48
11/6/2020 10:45:00 PM 7.48 45.464 0.042 6.68 1.84 11.47
11/6/2020 11:00:00 PM 7.42 45.356 0.042 6.65 1.79 11.51
11/6/2020 11:15:00 PM 7.39 45.302 0.042 6.68 2.09 11.5
11/6/2020 11:30:00 PM 7.34 45.212 0.042 6.67 2.16 11.5
11/6/2020 11:45:00 PM 7.3 45.14 0.042 6.68 2.28 11.51
11/7/2020 12:00:00 AM 7.24 45.032 0.042 6.67 1.82 11.55
11/7/2020 12:15:00 AM 7.19 44.942 0.042 6.68 1.84 11.54
11/7/2020 12:30:00 AM 7.15 44.87 0.042 6.58 1.9 11.57
11/7/2020 12:45:00 AM 7.1 44.78 0.042 6.68 2.07 11.58
11/7/2020 1:00:00 AM 7.05 44.69 0.042 6.59 1.82 11.6
11/7/2020 1:15:00 AM 7 44.6 0.042 6.66 1.84 11.63
11/7/2020 1:30:00 AM 6.96 44.528 0.042 6.68 2.09 11.64
11/7/2020 1:45:00 AM 6.91 44.438 0.042 6.64 2.1 11.65
11/7/2020 2:00:00 AM 6.86 44.348 0.042 6.68 1.87 11.67
11/7/2020 2:15:00 AM 6.81 44.258 0.042 6.68 2.14 11.68
11/7/2020 2:30:00 AM 6.76 44.168 0.042 6.68 2.2 11.71
11/7/2020 2:45:00 AM 6.71 44.078 0.042 6.68 2.26 11.72
11/7/2020 3:00:00 AM 6.66 43.988 0.042 6.68 4.28 11.73
11/7/2020 3:15:00 AM 6.62 43.916 0.042 6.66 1.81 11.74
11/7/2020 3:30:00 AM 6.57 43.826 0.042 6.68 1.89 11.76
11/7/2020 3:45:00 AM 6.52 43.736 0.042 6.64 2 11.78
11/7/2020 4:00:00 AM 6.47 43.646 0.042 6.68 2 11.81
11/7/2020 4:15:00 AM 6.41 43.538 0.042 6.68 2.2 11.83
11/7/2020 4:30:00 AM 6.37 43.466 0.042 6.66 1.93 11.84
11/7/2020 4:45:00 AM 6.32 43.376 0.042 6.61 2.19 11.83
11/7/2020 5:00:00 AM 6.28 43.304 0.042 6.63 2.18 11.85
11/7/2020 5:15:00 AM 6.23 43.214 0.042 6.68 2.24 11.89
11/7/2020 5:30:00 AM 6.19 43.142 0.042 6.68 2.07 11.88
11/7/2020 5:45:00 AM 6.15 43.07 0.042 6.68 2.29 11.92
11/7/2020 6:00:00 AM 6.13 43.034 0.042 6.63 2.04 11.91
11/7/2020 6:15:00 AM 6.11 42.998 0.042 6.68 1.77 11.95
11/7/2020 6:30:00 AM 6.09 42.962 0.042 6.68 1.94 11.95
11/7/2020 6:45:00 AM 6.07 42.926 0.042 6.69 1.99 11.97
11/7/2020 7:00:00 AM 6.06 42.908 0.042 6.69 1.79 11.95
11/7/2020 7:15:00 AM 6.05 42.89 0.042 6.7 1.91 11.99
11/7/2020 7:30:00 AM 6.03 42.854 0.042 6.69 1.81 12.02
11/7/2020 7:45:00 AM 6 42.8 0.042 6.69 3.52 12.07
11/7/2020 8:00:00 AM 5.98 42.764 0.042 6.72 1.88 12.08
11/7/2020 8:15:00 AM 5.97 42.746 0.042 6.62 3.14 12.15
11/7/2020 8:30:00 AM 5.99 42.782 0.042 6.66 1.96 12.21
11/7/2020 8:45:00 AM 6.03 42.854 0.042 6.74 1.83 12.24
11/7/2020 9:00:00 AM 6.09 42.962 0.042 6.76 1.84 12.26
11/7/2020 9:15:00 AM 6.14 43.052 0.042 6.68 1.81 12.26
11/7/2020 9:30:00 AM 6.19 43.142 0.042 6.76 1.74 12.25
11/7/2020 9:45:00 AM 6.23 43.214 0.042 6.77 2.1 12.26
11/7/2020 10:00:00 AM 6.32 43.376 0.042 6.65 1.78 12.21
11/7/2020 10:15:00 AM 6.45 43.61 0.042 6.81 1.9 12.23
11/7/2020 10:30:00 AM 6.58 43.844 0.042 6.8 1.85 12.18
11/7/2020 10:45:00 AM 6.72 44.096 0.042 6.8 1.72 12.15
11/7/2020 11:00:00 AM 6.87 44.366 0.042 6.82 1.79 12.11
11/7/2020 11:15:00 AM 7.04 44.672 0.042 6.8 1.77 12.09
11/7/2020 11:30:00 AM 7.23 45.014 0.042 6.74 1.76 12.03
11/7/2020 11:45:00 AM 7.4 45.32 0.042 6.82 1.63 11.99
11/7/2020 12:00:00 PM 7.6 45.68 0.042 6.85 1.73 11.95
11/7/2020 12:15:00 PM 7.82 46.076 0.041 6.86 1.71 11.88
11/7/2020 12:30:00 PM 8.05 46.49 0.041 6.82 1.71 11.82
11/7/2020 12:45:00 PM 8.31 46.958 0.041 6.87 1.75 11.76
11/7/2020 1:00:00 PM 8.52 47.336 0.041 6.86 1.67 11.72
11/7/2020 1:15:00 PM 8.69 47.642 0.041 6.84 1.64 11.66
11/7/2020 1:30:00 PM 8.91 48.038 0.041 6.88 1.75 11.62
11/7/2020 1:45:00 PM 9.08 48.344 0.041 6.88 1.65 11.57
11/7/2020 2:00:00 PM 9.21 48.578 0.041 6.87 1.63 11.55
11/7/2020 2:15:00 PM 9.29 48.722 0.041 6.81 1.79 11.5
11/7/2020 2:30:00 PM 9.35 48.83 0.041 6.89 1.69 11.47
11/7/2020 2:45:00 PM 9.37 48.866 0.041 6.83 1.68 11.44
11/7/2020 3:00:00 PM 9.36 48.848 0.041 6.76 1.7 11.42
11/7/2020 3:15:00 PM 9.26 48.668 0.041 6.86 1.68 11.43
11/7/2020 3:30:00 PM 9.21 48.578 0.041 6.84 1.59 11.43
11/7/2020 3:45:00 PM 9.13 48.434 0.041 6.86 2.08 11.44
11/7/2020 4:00:00 PM 9.03 48.254 0.041 6.71 1.66 11.45
11/7/2020 4:15:00 PM 8.96 48.128 0.042 6.83 1.82 11.39
11/7/2020 4:30:00 PM 8.85 47.93 0.042 6.8 4.91 11.37
11/7/2020 4:45:00 PM 8.77 47.786 0.042 6.68 1.74 11.38
11/7/2020 5:00:00 PM 8.67 47.606 0.042 6.79 1.7 11.35
11/7/2020 5:15:00 PM 8.56 47.408 0.042 6.77 1.99 11.34
11/7/2020 5:30:00 PM 8.48 47.264 0.042 6.75 1.73 11.31
11/7/2020 5:45:00 PM 8.38 47.084 0.042 6.68 1.69 11.31
11/7/2020 6:00:00 PM 8.31 46.958 0.042 6.71 1.67 11.25
11/7/2020 6:15:00 PM 8.23 46.814 0.042 6.71 1.8 11.31
11/7/2020 6:30:00 PM 8.16 46.688 0.042 6.69 1.68 11.32
11/7/2020 6:45:00 PM 8.1 46.58 0.042 6.63 1.8 11.32
11/7/2020 7:00:00 PM 8.05 46.49 0.042 6.7 1.77 11.33
11/7/2020 7:15:00 PM 7.99 46.382 0.042 6.69 1.74 11.34
11/7/2020 7:30:00 PM 7.93 46.274 0.042 6.68 1.78 11.35
11/7/2020 7:45:00 PM 7.87 46.166 0.042 6.68 1.74 11.37
11/7/2020 8:00:00 PM 7.83 46.094 0.042 6.67 1.72 11.37
11/7/2020 8:15:00 PM 7.77 45.986 0.042 6.69 1.78 11.4
11/7/2020 8:30:00 PM 7.72 45.896 0.042 6.69 1.77 11.43
11/7/2020 8:45:00 PM 7.67 45.806 0.042 6.68 1.96 11.43
11/7/2020 9:00:00 PM 7.64 45.752 0.042 6.68 1.96 11.42
11/7/2020 9:15:00 PM 7.59 45.662 0.042 6.66 1.78 11.44
11/7/2020 9:30:00 PM 7.53 45.554 0.042 6.68 1.72 11.46
11/7/2020 9:45:00 PM 7.49 45.482 0.042 6.63 1.73 11.46
11/7/2020 10:00:00 PM 7.43 45.374 0.042 6.59 1.79 11.49
11/7/2020 10:15:00 PM 7.39 45.302 0.042 6.63 1.75 11.49
11/7/2020 10:30:00 PM 7.34 45.212 0.042 6.69 1.8 11.52
11/7/2020 10:45:00 PM 7.29 45.122 0.042 6.68 1.77 11.55
11/7/2020 11:00:00 PM 7.23 45.014 0.042 6.69 1.76 11.57
11/7/2020 11:15:00 PM 7.19 44.942 0.043 6.56 1.96 11.54
11/7/2020 11:30:00 PM 7.14 44.852 0.042 6.68 1.8 11.58
11/7/2020 11:45:00 PM 7.09 44.762 0.042 6.63 1.79 11.59
11/8/2020 12:00:00 AM 7.03 44.654 0.042 6.68 1.73 11.62
11/8/2020 12:15:00 AM 6.98 44.564 0.043 6.68 1.79 11.65
11/8/2020 12:30:00 AM 6.92 44.456 0.042 6.67 1.78 11.65
11/8/2020 12:45:00 AM 6.88 44.384 0.043 6.68 1.76 11.65
11/8/2020 1:00:00 AM 6.82 44.276 0.043 6.6 1.73 11.7
11/8/2020 1:15:00 AM 6.77 44.186 0.043 6.63 1.78 11.7
11/8/2020 1:30:00 AM 6.72 44.096 0.043 6.64 1.86 11.72
11/8/2020 1:45:00 AM 6.67 44.006 0.043 6.63 1.76 11.75
11/8/2020 2:00:00 AM 6.61 43.898 0.043 6.66 1.83 11.76
11/8/2020 2:15:00 AM 6.56 43.808 0.043 6.68 1.74 11.79
11/8/2020 2:30:00 AM 6.52 43.736 0.043 6.67 1.76 11.74
11/8/2020 2:45:00 AM 6.46 43.628 0.043 6.67 1.7 11.75
11/8/2020 3:00:00 AM 6.41 43.538 0.043 6.63 1.69 11.83
11/8/2020 3:15:00 AM 6.35 43.43 0.043 6.7 1.73 11.86
11/8/2020 3:30:00 AM 6.3 43.34 0.043 6.58 1.79 11.86
11/8/2020 3:45:00 AM 6.25 43.25 0.043 6.7 1.81 11.87
11/8/2020 4:00:00 AM 6.2 43.16 0.043 6.58 1.8 11.89
11/8/2020 4:15:00 AM 6.15 43.07 0.043 6.69 1.81 11.91
11/8/2020 4:30:00 AM 6.1 42.98 0.043 6.6 1.7 11.93
11/8/2020 4:45:00 AM 6.05 42.89 0.043 6.69 1.98 11.92
11/8/2020 5:00:00 AM 6 42.8 0.043 6.68 1.73 11.95
11/8/2020 5:15:00 AM 5.96 42.728 0.043 6.68 1.74 11.97
11/8/2020 5:30:00 AM 5.91 42.638 0.043 6.57 1.79 12
11/8/2020 5:45:00 AM 5.87 42.566 0.043 6.7 1.72 12.03
11/8/2020 6:00:00 AM 5.84 42.512 0.043 6.67 1.75 12.04
11/8/2020 6:15:00 AM 5.79 42.422 0.043 6.68 1.75 12.06
11/8/2020 6:30:00 AM 5.77 42.386 0.043 6.7 1.76 12.04
11/8/2020 6:45:00 AM 5.72 42.296 0.043 6.7 1.77 12.09
11/8/2020 7:00:00 AM 5.69 42.242 0.043 6.68 1.77 12.05
11/8/2020 7:15:00 AM 5.67 42.206 0.043 6.64 1.73 12.12
11/8/2020 7:30:00 AM 5.65 42.17 0.043 6.71 1.8 12.16
11/8/2020 7:45:00 AM 5.64 42.152 0.043 6.72 1.76 12.19
11/8/2020 8:00:00 AM 5.65 42.17 0.043 6.65 1.73 12.22
11/8/2020 8:15:00 AM 5.66 42.188 0.042 6.64 1.72 12.29
11/8/2020 8:30:00 AM 5.69 42.242 0.042 6.67 1.7 12.3
11/8/2020 8:45:00 AM 5.72 42.296 0.042 6.76 1.71 12.36
11/8/2020 9:00:00 AM 5.78 42.404 0.042 6.74 3.27 12.35
11/8/2020 9:15:00 AM 5.8 42.44 0.042 6.69 1.97 12.4
11/8/2020 9:30:00 AM 5.83 42.494 0.042 6.78 1.77 12.4
11/8/2020 9:45:00 AM 5.89 42.602 0.042 6.78 10.29 12.35
11/8/2020 10:00:00 AM 5.98 42.764 0.042 6.78 1.77 12.36
11/8/2020 10:15:00 AM 6.13 43.034 0.042 6.78 2.85 12.33
11/8/2020 10:30:00 AM 6.28 43.304 0.042 6.74 1.95 12.33
11/8/2020 10:45:00 AM 6.42 43.556 0.042 6.84 1.77 12.3
11/8/2020 11:00:00 AM 6.56 43.808 0.042 6.78 1.73 12.26
11/8/2020 11:15:00 AM 6.75 44.15 0.042 6.84 2.37 12.21
11/8/2020 11:30:00 AM 6.94 44.492 0.042 6.83 2.31 12.18
11/8/2020 11:45:00 AM 7.14 44.852 0.042 6.85 2.41 12.12
11/8/2020 12:00:00 PM 7.34 45.212 0.042 6.85 1.87 12.05
11/8/2020 12:15:00 PM 7.54 45.572 0.042 6.8 1.71 12.01
11/8/2020 12:30:00 PM 7.79 46.022 0.042 6.88 1.62 11.96
11/8/2020 12:45:00 PM 8.03 46.454 0.042 6.86 1.67 11.89
11/8/2020 1:00:00 PM 8.25 46.85 0.042 6.87 4.76 11.83
11/8/2020 1:15:00 PM 8.44 47.192 0.042 6.87 1.61 11.79
11/8/2020 1:30:00 PM 8.63 47.534 0.042 6.89 1.69 11.74
11/8/2020 1:45:00 PM 8.82 47.876 0.042 6.89 1.64 11.69
11/8/2020 2:00:00 PM 8.99 48.182 0.042 6.85 1.68 11.64
11/8/2020 2:15:00 PM 9.12 48.416 0.042 6.88 1.63 11.6
11/8/2020 2:30:00 PM 9.19 48.542 0.042 6.88 1.65 11.58
11/8/2020 2:45:00 PM 9.24 48.632 0.042 6.89 1.81 11.54
11/8/2020 3:00:00 PM 9.25 48.65 0.042 6.72 1.61 11.53
11/8/2020 3:15:00 PM 9.23 48.614 0.042 6.87 2.04 11.51
11/8/2020 3:30:00 PM 9.13 48.434 0.042 6.76 1.65 11.51
11/8/2020 3:45:00 PM 9.01 48.218 0.042 6.87 1.81 11.5
11/8/2020 4:00:00 PM 8.87 47.966 0.042 6.83 1.71 11.49
11/8/2020 4:15:00 PM 8.72 47.696 0.042 6.82 1.71 11.48
11/8/2020 4:30:00 PM 8.6 47.48 0.042 6.81 1.73 11.47
11/8/2020 4:45:00 PM 8.5 47.3 0.042 6.79 1.68 11.45
11/8/2020 5:00:00 PM 8.37 47.066 0.042 6.77 1.69 11.45
11/8/2020 5:15:00 PM 8.28 46.904 0.042 6.74 1.64 11.42
11/8/2020 5:30:00 PM 8.18 46.724 0.042 6.72 1.67 11.41
11/8/2020 5:45:00 PM 8.08 46.544 0.042 6.72 1.73 11.4
11/8/2020 6:00:00 PM 7.97 46.346 0.043 6.73 1.76 11.44
11/8/2020 6:15:00 PM 7.92 46.256 0.043 6.67 1.72 11.4
11/8/2020 6:30:00 PM 7.85 46.13 0.043 6.71 1.67 11.42
11/8/2020 6:45:00 PM 7.78 46.004 0.043 6.6 1.68 11.44
11/8/2020 7:00:00 PM 7.73 45.914 0.043 6.7 1.76 11.43
11/8/2020 7:15:00 PM 7.67 45.806 0.043 6.69 1.79 11.46
11/8/2020 7:30:00 PM 7.61 45.698 0.043 6.69 1.77 11.48
11/8/2020 7:45:00 PM 7.57 45.626 0.043 6.69 1.77 11.48
11/8/2020 8:00:00 PM 7.54 45.572 0.043 6.66 1.72 11.48
11/8/2020 8:15:00 PM 7.48 45.464 0.043 6.69 1.8 11.5
11/8/2020 8:30:00 PM 7.44 45.392 0.043 6.68 1.88 11.52
11/8/2020 8:45:00 PM 7.39 45.302 0.043 6.69 1.74 11.53
11/8/2020 9:00:00 PM 7.35 45.23 0.043 6.69 1.76 11.56
11/8/2020 9:15:00 PM 7.31 45.158 0.043 6.66 1.69 11.55
11/8/2020 9:30:00 PM 7.27 45.086 0.043 6.65 1.74 11.56
11/8/2020 9:45:00 PM 7.23 45.014 0.043 6.68 1.75 11.55
11/8/2020 10:00:00 PM 7.18 44.924 0.043 6.65 1.77 11.59
11/8/2020 10:15:00 PM 7.14 44.852 0.043 6.69 1.76 11.6
11/8/2020 10:30:00 PM 7.1 44.78 0.043 6.68 1.89 11.62
11/8/2020 10:45:00 PM 7.06 44.708 0.043 6.68 1.87 11.59
11/8/2020 11:00:00 PM 7.01 44.618 0.043 6.68 1.76 11.63
11/8/2020 11:15:00 PM 6.96 44.528 0.043 6.68 1.75 11.66
11/8/2020 11:30:00 PM 6.93 44.474 0.043 6.69 1.76 11.66
11/8/2020 11:45:00 PM 6.89 44.402 0.043 6.65 1.85 11.67
11/9/2020 12:00:00 AM 6.84 44.312 0.043 6.59 1.8 11.69
11/9/2020 12:15:00 AM 6.8 44.24 0.043 6.69 1.75 11.69
11/9/2020 12:30:00 AM 6.76 44.168 0.043 6.67 1.83 11.7
11/9/2020 12:45:00 AM 6.72 44.096 0.043 6.68 1.75 11.72
11/9/2020 1:00:00 AM 6.67 44.006 0.043 6.6 1.76 11.75
11/9/2020 1:15:00 AM 6.63 43.934 0.043 6.7 1.71 11.76
11/9/2020 1:30:00 AM 6.58 43.844 0.043 6.69 1.73 11.75
11/9/2020 1:45:00 AM 6.53 43.754 0.043 6.66 1.77 11.79
11/9/2020 2:00:00 AM 6.49 43.682 0.043 6.69 1.75 11.79
11/9/2020 2:15:00 AM 6.45 43.61 0.043 6.64 1.74 11.78
11/9/2020 2:30:00 AM 6.4 43.52 0.043 6.67 1.78 11.82
11/9/2020 2:45:00 AM 6.36 43.448 0.043 6.69 1.77 11.85
11/9/2020 3:00:00 AM 6.32 43.376 0.043 6.68 1.75 11.85
11/9/2020 3:15:00 AM 6.26 43.268 0.043 6.6 1.74 11.9
11/9/2020 3:30:00 AM 6.21 43.178 0.043 6.7 2.06 11.92
11/9/2020 3:45:00 AM 6.17 43.106 0.043 6.69 1.71 11.92
11/9/2020 4:00:00 AM 6.13 43.034 0.043 6.7 1.69 11.93
11/9/2020 4:15:00 AM 6.08 42.944 0.043 6.68 1.74 11.93
11/9/2020 4:30:00 AM 6.03 42.854 0.043 6.69 1.94 11.96
11/9/2020 4:45:00 AM 5.98 42.764 0.043 6.68 1.8 11.97
11/9/2020 5:00:00 AM 5.93 42.674 0.043 6.58 1.82 12
11/9/2020 5:15:00 AM 5.89 42.602 0.043 6.71 1.72 12.01
11/9/2020 5:30:00 AM 5.84 42.512 0.043 6.7 1.74 12.03
11/9/2020 5:45:00 AM 5.8 42.44 0.043 6.69 1.82 12.03
11/9/2020 6:00:00 AM 5.75 42.35 0.043 6.64 1.82 12.08
11/9/2020 6:15:00 AM 5.71 42.278 0.043 6.7 1.75 12.06
11/9/2020 6:30:00 AM 5.66 42.188 0.043 6.63 1.78 12.07
11/9/2020 6:45:00 AM 5.61 42.098 0.043 6.69 1.73 12.1
11/9/2020 7:00:00 AM 5.58 42.044 0.043 6.7 1.75 12.1
11/9/2020 7:15:00 AM 5.54 41.972 0.043 6.69 1.72 12.15
11/9/2020 7:30:00 AM 5.51 41.918 0.043 6.67 1.73 12.18
11/9/2020 7:45:00 AM 5.49 41.882 0.043 6.6 1.7 12.2
11/9/2020 8:00:00 AM 5.47 41.846 0.043 6.72 1.68 12.27
11/9/2020 8:15:00 AM 5.48 41.864 0.043 6.71 1.69 12.29
11/9/2020 8:30:00 AM 5.48 41.864 0.043 6.73 1.78 12.34
11/9/2020 8:45:00 AM 5.5 41.9 0.043 6.62 1.74 12.37
11/9/2020 9:00:00 AM 5.53 41.954 0.043 6.75 1.76 12.37
11/9/2020 9:15:00 AM 5.56 42.008 0.043 6.66 1.89 12.42
11/9/2020 9:30:00 AM 5.61 42.098 0.042 6.77 1.73 12.42
11/9/2020 9:45:00 AM 5.69 42.242 0.042 6.73 1.73 12.42
11/9/2020 10:00:00 AM 5.79 42.422 0.042 6.77 2.02 12.41
11/9/2020 10:15:00 AM 5.96 42.728 0.042 6.81 1.7 12.39
11/9/2020 10:30:00 AM 6.12 43.016 0.042 6.81 1.68 12.34
11/9/2020 10:45:00 AM 6.28 43.304 0.042 6.82 1.73 12.29
11/9/2020 11:00:00 AM 6.45 43.61 0.042 6.83 1.71 12.28
11/9/2020 11:15:00 AM 6.67 44.006 0.042 6.85 1.83 12.26
11/9/2020 11:30:00 AM 6.84 44.312 0.042 6.86 2.27 12.19
11/9/2020 11:45:00 AM 7.05 44.69 0.042 6.85 2.24 12.11
11/9/2020 12:00:00 PM 7.26 45.068 0.042 6.86 1.82 12.06
11/9/2020 12:15:00 PM 7.47 45.446 0.042 6.87 1.68 12.02
11/9/2020 12:30:00 PM 7.74 45.932 0.042 6.88 1.71 11.87
11/9/2020 12:45:00 PM 8.02 46.436 0.042 6.87 1.71 11.87
11/9/2020 1:00:00 PM 8.23 46.814 0.042 6.74 2.89 11.83
11/9/2020 1:15:00 PM 8.41 47.138 0.042 6.9 2.55 11.75
11/9/2020 1:30:00 PM 8.64 47.552 0.042 6.75 1.63 11.72
11/9/2020 1:45:00 PM 8.83 47.894 0.042 6.9 3.09 11.68
11/9/2020 2:00:00 PM 9.03 48.254 0.042 6.89 1.66 11.64
11/9/2020 2:15:00 PM 9.16 48.488 0.042 6.89 1.6 11.61
11/9/2020 2:30:00 PM 9.25 48.65 0.042 6.89 1.57 11.55
11/9/2020 2:45:00 PM 9.29 48.722 0.042 6.83 1.62 11.52
11/9/2020 3:00:00 PM 9.33 48.794 0.042 6.88 1.6 11.48
11/9/2020 3:15:00 PM 9.32 48.776 0.042 6.77 3.57 11.45
11/9/2020 3:30:00 PM 9.25 48.65 0.042 6.88 1.67 11.45
11/9/2020 3:45:00 PM 9.11 48.398 0.042 6.76 1.59 11.46
11/9/2020 4:00:00 PM 8.95 48.11 0.042 6.87 1.6 11.46
11/9/2020 4:15:00 PM 8.82 47.876 0.042 6.84 1.62 11.43
11/9/2020 4:30:00 PM 8.69 47.642 0.042 6.82 1.68 11.43
11/9/2020 4:45:00 PM 8.58 47.444 0.042 6.75 1.6 11.41
11/9/2020 5:00:00 PM 8.46 47.228 0.042 6.7 1.61 11.41
11/9/2020 5:15:00 PM 8.36 47.048 0.043 6.7 1.71 11.37
11/9/2020 5:30:00 PM 8.27 46.886 0.043 6.73 1.77 11.34
11/9/2020 5:45:00 PM 8.18 46.724 0.043 6.71 1.73 11.34
11/9/2020 6:00:00 PM 8.09 46.562 0.043 6.64 1.7 11.35
11/9/2020 6:15:00 PM 8.03 46.454 0.043 6.71 1.74 11.34
11/9/2020 6:30:00 PM 7.97 46.346 0.043 6.71 1.68 11.33
11/9/2020 6:45:00 PM 7.91 46.238 0.043 6.7 1.75 11.36
11/9/2020 7:00:00 PM 7.86 46.148 0.043 6.71 1.76 11.37
11/9/2020 7:15:00 PM 7.81 46.058 0.043 6.7 1.71 11.35
11/9/2020 7:30:00 PM 7.77 45.986 0.043 6.63 1.71 11.38
11/9/2020 7:45:00 PM 7.73 45.914 0.043 6.7 1.7 11.39
11/9/2020 8:00:00 PM 7.7 45.86 0.043 6.61 1.82 11.38
11/9/2020 8:15:00 PM 7.66 45.788 0.043 6.67 1.79 11.4
11/9/2020 8:30:00 PM 7.62 45.716 0.043 6.62 1.76 11.4
11/9/2020 8:45:00 PM 7.58 45.644 0.043 6.69 1.69 11.4
11/9/2020 9:00:00 PM 7.54 45.572 0.043 6.69 1.76 11.44
11/9/2020 9:15:00 PM 7.5 45.5 0.043 6.65 1.72 11.47
11/9/2020 9:30:00 PM 7.47 45.446 0.043 6.62 1.8 11.46
11/9/2020 9:45:00 PM 7.43 45.374 0.043 6.69 1.7 11.47
11/9/2020 10:00:00 PM 7.4 45.32 0.043 6.69 1.83 11.46
11/9/2020 10:15:00 PM 7.37 45.266 0.043 6.63 1.71 11.48
11/9/2020 10:30:00 PM 7.33 45.194 0.043 6.69 1.74 11.5
11/9/2020 10:45:00 PM 7.29 45.122 0.043 6.69 1.71 11.49
11/9/2020 11:00:00 PM 7.26 45.068 0.043 6.69 1.68 11.51
11/9/2020 11:15:00 PM 7.23 45.014 0.043 6.68 1.82 11.5
11/9/2020 11:30:00 PM 7.19 44.942 0.043 6.69 1.8 11.53
11/9/2020 11:45:00 PM 7.17 44.906 0.043 6.68 1.74 11.52
11/10/2020 12:00:00 AM 7.13 44.834 0.043 6.7 1.72 11.56
11/10/2020 12:15:00 AM 7.11 44.798 0.043 6.68 1.74 11.51
11/10/2020 12:30:00 AM 7.07 44.726 0.043 6.69 1.76 11.54
11/10/2020 12:45:00 AM 7.04 44.672 0.043 6.66 1.77 11.54
11/10/2020 1:00:00 AM 7.01 44.618 0.043 6.69 1.73 11.58
11/10/2020 1:15:00 AM 6.98 44.564 0.043 6.69 1.73 11.56
11/10/2020 1:30:00 AM 6.95 44.51 0.043 6.68 1.69 11.56
11/10/2020 1:45:00 AM 6.91 44.438 0.043 6.69 1.69 11.62
11/10/2020 2:00:00 AM 6.88 44.384 0.043 6.59 1.76 11.6
11/10/2020 2:15:00 AM 6.85 44.33 0.043 6.67 1.65 11.59
11/10/2020 2:30:00 AM 6.81 44.258 0.043 6.68 1.72 11.64
11/10/2020 2:45:00 AM 6.78 44.204 0.043 6.69 1.69 11.63
11/10/2020 3:00:00 AM 6.73 44.114 0.043 6.7 1.77 11.67
11/10/2020 3:15:00 AM 6.71 44.078 0.043 6.69 1.77 11.65
11/10/2020 3:30:00 AM 6.67 44.006 0.043 6.69 1.71 11.68
11/10/2020 3:45:00 AM 6.63 43.934 0.043 6.69 1.77 11.7
11/10/2020 4:00:00 AM 6.6 43.88 0.043 6.55 1.7 11.71
11/10/2020 4:15:00 AM 6.57 43.826 0.043 6.7 1.77 11.71
11/10/2020 4:30:00 AM 6.53 43.754 0.043 6.7 1.7 11.73
11/10/2020 4:45:00 AM 6.51 43.718 0.043 6.68 1.82 11.72
11/10/2020 5:00:00 AM 6.47 43.646 0.043 6.7 1.75 11.72
11/10/2020 5:15:00 AM 6.45 43.61 0.043 6.68 1.73 11.74
11/10/2020 5:30:00 AM 6.41 43.538 0.043 6.58 1.76 11.76
11/10/2020 5:45:00 AM 6.38 43.484 0.043 6.68 1.69 11.78
11/10/2020 6:00:00 AM 6.37 43.466 0.043 6.61 1.67 11.77
11/10/2020 6:15:00 AM 6.37 43.466 0.043 6.71 1.72 11.78
11/10/2020 6:30:00 AM 6.37 43.466 0.043 6.7 1.69 11.79
11/10/2020 6:45:00 AM 6.39 43.502 0.043 6.69 1.66 11.73
11/10/2020 7:00:00 AM 6.39 43.502 0.043 6.72 1.74 11.8
11/10/2020 7:15:00 AM 6.41 43.538 0.043 6.59 1.73 11.81
11/10/2020 7:30:00 AM 6.42 43.556 0.043 6.72 1.67 11.82
11/10/2020 7:45:00 AM 6.43 43.574 0.043 6.64 1.72 11.81
11/10/2020 8:00:00 AM 6.44 43.592 0.043 6.73 1.81 11.87
11/10/2020 8:15:00 AM 6.45 43.61 0.043 6.66 1.72 11.92
11/10/2020 8:30:00 AM 6.46 43.628 0.043 6.75 1.69 11.97
11/10/2020 8:45:00 AM 6.46 43.628 0.043 6.72 1.77 12
11/10/2020 9:00:00 AM 6.47 43.646 0.043 6.77 1.75 12.01
11/10/2020 9:15:00 AM 6.49 43.682 0.043 6.61 2.2 12.03
11/10/2020 9:30:00 AM 6.54 43.772 0.043 6.79 1.67 12.05
11/10/2020 9:45:00 AM 6.62 43.916 0.043 6.76 1.8 12.06
11/10/2020 10:00:00 AM 6.73 44.114 0.043 6.79 1.77 12.05
11/10/2020 10:15:00 AM 6.87 44.366 0.042 6.81 1.96 12.03
11/10/2020 10:30:00 AM 7.05 44.69 0.042 6.68 1.72 12.01
11/10/2020 10:45:00 AM 7.22 44.996 0.042 6.85 1.79 11.97
11/10/2020 11:00:00 AM 7.39 45.302 0.043 6.84 1.97 11.92
11/10/2020 11:15:00 AM 7.6 45.68 0.042 6.85 1.7 11.9
11/10/2020 11:30:00 AM 7.77 45.986 0.042 6.86 2.87 11.86
11/10/2020 11:45:00 AM 7.97 46.346 0.042 6.85 1.71 11.8
11/10/2020 12:00:00 PM 8.19 46.742 0.042 6.88 1.61 11.77
11/10/2020 12:15:00 PM 8.4 47.12 0.042 6.72 1.65 11.69
11/10/2020 12:30:00 PM 8.64 47.552 0.042 6.87 1.73 11.62
11/10/2020 12:45:00 PM 8.91 48.038 0.042 6.88 2.2 11.57
11/10/2020 1:00:00 PM 9.17 48.506 0.042 6.9 1.63 11.54
11/10/2020 1:15:00 PM 9.34 48.812 0.042 6.83 1.63 11.46
11/10/2020 1:30:00 PM 9.56 49.208 0.042 6.9 1.88 11.42
11/10/2020 1:45:00 PM 9.8 49.64 0.042 6.92 1.89 11.39
11/10/2020 2:00:00 PM 10 50 0.042 6.91 1.88 11.3
11/10/2020 2:15:00 PM 10.15 50.27 0.042 6.92 2.42 11.28
11/10/2020 2:30:00 PM 10.25 50.45 0.042 6.91 1.62 11.24
11/10/2020 2:45:00 PM 10.33 50.594 0.042 6.9 1.59 11.18
11/10/2020 3:00:00 PM 10.37 50.666 0.042 6.91 1.57 11.15
11/10/2020 3:15:00 PM 10.37 50.666 0.042 6.91 1.55 11.13
11/10/2020 3:30:00 PM 10.32 50.576 0.042 6.78 1.67 11.07
11/10/2020 3:45:00 PM 10.22 50.396 0.042 6.89 1.62 11.1
11/10/2020 4:00:00 PM 10.08 50.144 0.042 6.85 1.61 11.04
11/10/2020 4:15:00 PM 9.94 49.892 0.042 6.86 1.91 11.07
11/10/2020 4:30:00 PM 9.86 49.748 0.042 6.86 1.73 11.03
11/10/2020 4:45:00 PM 9.77 49.586 0.043 6.83 1.63 11
11/10/2020 5:00:00 PM 9.68 49.424 0.043 6.79 1.62 10.95
11/10/2020 5:15:00 PM 9.58 49.244 0.043 6.66 1.67 10.95
11/10/2020 5:30:00 PM 9.5 49.1 0.043 6.72 1.78 10.92
11/10/2020 5:45:00 PM 9.42 48.956 0.043 6.78 1.64 10.91
11/10/2020 6:00:00 PM 9.35 48.83 0.043 6.77 1.65 10.91
11/10/2020 6:15:00 PM 9.29 48.722 0.043 6.75 1.71 10.89
11/10/2020 6:30:00 PM 9.22 48.596 0.043 6.74 1.73 10.92
11/10/2020 6:45:00 PM 9.17 48.506 0.043 6.72 1.81 10.89
11/10/2020 7:00:00 PM 9.13 48.434 0.043 6.62 1.65 10.89
11/10/2020 7:15:00 PM 9.08 48.344 0.043 6.74 1.68 10.93
11/10/2020 7:30:00 PM 9.06 48.308 0.043 6.6 1.75 10.88
11/10/2020 7:45:00 PM 9.03 48.254 0.043 6.68 1.68 10.9
11/10/2020 8:00:00 PM 9.01 48.218 0.043 6.73 1.94 10.92
11/10/2020 8:15:00 PM 8.99 48.182 0.043 6.64 1.62 10.93
11/10/2020 8:30:00 PM 8.98 48.164 0.043 6.72 1.72 10.92
11/10/2020 8:45:00 PM 8.97 48.146 0.043 6.67 1.75 10.94
11/10/2020 9:00:00 PM 8.98 48.164 0.043 6.68 1.64 10.92
11/10/2020 9:15:00 PM 8.98 48.164 0.043 6.71 1.78 10.91
11/10/2020 9:30:00 PM 8.97 48.146 0.043 6.65 1.85 10.95
11/10/2020 9:45:00 PM 8.97 48.146 0.043 6.73 1.72 10.93
11/10/2020 10:00:00 PM 8.96 48.128 0.043 6.69 1.71 10.93
11/10/2020 10:15:00 PM 8.95 48.11 0.043 6.72 1.72 10.93
11/10/2020 10:30:00 PM 8.95 48.11 0.043 6.73 1.69 10.93
11/10/2020 10:45:00 PM 8.94 48.092 0.043 6.72 1.68 10.93
11/10/2020 11:00:00 PM 8.93 48.074 0.043 6.73 1.67 10.93
11/10/2020 11:15:00 PM 8.92 48.056 0.043 6.73 1.73 10.92
11/10/2020 11:30:00 PM 8.92 48.056 0.043 6.73 1.71 10.94
11/10/2020 11:45:00 PM 8.91 48.038 0.043 6.58 1.68 10.91
11/11/2020 12:00:00 AM 8.91 48.038 0.043 6.73 1.69 10.9
11/11/2020 12:15:00 AM 8.91 48.038 0.043 6.71 1.78 10.93
11/11/2020 12:30:00 AM 8.9 48.02 0.043 6.7 1.73 10.92
11/11/2020 12:45:00 AM 8.88 47.984 0.043 6.71 1.67 10.93
11/11/2020 1:00:00 AM 8.87 47.966 0.043 6.72 1.68 10.94
11/11/2020 1:15:00 AM 8.85 47.93 0.044 6.72 1.65 10.92
11/11/2020 1:30:00 AM 8.84 47.912 0.044 6.73 1.64 10.94
11/11/2020 1:45:00 AM 8.83 47.894 0.044 6.71 1.7 10.92
11/11/2020 2:00:00 AM 8.82 47.876 0.044 6.7 1.73 10.89
11/11/2020 2:15:00 AM 8.8 47.84 0.044 6.72 1.79 10.93
11/11/2020 2:30:00 AM 8.78 47.804 0.044 6.71 1.65 10.94
11/11/2020 2:45:00 AM 8.76 47.768 0.044 6.71 1.66 10.91
11/11/2020 3:00:00 AM 8.74 47.732 0.044 6.71 1.7 10.96
11/11/2020 3:15:00 AM 8.72 47.696 0.044 6.71 1.65 10.93
11/11/2020 3:30:00 AM 8.71 47.678 0.044 6.69 1.61 10.92
11/11/2020 3:45:00 AM 8.71 47.678 0.044 6.68 1.64 10.93
11/11/2020 4:00:00 AM 8.72 47.696 0.044 6.71 1.62 10.96
11/11/2020 4:15:00 AM 8.74 47.732 0.044 6.71 1.71 10.95
11/11/2020 4:30:00 AM 8.76 47.768 0.044 6.71 1.64 10.95
11/11/2020 4:45:00 AM 8.79 47.822 0.044 6.72 1.68 10.93
11/11/2020 5:00:00 AM 8.82 47.876 0.044 6.6 1.72 10.94
11/11/2020 5:15:00 AM 8.85 47.93 0.044 6.72 1.63 10.9
11/11/2020 5:30:00 AM 8.88 47.984 0.044 6.61 1.7 10.94
11/11/2020 5:45:00 AM 8.9 48.02 0.044 6.71 1.65 10.94
11/11/2020 6:00:00 AM 8.92 48.056 0.044 6.62 1.68 10.91
11/11/2020 6:15:00 AM 8.94 48.092 0.043 6.72 1.76 10.89
11/11/2020 6:30:00 AM 8.96 48.128 0.043 6.72 1.7 10.92
11/11/2020 6:45:00 AM 8.99 48.182 0.043 6.72 1.74 10.9
11/11/2020 7:00:00 AM 9.02 48.236 0.043 6.73 2 10.93
11/11/2020 7:15:00 AM 9.05 48.29 0.043 6.69 1.86 10.9
11/11/2020 7:30:00 AM 9.07 48.326 0.042 6.64 1.9 10.9
11/11/2020 7:45:00 AM 9.1 48.38 0.042 6.67 22.76 10.74
11/11/2020 8:00:00 AM 9.12 48.416 0.042 6.71 5.15 10.88
11/11/2020 8:15:00 AM 9.14 48.452 0.042 6.7 2.99 10.9
11/11/2020 8:30:00 AM 9.16 48.488 0.042 6.71 1.94 10.93
11/11/2020 8:45:00 AM 9.17 48.506 0.042 6.73 2.07 10.94
11/11/2020 9:00:00 AM 9.19 48.542 0.042 6.68 1.96 10.94
11/11/2020 9:15:00 AM 9.21 48.578 0.042 6.71 2.83 10.93
11/11/2020 9:30:00 AM 9.23 48.614 0.042 6.75 2.07 11.01
11/11/2020 9:45:00 AM 9.26 48.668 0.042 6.72 2 10.96
11/11/2020 10:00:00 AM 9.3 48.74 0.042 6.75 1.95 11.02
11/11/2020 10:15:00 AM 9.32 48.776 0.041 6.76 2.02 11.01
11/11/2020 10:30:00 AM 9.35 48.83 0.041 6.63 2.03 11.01
11/11/2020 10:45:00 AM 9.39 48.902 0.041 6.69 2.08 11.01
11/11/2020 11:00:00 AM 9.43 48.974 0.041 6.75 2.16 11.06
11/11/2020 11:15:00 AM 9.47 49.046 0.041 6.77 2.17 11.08
11/11/2020 11:30:00 AM 9.51 49.118 0.041 6.64 2.39 11.09
11/11/2020 11:45:00 AM 9.55 49.19 0.041 6.8 3.22 11.1
11/11/2020 12:00:00 PM 9.59 49.262 0.042 6.75 3.71 11.11
11/11/2020 12:15:00 PM 9.64 49.352 0.042 6.83 4.27 11.14
11/11/2020 12:30:00 PM 9.69 49.442 0.043 6.84 5.25 11.13
11/11/2020 12:45:00 PM 9.72 49.496 0.043 6.84 5.28 11.12
11/11/2020 1:00:00 PM 9.74 49.532 0.043 6.83 5.1 11.09
11/11/2020 1:15:00 PM 9.74 49.532 0.043 6.79 4.76 11.06
11/11/2020 1:30:00 PM 9.76 49.568 0.042 6.85 5.64 11.06
11/11/2020 1:45:00 PM 9.77 49.586 0.042 6.83 5.99 11.06
11/11/2020 2:00:00 PM 9.82 49.676 0.041 6.83 6.67 11.06
11/11/2020 2:15:00 PM 9.83 49.694 0.041 6.81 8.52 11.03
11/11/2020 2:30:00 PM 9.85 49.73 0.041 6.69 10.03 11.03
11/11/2020 2:45:00 PM 9.87 49.766 0.041 6.81 9.99 11.03
11/11/2020 3:00:00 PM 9.91 49.838 0.041 6.79 11.4 11.04
11/11/2020 3:15:00 PM 9.93 49.874 0.041 6.65 11.1 11.03
11/11/2020 3:30:00 PM 9.94 49.892 0.041 6.78 12.55 11
11/11/2020 3:45:00 PM 9.94 49.892 0.042 6.76 15.58 10.95
11/11/2020 4:00:00 PM 9.93 49.874 0.042 6.67 14.02 10.93
11/11/2020 4:15:00 PM 9.93 49.874 0.042 6.75 13.28 10.9
11/11/2020 4:30:00 PM 9.93 49.874 0.042 6.65 11.79 10.89
11/11/2020 4:45:00 PM 9.93 49.874 0.042 6.75 10.15 10.89
11/11/2020 5:00:00 PM 9.91 49.838 0.041 6.73 9.9 10.9
11/11/2020 5:15:00 PM 9.89 49.802 0.04 6.69 10.43 10.9
11/11/2020 5:30:00 PM 9.87 49.766 0.04 6.68 11.86 10.91
11/11/2020 5:45:00 PM 9.86 49.748 0.039 6.66 11.82 10.91
11/11/2020 6:00:00 PM 9.85 49.73 0.039 6.66 11.58 10.91
11/11/2020 6:15:00 PM 9.84 49.712 0.038 6.65 10.34 10.92
11/11/2020 6:30:00 PM 9.84 49.712 0.038 6.64 10.72 10.92
11/11/2020 6:45:00 PM 9.84 49.712 0.038 6.62 9.9 10.92
11/11/2020 7:00:00 PM 9.85 49.73 0.038 6.61 9.42 10.91
11/11/2020 7:15:00 PM 9.86 49.748 0.038 6.56 9.18 10.91
11/11/2020 7:30:00 PM 9.87 49.766 0.037 6.61 8.44 10.9
11/11/2020 7:45:00 PM 9.88 49.784 0.037 6.6 8.48 10.89
11/11/2020 8:00:00 PM 9.89 49.802 0.037 6.47 8.87 10.9
11/11/2020 8:15:00 PM 9.91 49.838 0.037 6.58 8.01 10.89
11/11/2020 8:30:00 PM 9.92 49.856 0.037 6.58 8.24 10.88
11/11/2020 8:45:00 PM 9.95 49.91 0.037 6.59 7.45 10.87
11/11/2020 9:00:00 PM 9.97 49.946 0.037 6.59 7.33 10.87
11/11/2020 9:15:00 PM 10.01 50.018 0.036 6.59 7.51 10.86
11/11/2020 9:30:00 PM 10.02 50.036 0.036 6.64 6.67 10.87
11/11/2020 9:45:00 PM 10.02 50.036 0.036 6.63 6.23 10.86
11/11/2020 10:00:00 PM 10.03 50.054 0.036 6.63 5.99 10.85
11/11/2020 10:15:00 PM 10.02 50.036 0.036 6.54 5.72 10.86
11/11/2020 10:30:00 PM 10.03 50.054 0.036 6.63 5.4 10.87
11/11/2020 10:45:00 PM 10.03 50.054 0.036 6.64 5.36 10.85
11/11/2020 11:00:00 PM 10.03 50.054 0.036 6.65 5.69 10.86
11/11/2020 11:15:00 PM 10.03 50.054 0.036 6.63 5.47 10.86
11/11/2020 11:30:00 PM 10.02 50.036 0.036 6.65 5.01 10.87
11/11/2020 11:45:00 PM 10.02 50.036 0.036 6.51 5.11 10.87
11/12/2020 12:00:00 AM 10.01 50.018 0.036 6.62 4.68 10.87
11/12/2020 12:15:00 AM 9.99 49.982 0.036 6.66 4.86 10.88
11/12/2020 12:30:00 AM 9.96 49.928 0.036 6.66 4.6 10.89
11/12/2020 12:45:00 AM 9.93 49.874 0.036 6.65 4.89 10.9
11/12/2020 1:00:00 AM 9.9 49.82 0.036 6.66 5.4 10.9
11/12/2020 1:15:00 AM 9.87 49.766 0.036 6.65 4.82 10.92
11/12/2020 1:30:00 AM 9.84 49.712 0.036 6.58 4.52 10.92
11/12/2020 1:45:00 AM 9.81 49.658 0.036 6.64 4.3 10.92
11/12/2020 2:00:00 AM 9.78 49.604 0.036 6.65 4.86 10.94
11/12/2020 2:15:00 AM 9.75 49.55 0.036 6.66 4.14 10.95
11/12/2020 2:30:00 AM 9.72 49.496 0.036 6.51 4.23 10.96
11/12/2020 2:45:00 AM 9.69 49.442 0.036 6.64 4.97 10.97
11/12/2020 3:00:00 AM 9.67 49.406 0.036 6.64 4.09 10.98
11/12/2020 3:15:00 AM 9.64 49.352 0.036 6.57 3.96 10.99
11/12/2020 3:30:00 AM 9.61 49.298 0.036 6.63 3.88 10.99
11/12/2020 3:45:00 AM 9.58 49.244 0.036 6.6 3.83 11
11/12/2020 4:00:00 AM 9.54 49.172 0.037 6.52 3.8 11
11/12/2020 4:15:00 AM 9.51 49.118 0.037 6.62 3.99 11.01
11/12/2020 4:30:00 AM 9.47 49.046 0.037 6.58 3.74 11.02
11/12/2020 4:45:00 AM 9.44 48.992 0.037 6.6 3.74 11.03
11/12/2020 5:00:00 AM 9.39 48.902 0.037 6.64 3.91 11.05
11/12/2020 5:15:00 AM 9.35 48.83 0.037 6.63 3.62 11.07
11/12/2020 5:30:00 AM 9.31 48.758 0.037 6.64 3.59 11.08
11/12/2020 5:45:00 AM 9.28 48.704 0.037 6.63 3.68 11.09
11/12/2020 6:00:00 AM 9.24 48.632 0.037 6.58 3.44 11.1
11/12/2020 6:15:00 AM 9.22 48.596 0.037 6.64 3.45 11.11
11/12/2020 6:30:00 AM 9.2 48.56 0.037 6.63 3.69 11.12
11/12/2020 6:45:00 AM 9.16 48.488 0.037 6.65 3.5 11.13
11/12/2020 7:00:00 AM 9.13 48.434 0.037 6.63 3.48 11.14
11/12/2020 7:15:00 AM 9.09 48.362 0.037 6.65 3.93 11.15
11/12/2020 7:30:00 AM 9.06 48.308 0.037 6.53 3.62 11.18
11/12/2020 7:45:00 AM 9.03 48.254 0.037 6.58 4.34 11.2
11/12/2020 8:00:00 AM 9 48.2 0.037 6.66 3.22 11.24
11/12/2020 8:15:00 AM 8.97 48.146 0.037 6.61 3.12 11.27
11/12/2020 8:30:00 AM 8.95 48.11 0.037 6.68 3.16 11.3
11/12/2020 8:45:00 AM 8.93 48.074 0.037 6.67 3.17 11.34
11/12/2020 9:00:00 AM 8.92 48.056 0.037 6.69 3.85 11.35
11/12/2020 9:15:00 AM 8.92 48.056 0.037 6.68 3.31 11.38
11/12/2020 9:30:00 AM 8.93 48.074 0.037 6.72 3.07 11.41
11/12/2020 9:45:00 AM 8.94 48.092 0.037 6.72 4.01 11.42
11/12/2020 10:00:00 AM 8.96 48.128 0.037 6.63 3.08 11.41
11/12/2020 10:15:00 AM 8.98 48.164 0.037 6.74 2.91 11.43
11/12/2020 10:30:00 AM 8.97 48.146 0.037 6.73 2.83 11.45
11/12/2020 10:45:00 AM 8.96 48.128 0.037 6.61 2.99 11.44
11/12/2020 11:00:00 AM 8.97 48.146 0.037 6.74 2.96 11.45
11/12/2020 11:15:00 AM 9.01 48.218 0.037 6.72 2.93 11.46
11/12/2020 11:30:00 AM 9.05 48.29 0.037 6.76 2.71 11.46
11/12/2020 11:45:00 AM 9.07 48.326 0.037 6.74 2.75 11.45
11/12/2020 12:00:00 PM 9.09 48.362 0.037 6.76 2.82 11.45
11/12/2020 12:15:00 PM 9.13 48.434 0.037 6.75 2.66 11.45
11/12/2020 12:30:00 PM 9.18 48.524 0.037 6.77 2.73 11.44
11/12/2020 12:45:00 PM 9.22 48.596 0.037 6.77 2.68 11.42
11/12/2020 1:00:00 PM 9.25 48.65 0.037 6.77 2.69 11.42
11/12/2020 1:15:00 PM 9.26 48.668 0.037 6.75 2.77 11.41
11/12/2020 1:30:00 PM 9.25 48.65 0.037 6.77 2.65 11.41
11/12/2020 1:45:00 PM 9.24 48.632 0.037 6.73 2.76 11.38
11/12/2020 2:00:00 PM 9.26 48.668 0.037 6.75 2.69 11.39
11/12/2020 2:15:00 PM 9.29 48.722 0.037 6.8 2.62 11.39
11/12/2020 2:30:00 PM 9.32 48.776 0.037 6.77 2.58 11.37
11/12/2020 2:45:00 PM 9.31 48.758 0.037 6.74 2.73 11.37
11/12/2020 3:00:00 PM 9.27 48.686 0.037 6.77 2.76 11.36
11/12/2020 3:15:00 PM 9.22 48.596 0.037 6.73 2.58 11.35
11/12/2020 3:30:00 PM 9.16 48.488 0.037 6.76 2.67 11.35
11/12/2020 3:45:00 PM 9.1 48.38 0.037 6.74 2.7 11.33
11/12/2020 4:00:00 PM 9.03 48.254 0.037 6.69 2.58 11.31
11/12/2020 4:15:00 PM 8.98 48.164 0.037 6.67 2.58 11.31
11/12/2020 4:30:00 PM 8.93 48.074 0.037 6.73 2.53 11.3
11/12/2020 4:45:00 PM 8.86 47.948 0.037 6.71 2.62 11.28
11/12/2020 5:00:00 PM 8.79 47.822 0.037 6.68 2.63 11.27
11/12/2020 5:15:00 PM 8.71 47.678 0.037 6.67 2.64 11.26
11/12/2020 5:30:00 PM 8.64 47.552 0.037 6.66 2.77 11.25
11/12/2020 5:45:00 PM 8.57 47.426 0.037 6.57 2.69 11.26
11/12/2020 6:00:00 PM 8.5 47.3 0.037 6.65 2.58 11.29
11/12/2020 6:15:00 PM 8.42 47.156 0.037 6.61 2.54 11.3
11/12/2020 6:30:00 PM 8.35 47.03 0.037 6.66 2.5 11.32
11/12/2020 6:45:00 PM 8.28 46.904 0.038 6.58 2.77 11.35
11/12/2020 7:00:00 PM 8.21 46.778 0.038 6.64 2.53 11.36
11/12/2020 7:15:00 PM 8.13 46.634 0.038 6.54 2.49 11.39
11/12/2020 7:30:00 PM 8.06 46.508 0.038 6.63 2.63 11.4
11/12/2020 7:45:00 PM 7.99 46.382 0.038 6.63 2.56 11.42
11/12/2020 8:00:00 PM 7.92 46.256 0.038 6.51 2.59 11.44
11/12/2020 8:15:00 PM 7.85 46.13 0.038 6.63 2.47 11.46
11/12/2020 8:30:00 PM 7.78 46.004 0.038 6.59 2.69 11.49
11/12/2020 8:45:00 PM 7.71 45.878 0.038 6.62 2.74 11.51
11/12/2020 9:00:00 PM 7.64 45.752 0.038 6.52 2.44 11.53
11/12/2020 9:15:00 PM 7.57 45.626 0.038 6.63 2.63 11.55
11/12/2020 9:30:00 PM 7.5 45.5 0.038 6.62 2.47 11.56
11/12/2020 9:45:00 PM 7.42 45.356 0.038 6.52 2.77 11.59
11/12/2020 10:00:00 PM 7.36 45.248 0.038 6.65 2.39 11.6
11/12/2020 10:15:00 PM 7.29 45.122 0.038 6.63 2.58 11.63
11/12/2020 10:30:00 PM 7.22 44.996 0.038 6.63 2.43 11.65
11/12/2020 10:45:00 PM 7.15 44.87 0.038 6.53 2.37 11.67
11/12/2020 11:00:00 PM 7.08 44.744 0.038 6.61 2.48 11.69
11/12/2020 11:15:00 PM 7.02 44.636 0.038 6.54 2.34 11.7
11/12/2020 11:30:00 PM 6.96 44.528 0.038 6.65 2.48 11.73
11/12/2020 11:45:00 PM 6.9 44.42 0.038 6.64 2.48 11.74
11/13/2020 12:00:00 AM 6.84 44.312 0.038 6.64 2.31 11.76
11/13/2020 12:15:00 AM 6.77 44.186 0.038 6.64 2.36 11.78
11/13/2020 12:30:00 AM 6.72 44.096 0.038 6.58 2.54 11.8
11/13/2020 12:45:00 AM 6.67 44.006 0.038 6.66 2.36 11.81
11/13/2020 1:00:00 AM 6.61 43.898 0.038 6.53 2.45 11.83
11/13/2020 1:15:00 AM 6.55 43.79 0.038 6.65 2.34 11.84
11/13/2020 1:30:00 AM 6.5 43.7 0.038 6.65 2.28 11.85
11/13/2020 1:45:00 AM 6.47 43.646 0.038 6.64 2.46 11.87
11/13/2020 2:00:00 AM 6.46 43.628 0.038 6.66 2.38 11.88
11/13/2020 2:15:00 AM 6.44 43.592 0.038 6.66 2.32 11.89
11/13/2020 2:30:00 AM 6.41 43.538 0.038 6.67 2.29 11.9
11/13/2020 2:45:00 AM 6.37 43.466 0.038 6.65 2.25 11.9
11/13/2020 3:00:00 AM 6.32 43.376 0.038 6.67 2.24 11.93
11/13/2020 3:15:00 AM 6.27 43.286 0.038 6.66 2.36 11.93
11/13/2020 3:30:00 AM 6.22 43.196 0.038 6.54 2.33 11.96
11/13/2020 3:45:00 AM 6.17 43.106 0.038 6.66 2.28 11.97
11/13/2020 4:00:00 AM 6.13 43.034 0.038 6.67 2.29 11.98
11/13/2020 4:15:00 AM 6.09 42.962 0.038 6.66 2.47 11.99
11/13/2020 4:30:00 AM 6.06 42.908 0.038 6.57 2.26 12
11/13/2020 4:45:00 AM 6.02 42.836 0.038 6.66 2.34 12.01
11/13/2020 5:00:00 AM 5.98 42.764 0.038 6.69 2.31 12.02
11/13/2020 5:15:00 AM 5.95 42.71 0.038 6.56 2.17 12.04
11/13/2020 5:30:00 AM 5.91 42.638 0.038 6.69 2.18 12.02
11/13/2020 5:45:00 AM 5.87 42.566 0.038 6.58 2.23 12.07
11/13/2020 6:00:00 AM 5.83 42.494 0.038 6.69 2.26 12.08
11/13/2020 6:15:00 AM 5.8 42.44 0.038 6.68 2.24 12.09
11/13/2020 6:30:00 AM 5.76 42.368 0.038 6.68 2.33 12.1
11/13/2020 6:45:00 AM 5.71 42.278 0.038 6.68 2.26 12.11
11/13/2020 7:00:00 AM 5.67 42.206 0.038 6.65 3.28 12.12
11/13/2020 7:15:00 AM 5.64 42.152 0.038 6.69 2.78 12.14
11/13/2020 7:30:00 AM 5.62 42.116 0.038 6.65 2.18 12.16
11/13/2020 7:45:00 AM 5.6 42.08 0.038 6.69 2.15 12.2
11/13/2020 8:00:00 AM 5.59 42.062 0.038 6.71 2.14 12.24
11/13/2020 8:15:00 AM 5.59 42.062 0.038 6.72 2.18 12.28
11/13/2020 8:30:00 AM 5.6 42.08 0.038 6.73 2.12 12.31
11/13/2020 8:45:00 AM 5.62 42.116 0.038 6.74 2.16 12.35
11/13/2020 9:00:00 AM 5.64 42.152 0.038 6.77 2.09 12.38
11/13/2020 9:15:00 AM 5.66 42.188 0.038 6.76 2.18 12.38
11/13/2020 9:30:00 AM 5.7 42.26 0.038 6.78 2.05 12.4
11/13/2020 9:45:00 AM